<?xml version="1.0" encoding="UTF-8" standalone="no" ?>
<gpx xmlns="http://www.topografix.com/GPX/1/1" xmlns:xsi="http://www.w3.org/2001/XMLSchema-instance" xsi:schemaLocation="http://www.topografix.com/GPX/1/1 http://www.topografix.com/GPX/1/1/gpx.xsd" version="1.1" creator="VisuGPX - https://www.visugpx.com">
  <metadata>
    <name>GR34-finistere-sud</name>
    <desc><![CDATA[Randonnée en Bretagne sur le GR34 à travers le Finistère de Trunvel à Concarneau. Gîte d'étape, Maison d'hôtes, Chambres d'hôtes, Hôtel, Camping, Refuge, Auberge.]]></desc>
  </metadata>
  <trk>
    <name><![CDATA[GR34 De Douarnenez à Trunvel (Finistère) (2020)]]></name>
    <desc><![CDATA[Randonnée en Bretagne sur le GR34 à travers le Finistère de Douarnenez à Trunvel. Gîte d'étape, Maison d'hôtes, Chambres d'hôtes, Hôtel, Camping, Refuge, Auberge.]]></desc>
    <extensions>
      <line xmlns="http://www.topografix.com/GPX/gpx_style/0/2">
        <color>00FF00</color>
        <width>4</width>
      </line>
    </extensions>
    <trkseg>
      <trkpt lat="47.89721" lon="-4.35303">
        <ele>9.788</ele>
        <time>2016-04-30T01:05:22Z</time>
      </trkpt>
      <trkpt lat="47.89686" lon="-4.35393">
        <ele>5.976</ele>
        <time>2016-04-30T01:05:02Z</time>
      </trkpt>
      <trkpt lat="47.89644" lon="-4.35446">
        <ele>3.07</ele>
        <time>2016-04-30T01:04:42Z</time>
      </trkpt>
      <trkpt lat="47.89565" lon="-4.35684">
        <ele>3.708</ele>
        <time>2016-04-30T01:04:22Z</time>
      </trkpt>
      <trkpt lat="47.89486" lon="-4.35804">
        <ele>4.017</ele>
        <time>2016-04-30T01:04:02Z</time>
      </trkpt>
      <trkpt lat="47.89579" lon="-4.35981">
        <ele>4.861</ele>
        <time>2016-04-30T01:03:42Z</time>
      </trkpt>
      <trkpt lat="47.89685" lon="-4.36082">
        <ele>3.748</ele>
        <time>2016-04-30T01:03:22Z</time>
      </trkpt>
      <trkpt lat="47.89686" lon="-4.36115">
        <ele>3.174</ele>
        <time>2016-04-30T01:03:02Z</time>
      </trkpt>
      <trkpt lat="47.89876" lon="-4.3627">
        <ele>4.564</ele>
        <time>2016-04-30T01:02:42Z</time>
      </trkpt>
      <trkpt lat="47.89886" lon="-4.36252">
        <ele>4.94</ele>
        <time>2016-04-30T01:02:22Z</time>
      </trkpt>
      <trkpt lat="47.90017" lon="-4.36409">
        <ele>6.056</ele>
        <time>2016-04-30T01:02:02Z</time>
      </trkpt>
      <trkpt lat="47.90381" lon="-4.36492">
        <ele>5.554</ele>
        <time>2016-04-30T01:01:42Z</time>
      </trkpt>
      <trkpt lat="47.90452" lon="-4.36559">
        <ele>4.187</ele>
        <time>2016-04-30T01:01:22Z</time>
      </trkpt>
      <trkpt lat="47.90554" lon="-4.36605">
        <ele>4.245</ele>
        <time>2016-04-30T01:01:02Z</time>
      </trkpt>
      <trkpt lat="47.90601" lon="-4.36653">
        <ele>3.089</ele>
        <time>2016-04-30T01:00:42Z</time>
      </trkpt>
      <trkpt lat="47.90684" lon="-4.36614">
        <ele>2.308</ele>
        <time>2016-04-30T01:00:22Z</time>
      </trkpt>
      <trkpt lat="47.9071" lon="-4.36618">
        <ele>1.718</ele>
        <time>2016-04-30T01:00:02Z</time>
      </trkpt>
      <trkpt lat="47.90747" lon="-4.3658">
        <ele>5.017</ele>
        <time>2016-04-30T00:59:42Z</time>
      </trkpt>
      <trkpt lat="47.90762" lon="-4.3649">
        <ele>6.336</ele>
        <time>2016-04-30T00:59:22Z</time>
      </trkpt>
      <trkpt lat="47.90821" lon="-4.36389">
        <ele>5.84</ele>
        <time>2016-04-30T00:59:02Z</time>
      </trkpt>
      <trkpt lat="47.90796" lon="-4.36357">
        <ele>8.31</ele>
        <time>2016-04-30T00:58:42Z</time>
      </trkpt>
      <trkpt lat="47.90809" lon="-4.36322">
        <ele>7.376</ele>
        <time>2016-04-30T00:58:22Z</time>
      </trkpt>
      <trkpt lat="47.90847" lon="-4.36282">
        <ele>4.542</ele>
        <time>2016-04-30T00:58:02Z</time>
      </trkpt>
      <trkpt lat="47.90924" lon="-4.36247">
        <ele>4.64</ele>
        <time>2016-04-30T00:57:42Z</time>
      </trkpt>
      <trkpt lat="47.90943" lon="-4.36207">
        <ele>4.763</ele>
        <time>2016-04-30T00:57:22Z</time>
      </trkpt>
      <trkpt lat="47.90969" lon="-4.36041">
        <ele>4.391</ele>
        <time>2016-04-30T00:57:02Z</time>
      </trkpt>
      <trkpt lat="47.90975" lon="-4.35979">
        <ele>6.695</ele>
        <time>2016-04-30T00:56:42Z</time>
      </trkpt>
      <trkpt lat="47.91001" lon="-4.35947">
        <ele>5.908</ele>
        <time>2020-12-18T23:28:43Z</time>
      </trkpt>
      <trkpt lat="47.90859" lon="-4.3581">
        <ele>20.724</ele>
        <time>2020-12-18T23:28:23Z</time>
      </trkpt>
      <trkpt lat="47.90776" lon="-4.35749">
        <ele>20.031</ele>
        <time>2020-12-18T23:28:03Z</time>
      </trkpt>
      <trkpt lat="47.90812" lon="-4.35739">
        <ele>21.096</ele>
        <time>2020-12-18T23:27:43Z</time>
      </trkpt>
      <trkpt lat="47.90774" lon="-4.35293">
        <ele>22.057</ele>
        <time>2020-12-18T23:27:23Z</time>
      </trkpt>
      <trkpt lat="47.90845" lon="-4.35322">
        <ele>22.467</ele>
        <time>2020-12-18T23:27:03Z</time>
      </trkpt>
      <trkpt lat="47.90855" lon="-4.35268">
        <ele>23.583</ele>
        <time>2020-12-18T23:26:43Z</time>
      </trkpt>
      <trkpt lat="47.90926" lon="-4.35292">
        <ele>18.059</ele>
        <time>2016-04-30T00:54:02Z</time>
      </trkpt>
      <trkpt lat="47.90988" lon="-4.35162">
        <ele>20.117</ele>
        <time>2016-04-30T00:53:42Z</time>
      </trkpt>
      <trkpt lat="47.91055" lon="-4.35039">
        <ele>21.02</ele>
        <time>2016-04-30T00:53:22Z</time>
      </trkpt>
      <trkpt lat="47.91087" lon="-4.34956">
        <ele>20.118</ele>
        <time>2016-04-30T00:53:02Z</time>
      </trkpt>
      <trkpt lat="47.91176" lon="-4.34889">
        <ele>20.382</ele>
        <time>2016-04-30T00:52:42Z</time>
      </trkpt>
      <trkpt lat="47.91287" lon="-4.34782">
        <ele>9.108</ele>
        <time>2016-04-30T00:52:22Z</time>
      </trkpt>
      <trkpt lat="47.91333" lon="-4.34792">
        <ele>8.518</ele>
        <time>2016-04-30T00:52:02Z</time>
      </trkpt>
      <trkpt lat="47.91373" lon="-4.34865">
        <ele>7.144</ele>
        <time>2016-04-30T00:51:42Z</time>
      </trkpt>
      <trkpt lat="47.91376" lon="-4.34928">
        <ele>8.563</ele>
        <time>2016-04-30T00:51:22Z</time>
      </trkpt>
      <trkpt lat="47.91281" lon="-4.35166">
        <ele>6.524</ele>
        <time>2016-04-30T00:51:02Z</time>
      </trkpt>
      <trkpt lat="47.91295" lon="-4.35258">
        <ele>8.164</ele>
        <time>2016-04-30T00:50:42Z</time>
      </trkpt>
      <trkpt lat="47.91343" lon="-4.35327">
        <ele>8.77</ele>
        <time>2016-04-30T00:50:22Z</time>
      </trkpt>
      <trkpt lat="47.91389" lon="-4.35462">
        <ele>19.056</ele>
        <time>2016-04-30T00:50:02Z</time>
      </trkpt>
      <trkpt lat="47.91377" lon="-4.35554">
        <ele>18.524</ele>
        <time>2016-04-30T00:49:42Z</time>
      </trkpt>
      <trkpt lat="47.91392" lon="-4.35827">
        <ele>18.077</ele>
        <time>2016-04-30T00:49:22Z</time>
      </trkpt>
      <trkpt lat="47.91349" lon="-4.36041">
        <ele>17.075</ele>
        <time>2016-04-30T00:49:02Z</time>
      </trkpt>
      <trkpt lat="47.91374" lon="-4.36159">
        <ele>18.229</ele>
        <time>2016-04-30T00:48:42Z</time>
      </trkpt>
      <trkpt lat="47.91294" lon="-4.36282">
        <ele>13.908</ele>
        <time>2016-04-30T00:48:22Z</time>
      </trkpt>
      <trkpt lat="47.91274" lon="-4.36355">
        <ele>12.914</ele>
        <time>2016-04-30T00:48:02Z</time>
      </trkpt>
      <trkpt lat="47.91095" lon="-4.36799">
        <ele>9.686</ele>
        <time>2016-04-30T00:47:42Z</time>
      </trkpt>
      <trkpt lat="47.90976" lon="-4.37046">
        <ele>4.435</ele>
        <time>2016-04-30T00:47:22Z</time>
      </trkpt>
      <trkpt lat="47.90992" lon="-4.37088">
        <ele>2.858</ele>
        <time>2016-04-30T00:47:02Z</time>
      </trkpt>
      <trkpt lat="47.91062" lon="-4.37125">
        <ele>2.018</ele>
        <time>2016-04-30T00:46:42Z</time>
      </trkpt>
      <trkpt lat="47.91114" lon="-4.37286">
        <ele>1.974</ele>
        <time>2016-04-30T00:46:22Z</time>
      </trkpt>
      <trkpt lat="47.91274" lon="-4.37515">
        <ele>10.38</ele>
        <time>2016-04-30T00:46:02Z</time>
      </trkpt>
      <trkpt lat="47.91216" lon="-4.37679">
        <ele>4.078</ele>
        <time>2016-04-30T00:45:42Z</time>
      </trkpt>
      <trkpt lat="47.91258" lon="-4.37734">
        <ele>3.091</ele>
        <time>2016-04-30T00:45:22Z</time>
      </trkpt>
      <trkpt lat="47.91444" lon="-4.37878">
        <ele>5.429</ele>
        <time>2016-04-30T00:45:02Z</time>
      </trkpt>
      <trkpt lat="47.91468" lon="-4.37863">
        <ele>6.783</ele>
        <time>2016-04-30T00:44:42Z</time>
      </trkpt>
      <trkpt lat="47.91786" lon="-4.38099">
        <ele>3.308</ele>
        <time>2016-04-30T00:44:22Z</time>
      </trkpt>
      <trkpt lat="47.92536" lon="-4.38618">
        <ele>1.325</ele>
        <time>2016-04-30T00:44:02Z</time>
      </trkpt>
      <trkpt lat="47.93408" lon="-4.39429">
        <ele>3.905</ele>
        <time>2016-04-30T00:43:42Z</time>
      </trkpt>
      <trkpt lat="47.93487" lon="-4.39547">
        <ele>5.479</ele>
        <time>2016-04-30T00:43:22Z</time>
      </trkpt>
      <trkpt lat="47.93537" lon="-4.39593">
        <ele>5.329</ele>
        <time>2016-04-30T00:43:02Z</time>
      </trkpt>
      <trkpt lat="47.93618" lon="-4.39719">
        <ele>4.449</ele>
        <time>2016-04-30T00:42:42Z</time>
      </trkpt>
      <trkpt lat="47.93882" lon="-4.4005">
        <ele>5.655</ele>
        <time>2016-04-30T00:42:22Z</time>
      </trkpt>
      <trkpt lat="47.93961" lon="-4.40256">
        <ele>4.531</ele>
        <time>2016-04-30T00:42:02Z</time>
      </trkpt>
      <trkpt lat="47.94024" lon="-4.40331">
        <ele>5.939</ele>
        <time>2016-04-30T00:41:42Z</time>
      </trkpt>
      <trkpt lat="47.94045" lon="-4.40479">
        <ele>4.072</ele>
        <time>2016-04-30T00:41:22Z</time>
      </trkpt>
      <trkpt lat="47.94148" lon="-4.40595">
        <ele>2.76</ele>
        <time>2016-04-30T00:41:02Z</time>
      </trkpt>
      <trkpt lat="47.94257" lon="-4.40783">
        <ele>3.984</ele>
        <time>2016-04-30T00:40:42Z</time>
      </trkpt>
      <trkpt lat="47.94331" lon="-4.40837">
        <ele>4.708</ele>
        <time>2016-04-30T00:40:22Z</time>
      </trkpt>
      <trkpt lat="47.94385" lon="-4.4091">
        <ele>4.017</ele>
        <time>2016-04-30T00:40:02Z</time>
      </trkpt>
      <trkpt lat="47.94451" lon="-4.40912">
        <ele>4.425</ele>
        <time>2016-04-30T00:39:42Z</time>
      </trkpt>
      <trkpt lat="47.94538" lon="-4.40949">
        <ele>3.583</ele>
        <time>2016-04-30T00:39:22Z</time>
      </trkpt>
      <trkpt lat="47.94657" lon="-4.40955">
        <ele>4.918</ele>
        <time>2016-04-30T00:39:02Z</time>
      </trkpt>
      <trkpt lat="47.94743" lon="-4.4076">
        <ele>7.638</ele>
        <time>2016-04-30T00:38:42Z</time>
      </trkpt>
      <trkpt lat="47.94997" lon="-4.40891">
        <ele>3.824</ele>
        <time>2016-04-30T00:38:22Z</time>
      </trkpt>
      <trkpt lat="47.94979" lon="-4.41178">
        <ele>2.08</ele>
        <time>2016-04-30T00:38:02Z</time>
      </trkpt>
      <trkpt lat="47.94999" lon="-4.41232">
        <ele>1.618</ele>
        <time>2016-04-30T00:37:42Z</time>
      </trkpt>
      <trkpt lat="47.95065" lon="-4.4129">
        <ele>3.191</ele>
        <time>2016-04-30T00:37:22Z</time>
      </trkpt>
      <trkpt lat="47.95128" lon="-4.41307">
        <ele>3.539</ele>
        <time>2016-04-30T00:37:02Z</time>
      </trkpt>
      <trkpt lat="47.95306" lon="-4.41397">
        <ele>6.453</ele>
        <time>2016-04-30T00:36:42Z</time>
      </trkpt>
      <trkpt lat="47.95457" lon="-4.41489">
        <ele>6.208</ele>
        <time>2016-04-30T00:36:22Z</time>
      </trkpt>
      <trkpt lat="47.95536" lon="-4.41597">
        <ele>4.414</ele>
        <time>2016-04-30T00:36:02Z</time>
      </trkpt>
      <trkpt lat="47.95659" lon="-4.4167">
        <ele>3.913</ele>
        <time>2016-04-30T00:35:42Z</time>
      </trkpt>
      <trkpt lat="47.95919" lon="-4.41904">
        <ele>2.672</ele>
        <time>2016-04-30T00:35:22Z</time>
      </trkpt>
      <trkpt lat="47.96041" lon="-4.42015">
        <ele>5.548</ele>
        <time>2016-04-30T00:35:02Z</time>
      </trkpt>
      <trkpt lat="47.96137" lon="-4.42148">
        <ele>3.018</ele>
        <time>2016-04-30T00:34:42Z</time>
      </trkpt>
      <trkpt lat="47.96238" lon="-4.42247">
        <ele>3.634</ele>
        <time>2016-04-30T00:34:22Z</time>
      </trkpt>
      <trkpt lat="47.96345" lon="-4.42371">
        <ele>4.04</ele>
        <time>2016-04-30T00:34:02Z</time>
      </trkpt>
      <trkpt lat="47.96407" lon="-4.42584">
        <ele>3.668</ele>
        <time>2016-04-30T00:33:42Z</time>
      </trkpt>
      <trkpt lat="47.96413" lon="-4.42631">
        <ele>3.581</ele>
        <time>2016-04-30T00:33:22Z</time>
      </trkpt>
      <trkpt lat="47.96373" lon="-4.42685">
        <ele>2.889</ele>
        <time>2016-04-30T00:33:02Z</time>
      </trkpt>
      <trkpt lat="47.96394" lon="-4.42732">
        <ele>2.433</ele>
        <time>2016-04-30T00:32:42Z</time>
      </trkpt>
      <trkpt lat="47.96496" lon="-4.42835">
        <ele>6.008</ele>
        <time>2016-04-30T00:32:22Z</time>
      </trkpt>
      <trkpt lat="47.96529" lon="-4.42906">
        <ele>5.126</ele>
        <time>2016-04-30T00:32:02Z</time>
      </trkpt>
      <trkpt lat="47.96637" lon="-4.43017">
        <ele>3.833</ele>
        <time>2016-04-30T00:31:42Z</time>
      </trkpt>
      <trkpt lat="47.9666" lon="-4.43024">
        <ele>4.878</ele>
        <time>2016-04-30T00:31:22Z</time>
      </trkpt>
      <trkpt lat="47.967" lon="-4.43075">
        <ele>4.826</ele>
        <time>2016-04-30T00:31:02Z</time>
      </trkpt>
      <trkpt lat="47.96817" lon="-4.43236">
        <ele>5.366</ele>
        <time>2016-04-30T00:30:42Z</time>
      </trkpt>
      <trkpt lat="47.9689" lon="-4.43408">
        <ele>5.492</ele>
        <time>2016-04-30T00:30:22Z</time>
      </trkpt>
      <trkpt lat="47.96979" lon="-4.43513">
        <ele>3.878</ele>
        <time>2016-04-30T00:30:02Z</time>
      </trkpt>
      <trkpt lat="47.97023" lon="-4.43537">
        <ele>6.596</ele>
        <time>2020-12-18T23:02:03Z</time>
      </trkpt>
      <trkpt lat="47.97084" lon="-4.43542">
        <ele>9.639</ele>
        <time>2020-12-18T23:01:43Z</time>
      </trkpt>
      <trkpt lat="47.97501" lon="-4.44213">
        <ele>14.317</ele>
        <time>2020-12-18T23:01:23Z</time>
      </trkpt>
      <trkpt lat="47.9739" lon="-4.44402">
        <ele>4.211</ele>
        <time>2020-12-18T23:01:03Z</time>
      </trkpt>
      <trkpt lat="47.97522" lon="-4.44534">
        <ele>3.008</ele>
        <time>2016-04-30T00:26:42Z</time>
      </trkpt>
      <trkpt lat="47.97542" lon="-4.44579">
        <ele>0.411</ele>
        <time>2016-04-30T00:26:22Z</time>
      </trkpt>
      <trkpt lat="47.97587" lon="-4.44609">
        <ele>0.856</ele>
        <time>2016-04-30T00:26:02Z</time>
      </trkpt>
      <trkpt lat="47.97608" lon="-4.44592">
        <ele>4.554</ele>
        <time>2016-04-30T00:25:42Z</time>
      </trkpt>
      <trkpt lat="47.97657" lon="-4.44622">
        <ele>5.374</ele>
        <time>2016-04-30T00:25:22Z</time>
      </trkpt>
      <trkpt lat="47.97683" lon="-4.44682">
        <ele>4.614</ele>
        <time>2016-04-30T00:25:02Z</time>
      </trkpt>
      <trkpt lat="47.97773" lon="-4.44779">
        <ele>6.05</ele>
        <time>2016-04-30T00:24:42Z</time>
      </trkpt>
      <trkpt lat="47.97808" lon="-4.44785">
        <ele>6.626</ele>
        <time>2016-04-30T00:24:22Z</time>
      </trkpt>
      <trkpt lat="47.97871" lon="-4.44882">
        <ele>5.464</ele>
        <time>2016-04-30T00:24:02Z</time>
      </trkpt>
      <trkpt lat="47.97894" lon="-4.44882">
        <ele>7.987</ele>
        <time>2016-04-30T00:23:42Z</time>
      </trkpt>
      <trkpt lat="47.97957" lon="-4.44945">
        <ele>5.925</ele>
        <time>2020-12-18T22:57:23Z</time>
      </trkpt>
      <trkpt lat="47.98005" lon="-4.44966">
        <ele>6.539</ele>
        <time>2016-04-30T00:23:02Z</time>
      </trkpt>
      <trkpt lat="47.98099" lon="-4.45034">
        <ele>8.708</ele>
        <time>2016-04-30T00:22:42Z</time>
      </trkpt>
      <trkpt lat="47.98169" lon="-4.45145">
        <ele>10.917</ele>
        <time>2020-12-18T22:56:23Z</time>
      </trkpt>
      <trkpt lat="47.98191" lon="-4.45218">
        <ele>9.87</ele>
        <time>2020-12-18T22:56:03Z</time>
      </trkpt>
      <trkpt lat="47.98207" lon="-4.4523">
        <ele>12.538</ele>
        <time>2020-12-18T22:55:43Z</time>
      </trkpt>
      <trkpt lat="47.98244" lon="-4.45345">
        <ele>15.263</ele>
        <time>2020-12-18T22:55:23Z</time>
      </trkpt>
      <trkpt lat="47.98202" lon="-4.45377">
        <ele>7.653</ele>
        <time>2020-12-18T22:55:03Z</time>
      </trkpt>
      <trkpt lat="47.98217" lon="-4.45425">
        <ele>7.099</ele>
        <time>2020-12-18T22:54:43Z</time>
      </trkpt>
      <trkpt lat="47.9825" lon="-4.45644">
        <ele>5.925</ele>
        <time>2020-12-18T22:54:23Z</time>
      </trkpt>
      <trkpt lat="47.98313" lon="-4.45561">
        <ele>18.683</ele>
        <time>2020-12-18T22:54:03Z</time>
      </trkpt>
      <trkpt lat="47.98355" lon="-4.45749">
        <ele>16.466</ele>
        <time>2020-12-18T22:53:43Z</time>
      </trkpt>
      <trkpt lat="47.98374" lon="-4.45804">
        <ele>15.024</ele>
        <time>2020-12-18T22:53:23Z</time>
      </trkpt>
      <trkpt lat="47.98411" lon="-4.45755">
        <ele>19.758</ele>
        <time>2016-04-30T00:20:42Z</time>
      </trkpt>
      <trkpt lat="47.98533" lon="-4.46119">
        <ele>9.908</ele>
        <time>2020-12-18T22:52:43Z</time>
      </trkpt>
      <trkpt lat="47.98556" lon="-4.46141">
        <ele>9.014</ele>
        <time>2020-12-18T22:52:23Z</time>
      </trkpt>
      <trkpt lat="47.98522" lon="-4.46217">
        <ele>7.204</ele>
        <time>2020-12-18T22:52:03Z</time>
      </trkpt>
      <trkpt lat="47.98604" lon="-4.46221">
        <ele>4.824</ele>
        <time>2016-04-30T00:19:22Z</time>
      </trkpt>
      <trkpt lat="47.98628" lon="-4.46268">
        <ele>8.525</ele>
        <time>2016-04-30T00:19:02Z</time>
      </trkpt>
      <trkpt lat="47.98596" lon="-4.4638">
        <ele>9.925</ele>
        <time>2016-04-30T00:18:42Z</time>
      </trkpt>
      <trkpt lat="47.98563" lon="-4.46392">
        <ele>6.771</ele>
        <time>2016-04-30T00:18:22Z</time>
      </trkpt>
      <trkpt lat="47.98542" lon="-4.46431">
        <ele>8.367</ele>
        <time>2016-04-30T00:18:02Z</time>
      </trkpt>
      <trkpt lat="47.98503" lon="-4.46436">
        <ele>4.995</ele>
        <time>2020-12-18T22:50:03Z</time>
      </trkpt>
      <trkpt lat="47.98493" lon="-4.46577">
        <ele>5.828</ele>
        <time>2016-04-30T00:17:22Z</time>
      </trkpt>
      <trkpt lat="47.9851" lon="-4.46641">
        <ele>9.956</ele>
        <time>2016-04-30T00:17:02Z</time>
      </trkpt>
      <trkpt lat="47.98502" lon="-4.46669">
        <ele>7.46</ele>
        <time>2016-04-30T00:16:42Z</time>
      </trkpt>
      <trkpt lat="47.98499" lon="-4.46811">
        <ele>7.608</ele>
        <time>2016-04-30T00:16:22Z</time>
      </trkpt>
      <trkpt lat="47.98489" lon="-4.46845">
        <ele>5.414</ele>
        <time>2016-04-30T00:16:02Z</time>
      </trkpt>
      <trkpt lat="47.98503" lon="-4.46873">
        <ele>7.522</ele>
        <time>2016-04-30T00:15:42Z</time>
      </trkpt>
      <trkpt lat="47.98504" lon="-4.46948">
        <ele>5.842</ele>
        <time>2016-04-30T00:15:22Z</time>
      </trkpt>
      <trkpt lat="47.98493" lon="-4.46974">
        <ele>3.745</ele>
        <time>2016-04-30T00:15:02Z</time>
      </trkpt>
      <trkpt lat="47.98504" lon="-4.47002">
        <ele>3.985</ele>
        <time>2016-04-30T00:14:42Z</time>
      </trkpt>
      <trkpt lat="47.98519" lon="-4.4698">
        <ele>7.841</ele>
        <time>2016-04-30T00:14:22Z</time>
      </trkpt>
      <trkpt lat="47.98536" lon="-4.47025">
        <ele>8.927</ele>
        <time>2016-04-30T00:14:02Z</time>
      </trkpt>
      <trkpt lat="47.9854" lon="-4.47086">
        <ele>6.195</ele>
        <time>2016-04-30T00:13:42Z</time>
      </trkpt>
      <trkpt lat="47.98566" lon="-4.47171">
        <ele>7.618</ele>
        <time>2016-04-30T00:13:22Z</time>
      </trkpt>
      <trkpt lat="47.98588" lon="-4.47221">
        <ele>8.196</ele>
        <time>2016-04-30T00:13:02Z</time>
      </trkpt>
      <trkpt lat="47.98605" lon="-4.47334">
        <ele>7.92</ele>
        <time>2016-04-30T00:12:42Z</time>
      </trkpt>
      <trkpt lat="47.98602" lon="-4.47403">
        <ele>9.908</ele>
        <time>2016-04-30T00:12:22Z</time>
      </trkpt>
      <trkpt lat="47.98609" lon="-4.47491">
        <ele>12.009</ele>
        <time>2016-04-30T00:12:02Z</time>
      </trkpt>
      <trkpt lat="47.98647" lon="-4.47534">
        <ele>14.881</ele>
        <time>2016-04-30T00:11:42Z</time>
      </trkpt>
      <trkpt lat="47.98651" lon="-4.47566">
        <ele>12.941</ele>
        <time>2016-04-30T00:11:22Z</time>
      </trkpt>
      <trkpt lat="47.98677" lon="-4.47618">
        <ele>10.382</ele>
        <time>2016-04-30T00:11:02Z</time>
      </trkpt>
      <trkpt lat="47.9872" lon="-4.47646">
        <ele>8.032</ele>
        <time>2016-04-30T00:10:42Z</time>
      </trkpt>
      <trkpt lat="47.98795" lon="-4.47671">
        <ele>7.318</ele>
        <time>2016-04-30T00:10:22Z</time>
      </trkpt>
      <trkpt lat="47.98811" lon="-4.4773">
        <ele>4.654</ele>
        <time>2020-12-18T22:42:23Z</time>
      </trkpt>
      <trkpt lat="47.98839" lon="-4.47776">
        <ele>4.232</ele>
        <time>2020-12-18T22:42:03Z</time>
      </trkpt>
      <trkpt lat="47.98854" lon="-4.47861">
        <ele>1.355</ele>
        <time>2020-12-18T22:41:43Z</time>
      </trkpt>
      <trkpt lat="47.98876" lon="-4.47889">
        <ele>1.543</ele>
        <time>2020-12-18T22:41:23Z</time>
      </trkpt>
      <trkpt lat="47.98905" lon="-4.4787">
        <ele>2.877</ele>
        <time>2020-12-18T22:41:03Z</time>
      </trkpt>
      <trkpt lat="47.98945" lon="-4.47855">
        <ele>3.408</ele>
        <time>2020-12-18T22:40:43Z</time>
      </trkpt>
      <trkpt lat="47.98965" lon="-4.47793">
        <ele>9.707</ele>
        <time>2020-12-18T22:40:23Z</time>
      </trkpt>
      <trkpt lat="47.98988" lon="-4.4778">
        <ele>9.743</ele>
        <time>2020-12-18T22:40:03Z</time>
      </trkpt>
      <trkpt lat="47.99057" lon="-4.47783">
        <ele>7.813</ele>
        <time>2016-04-30T00:09:02Z</time>
      </trkpt>
      <trkpt lat="47.99121" lon="-4.47877">
        <ele>8.816</ele>
        <time>2016-04-30T00:08:42Z</time>
      </trkpt>
      <trkpt lat="47.99218" lon="-4.47989">
        <ele>8.746</ele>
        <time>2016-04-30T00:08:22Z</time>
      </trkpt>
      <trkpt lat="47.99304" lon="-4.4815">
        <ele>7.532</ele>
        <time>2016-04-30T00:08:02Z</time>
      </trkpt>
      <trkpt lat="47.99392" lon="-4.48272">
        <ele>10.848</ele>
        <time>2016-04-30T00:07:42Z</time>
      </trkpt>
      <trkpt lat="47.99498" lon="-4.48562">
        <ele>8.966</ele>
        <time>2016-04-30T00:07:22Z</time>
      </trkpt>
      <trkpt lat="47.99504" lon="-4.48613">
        <ele>1.419</ele>
        <time>2016-04-30T00:07:02Z</time>
      </trkpt>
      <trkpt lat="47.99623" lon="-4.48884">
        <ele>7.997</ele>
        <time>2016-04-30T00:06:42Z</time>
      </trkpt>
      <trkpt lat="47.99665" lon="-4.48931">
        <ele>8.841</ele>
        <time>2016-04-30T00:06:22Z</time>
      </trkpt>
      <trkpt lat="47.99683" lon="-4.49027">
        <ele>4.208</ele>
        <time>2016-04-30T00:06:02Z</time>
      </trkpt>
      <trkpt lat="47.99708" lon="-4.49077">
        <ele>3.514</ele>
        <time>2016-04-30T00:05:42Z</time>
      </trkpt>
      <trkpt lat="47.99722" lon="-4.49124">
        <ele>4.559</ele>
        <time>2016-04-30T00:05:22Z</time>
      </trkpt>
      <trkpt lat="47.99817" lon="-4.49236">
        <ele>5.356</ele>
        <time>2016-04-30T00:05:02Z</time>
      </trkpt>
      <trkpt lat="47.99857" lon="-4.49336">
        <ele>5.475</ele>
        <time>2016-04-30T00:04:42Z</time>
      </trkpt>
      <trkpt lat="47.99966" lon="-4.49427">
        <ele>12.425</ele>
        <time>2016-04-30T00:04:22Z</time>
      </trkpt>
      <trkpt lat="47.99994" lon="-4.49506">
        <ele>8.511</ele>
        <time>2016-04-30T00:04:02Z</time>
      </trkpt>
      <trkpt lat="48.00119" lon="-4.49716">
        <ele>7.517</ele>
        <time>2016-04-30T00:03:42Z</time>
      </trkpt>
      <trkpt lat="48.00172" lon="-4.49841">
        <ele>9.125</ele>
        <time>2016-04-30T00:03:22Z</time>
      </trkpt>
      <trkpt lat="48.00147" lon="-4.49869">
        <ele>7.038</ele>
        <time>2016-04-30T00:03:02Z</time>
      </trkpt>
      <trkpt lat="48.0017" lon="-4.4995">
        <ele>6.016</ele>
        <time>2016-04-30T00:02:42Z</time>
      </trkpt>
      <trkpt lat="48.00239" lon="-4.50124">
        <ele>5.89</ele>
        <time>2016-04-30T00:02:22Z</time>
      </trkpt>
      <trkpt lat="48.00266" lon="-4.50148">
        <ele>5.408</ele>
        <time>2016-04-30T00:02:02Z</time>
      </trkpt>
      <trkpt lat="48.00269" lon="-4.50197">
        <ele>3.614</ele>
        <time>2016-04-30T00:01:42Z</time>
      </trkpt>
      <trkpt lat="48.00295" lon="-4.503">
        <ele>6.222</ele>
        <time>2016-04-30T00:01:22Z</time>
      </trkpt>
      <trkpt lat="48.00297" lon="-4.5042">
        <ele>4.942</ele>
        <time>2016-04-30T00:01:02Z</time>
      </trkpt>
      <trkpt lat="48.00321" lon="-4.50557">
        <ele>4.029</ele>
        <time>2016-04-30T00:00:42Z</time>
      </trkpt>
      <trkpt lat="48.00485" lon="-4.50892">
        <ele>7.679</ele>
        <time>2016-04-30T00:00:22Z</time>
      </trkpt>
      <trkpt lat="48.00566" lon="-4.51145">
        <ele>7.095</ele>
        <time>2016-04-30T00:00:02Z</time>
      </trkpt>
      <trkpt lat="48.00582" lon="-4.51223">
        <ele>7.071</ele>
        <time>2016-04-29T23:59:42Z</time>
      </trkpt>
      <trkpt lat="48.00572" lon="-4.51259">
        <ele>6.889</ele>
        <time>2020-12-18T22:30:03Z</time>
      </trkpt>
      <trkpt lat="48.00569" lon="-4.51341">
        <ele>4.752</ele>
        <time>2020-12-18T22:29:43Z</time>
      </trkpt>
      <trkpt lat="48.00612" lon="-4.51463">
        <ele>5.49</ele>
        <time>2016-04-29T23:58:42Z</time>
      </trkpt>
      <trkpt lat="48.00631" lon="-4.51572">
        <ele>4.054</ele>
        <time>2016-04-29T23:58:22Z</time>
      </trkpt>
      <trkpt lat="48.00658" lon="-4.51617">
        <ele>4.208</ele>
        <time>2016-04-29T23:58:02Z</time>
      </trkpt>
      <trkpt lat="48.00643" lon="-4.51783">
        <ele>5.917</ele>
        <time>2016-04-29T23:57:42Z</time>
      </trkpt>
      <trkpt lat="48.00497" lon="-4.51942">
        <ele>1.961</ele>
        <time>2020-12-18T22:28:03Z</time>
      </trkpt>
      <trkpt lat="48.00531" lon="-4.51984">
        <ele>4.681</ele>
        <time>2016-04-29T23:57:02Z</time>
      </trkpt>
      <trkpt lat="48.00546" lon="-4.52066">
        <ele>4.82</ele>
        <time>2020-12-18T22:27:23Z</time>
      </trkpt>
      <trkpt lat="48.00579" lon="-4.52081">
        <ele>9.55</ele>
        <time>2016-04-29T23:56:22Z</time>
      </trkpt>
      <trkpt lat="48.00601" lon="-4.5224">
        <ele>6.046</ele>
        <time>2016-04-29T23:56:02Z</time>
      </trkpt>
      <trkpt lat="48.00579" lon="-4.52389">
        <ele>3.592</ele>
        <time>2020-12-18T22:26:23Z</time>
      </trkpt>
      <trkpt lat="48.006" lon="-4.52442">
        <ele>7.01</ele>
        <time>2020-12-18T22:26:03Z</time>
      </trkpt>
      <trkpt lat="48.00607" lon="-4.52516">
        <ele>5.993</ele>
        <time>2016-04-29T23:55:02Z</time>
      </trkpt>
      <trkpt lat="48.00644" lon="-4.52604">
        <ele>5.751</ele>
        <time>2016-04-29T23:54:42Z</time>
      </trkpt>
      <trkpt lat="48.00689" lon="-4.52614">
        <ele>7.475</ele>
        <time>2020-12-18T22:25:03Z</time>
      </trkpt>
      <trkpt lat="48.00711" lon="-4.52698">
        <ele>4.608</ele>
        <time>2020-12-18T22:24:43Z</time>
      </trkpt>
      <trkpt lat="48.0077" lon="-4.52819">
        <ele>4.225</ele>
        <time>2016-04-29T23:54:02Z</time>
      </trkpt>
      <trkpt lat="48.00832" lon="-4.52894">
        <ele>6.323</ele>
        <time>2016-04-29T23:53:42Z</time>
      </trkpt>
      <trkpt lat="48.00876" lon="-4.53032">
        <ele>1.597</ele>
        <time>2020-12-18T22:23:43Z</time>
      </trkpt>
      <trkpt lat="48.00931" lon="-4.53094">
        <ele>4.579</ele>
        <time>2016-04-29T23:53:02Z</time>
      </trkpt>
      <trkpt lat="48.00957" lon="-4.5321">
        <ele>4.749</ele>
        <time>2016-04-29T23:52:42Z</time>
      </trkpt>
      <trkpt lat="48.0098" lon="-4.53336">
        <ele>5.475</ele>
        <time>2016-04-29T23:52:22Z</time>
      </trkpt>
      <trkpt lat="48.00989" lon="-4.53474">
        <ele>3.881</ele>
        <time>2020-12-18T22:22:23Z</time>
      </trkpt>
      <trkpt lat="48.01068" lon="-4.53523">
        <ele>7.439</ele>
        <time>2020-12-18T22:22:03Z</time>
      </trkpt>
      <trkpt lat="48.01204" lon="-4.53695">
        <ele>5.092</ele>
        <time>2020-12-18T22:21:43Z</time>
      </trkpt>
      <trkpt lat="48.01259" lon="-4.53683">
        <ele>2.97</ele>
        <time>2020-12-18T22:21:23Z</time>
      </trkpt>
      <trkpt lat="48.01297" lon="-4.53652">
        <ele>2.264</ele>
        <time>2020-12-18T22:21:03Z</time>
      </trkpt>
      <trkpt lat="48.01342" lon="-4.53581">
        <ele>5.508</ele>
        <time>2016-04-29T23:50:02Z</time>
      </trkpt>
      <trkpt lat="48.0136" lon="-4.53527">
        <ele>5.126</ele>
        <time>2020-12-18T22:20:23Z</time>
      </trkpt>
      <trkpt lat="48.01389" lon="-4.53507">
        <ele>7.242</ele>
        <time>2020-12-18T22:20:03Z</time>
      </trkpt>
      <trkpt lat="48.01443" lon="-4.53505">
        <ele>6.587</ele>
        <time>2020-12-18T22:19:43Z</time>
      </trkpt>
      <trkpt lat="48.01485" lon="-4.53514">
        <ele>1.175</ele>
        <time>2020-12-18T22:19:23Z</time>
      </trkpt>
      <trkpt lat="48.01524" lon="-4.53547">
        <ele>0.685</ele>
        <time>2020-12-18T22:19:03Z</time>
      </trkpt>
      <trkpt lat="48.01546" lon="-4.53521">
        <ele>1.431</ele>
        <time>2020-12-18T22:18:43Z</time>
      </trkpt>
      <trkpt lat="48.01562" lon="-4.53441">
        <ele>7.517</ele>
        <time>2020-12-18T22:18:23Z</time>
      </trkpt>
      <trkpt lat="48.0158" lon="-4.53415">
        <ele>6.485</ele>
        <time>2020-12-18T22:18:03Z</time>
      </trkpt>
      <trkpt lat="48.01597" lon="-4.53405">
        <ele>5.438</ele>
        <time>2020-12-18T22:17:43Z</time>
      </trkpt>
      <trkpt lat="48.01613" lon="-4.53377">
        <ele>8.786</ele>
        <time>2020-12-18T22:17:23Z</time>
      </trkpt>
      <trkpt lat="48.01645" lon="-4.53349">
        <ele>13.08</ele>
        <time>2020-12-18T22:17:03Z</time>
      </trkpt>
      <trkpt lat="48.01645" lon="-4.53316">
        <ele>17.208</ele>
        <time>2020-12-18T22:16:43Z</time>
      </trkpt>
      <trkpt lat="48.01653" lon="-4.53289">
        <ele>18.422</ele>
        <time>2020-12-18T22:16:23Z</time>
      </trkpt>
      <trkpt lat="48.01653" lon="-4.53248">
        <ele>19.402</ele>
        <time>2016-04-29T23:45:42Z</time>
      </trkpt>
      <trkpt lat="48.01761" lon="-4.53275">
        <ele>10.149</ele>
        <time>2020-12-18T22:15:43Z</time>
      </trkpt>
      <trkpt lat="48.01773" lon="-4.53313">
        <ele>5.532</ele>
        <time>2020-12-18T22:15:23Z</time>
      </trkpt>
      <trkpt lat="48.01808" lon="-4.53325">
        <ele>1.242</ele>
        <time>2020-12-18T22:15:03Z</time>
      </trkpt>
      <trkpt lat="48.01817" lon="-4.53308">
        <ele>3.378</ele>
        <time>2016-04-29T23:44:42Z</time>
      </trkpt>
      <trkpt lat="48.01971" lon="-4.53257">
        <ele>0.834</ele>
        <time>2020-12-18T22:14:23Z</time>
      </trkpt>
      <trkpt lat="48.02062" lon="-4.53308">
        <ele>0.092</ele>
        <time>2020-12-18T22:14:03Z</time>
      </trkpt>
      <trkpt lat="48.02084" lon="-4.53197">
        <ele>8.825</ele>
        <time>2020-12-18T22:13:43Z</time>
      </trkpt>
      <trkpt lat="48.02152" lon="-4.53268">
        <ele>8.853</ele>
        <time>2020-12-18T22:13:23Z</time>
      </trkpt>
      <trkpt lat="48.02195" lon="-4.53348">
        <ele>6.167</ele>
        <time>2020-12-18T22:13:03Z</time>
      </trkpt>
      <trkpt lat="48.02227" lon="-4.53434">
        <ele>0.508</ele>
        <time>2020-12-18T22:12:43Z</time>
      </trkpt>
      <trkpt lat="48.02265" lon="-4.53454">
        <ele>1.105</ele>
        <time>2016-04-29T23:42:22Z</time>
      </trkpt>
      <trkpt lat="48.02298" lon="-4.53413">
        <ele>4.532</ele>
        <time>2016-04-29T23:42:02Z</time>
      </trkpt>
      <trkpt lat="48.02352" lon="-4.53381">
        <ele>8.112</ele>
        <time>2016-04-29T23:41:42Z</time>
      </trkpt>
      <trkpt lat="48.02399" lon="-4.53401">
        <ele>0.744</ele>
        <time>2016-04-29T23:41:22Z</time>
      </trkpt>
      <trkpt lat="48.02488" lon="-4.53564">
        <ele>1.324</ele>
        <time>2016-04-29T23:41:02Z</time>
      </trkpt>
      <trkpt lat="48.02361" lon="-4.53785">
        <ele>5.21</ele>
        <time>2016-04-29T23:40:42Z</time>
      </trkpt>
      <trkpt lat="48.02348" lon="-4.53858">
        <ele>5.556</ele>
        <time>2016-04-29T23:40:22Z</time>
      </trkpt>
      <trkpt lat="48.0226" lon="-4.53879">
        <ele>7.934</ele>
        <time>2016-04-29T23:40:02Z</time>
      </trkpt>
      <trkpt lat="48.0194" lon="-4.53527">
        <ele>3.367</ele>
        <time>2016-04-29T23:39:42Z</time>
      </trkpt>
      <trkpt lat="48.01903" lon="-4.53514">
        <ele>5.065</ele>
        <time>2016-04-29T23:39:22Z</time>
      </trkpt>
      <trkpt lat="48.01837" lon="-4.53538">
        <ele>8.889</ele>
        <time>2016-04-29T23:39:02Z</time>
      </trkpt>
      <trkpt lat="48.01782" lon="-4.53594">
        <ele>8.008</ele>
        <time>2016-04-29T23:38:42Z</time>
      </trkpt>
      <trkpt lat="48.01712" lon="-4.53583">
        <ele>1.015</ele>
        <time>2016-04-29T23:38:22Z</time>
      </trkpt>
      <trkpt lat="48.01682" lon="-4.53757">
        <ele>1.223</ele>
        <time>2016-04-29T23:38:02Z</time>
      </trkpt>
      <trkpt lat="48.01395" lon="-4.53982">
        <ele>11.233</ele>
        <time>2016-04-29T23:37:42Z</time>
      </trkpt>
      <trkpt lat="48.01267" lon="-4.5407">
        <ele>1.687</ele>
        <time>2016-04-29T23:37:22Z</time>
      </trkpt>
      <trkpt lat="48.01211" lon="-4.54079">
        <ele>0.057</ele>
        <time>2016-04-29T23:37:02Z</time>
      </trkpt>
      <trkpt lat="48.01108" lon="-4.54081">
        <ele>2.033</ele>
        <time>2016-04-29T23:36:42Z</time>
      </trkpt>
      <trkpt lat="48.01103" lon="-4.54126">
        <ele>3.729</ele>
        <time>2016-04-29T23:36:22Z</time>
      </trkpt>
      <trkpt lat="48.01132" lon="-4.5419">
        <ele>4.977</ele>
        <time>2016-04-29T23:36:02Z</time>
      </trkpt>
      <trkpt lat="48.01168" lon="-4.54212">
        <ele>8.24</ele>
        <time>2016-04-29T23:35:42Z</time>
      </trkpt>
      <trkpt lat="48.01243" lon="-4.54621">
        <ele>17.968</ele>
        <time>2016-04-29T23:35:22Z</time>
      </trkpt>
      <trkpt lat="48.0125" lon="-4.54759">
        <ele>15.062</ele>
        <time>2016-04-29T23:35:02Z</time>
      </trkpt>
      <trkpt lat="48.01241" lon="-4.54915">
        <ele>7.108</ele>
        <time>2016-04-29T23:34:42Z</time>
      </trkpt>
      <trkpt lat="48.01191" lon="-4.55033">
        <ele>7.926</ele>
        <time>2016-04-29T23:34:22Z</time>
      </trkpt>
      <trkpt lat="48.01182" lon="-4.55132">
        <ele>12.142</ele>
        <time>2016-04-29T23:34:02Z</time>
      </trkpt>
      <trkpt lat="48.01167" lon="-4.55194">
        <ele>17.068</ele>
        <time>2016-04-29T23:33:42Z</time>
      </trkpt>
      <trkpt lat="48.01092" lon="-4.55276">
        <ele>14.567</ele>
        <time>2016-04-29T23:33:22Z</time>
      </trkpt>
      <trkpt lat="48.01036" lon="-4.5541">
        <ele>5.647</ele>
        <time>2020-12-18T22:03:03Z</time>
      </trkpt>
      <trkpt lat="48.01033" lon="-4.55528">
        <ele>11.693</ele>
        <time>2020-12-18T22:02:43Z</time>
      </trkpt>
      <trkpt lat="48.01009" lon="-4.55595">
        <ele>9.639</ele>
        <time>2020-12-18T22:02:23Z</time>
      </trkpt>
      <trkpt lat="48.00992" lon="-4.55577">
        <ele>7.417</ele>
        <time>2020-12-18T22:02:03Z</time>
      </trkpt>
      <trkpt lat="48.00967" lon="-4.55623">
        <ele>7.31</ele>
        <time>2020-12-18T22:01:43Z</time>
      </trkpt>
      <trkpt lat="48.00924" lon="-4.55641">
        <ele>7.228</ele>
        <time>2020-12-18T22:01:23Z</time>
      </trkpt>
      <trkpt lat="48.0088" lon="-4.55589">
        <ele>5.432</ele>
        <time>2020-12-18T22:01:03Z</time>
      </trkpt>
      <trkpt lat="48.00757" lon="-4.55739">
        <ele>6.408</ele>
        <time>2016-04-29T23:31:42Z</time>
      </trkpt>
      <trkpt lat="48.00628" lon="-4.55739">
        <ele>4.624</ele>
        <time>2020-12-18T22:00:23Z</time>
      </trkpt>
      <trkpt lat="48.00614" lon="-4.55666">
        <ele>2.704</ele>
        <time>2016-04-29T23:31:02Z</time>
      </trkpt>
      <trkpt lat="48.00535" lon="-4.55669">
        <ele>1.369</ele>
        <time>2016-04-29T23:30:42Z</time>
      </trkpt>
      <trkpt lat="48.00531" lon="-4.55688">
        <ele>1.955</ele>
        <time>2016-04-29T23:30:22Z</time>
      </trkpt>
      <trkpt lat="48.00502" lon="-4.55697">
        <ele>2.145</ele>
        <time>2016-04-29T23:30:02Z</time>
      </trkpt>
      <trkpt lat="48.0048" lon="-4.55759">
        <ele>5.951</ele>
        <time>2016-04-29T23:29:42Z</time>
      </trkpt>
      <trkpt lat="48.00416" lon="-4.55797">
        <ele>2.097</ele>
        <time>2016-04-29T23:29:22Z</time>
      </trkpt>
      <trkpt lat="48.00391" lon="-4.55877">
        <ele>3.765</ele>
        <time>2016-04-29T23:29:02Z</time>
      </trkpt>
      <trkpt lat="48.00341" lon="-4.55963">
        <ele>5.948</ele>
        <time>2016-04-29T23:28:42Z</time>
      </trkpt>
      <trkpt lat="48.00258" lon="-4.56014">
        <ele>2.616</ele>
        <time>2016-04-29T23:28:22Z</time>
      </trkpt>
      <trkpt lat="48.00256" lon="-4.56143">
        <ele>2.84</ele>
        <time>2016-04-29T23:28:02Z</time>
      </trkpt>
      <trkpt lat="48.00245" lon="-4.56205">
        <ele>3.808</ele>
        <time>2016-04-29T23:27:42Z</time>
      </trkpt>
      <trkpt lat="48.00077" lon="-4.56428">
        <ele>2.422</ele>
        <time>2016-04-29T23:27:22Z</time>
      </trkpt>
      <trkpt lat="48.00032" lon="-4.56478">
        <ele>3.502</ele>
        <time>2016-04-29T23:27:02Z</time>
      </trkpt>
      <trkpt lat="48.00002" lon="-4.56529">
        <ele>3.349</ele>
        <time>2016-04-29T23:26:42Z</time>
      </trkpt>
      <trkpt lat="47.99994" lon="-4.56619">
        <ele>2.396</ele>
        <time>2016-04-29T23:26:22Z</time>
      </trkpt>
      <trkpt lat="48.00019" lon="-4.56699">
        <ele>4.516</ele>
        <time>2016-04-29T23:26:02Z</time>
      </trkpt>
      <trkpt lat="48.00038" lon="-4.56769">
        <ele>3.872</ele>
        <time>2016-04-29T23:25:42Z</time>
      </trkpt>
      <trkpt lat="48.00035" lon="-4.56877">
        <ele>3.098</ele>
        <time>2016-04-29T23:25:22Z</time>
      </trkpt>
      <trkpt lat="48.00137" lon="-4.56993">
        <ele>6.456</ele>
        <time>2016-04-29T23:25:02Z</time>
      </trkpt>
      <trkpt lat="48.00245" lon="-4.57098">
        <ele>7.939</ele>
        <time>2016-04-29T23:24:42Z</time>
      </trkpt>
      <trkpt lat="48.00276" lon="-4.57158">
        <ele>4.917</ele>
        <time>2016-04-29T23:24:22Z</time>
      </trkpt>
      <trkpt lat="48.00324" lon="-4.57194">
        <ele>5.311</ele>
        <time>2016-04-29T23:24:02Z</time>
      </trkpt>
      <trkpt lat="48.00348" lon="-4.57259">
        <ele>5.608</ele>
        <time>2016-04-29T23:23:42Z</time>
      </trkpt>
      <trkpt lat="48.00342" lon="-4.57349">
        <ele>5.517</ele>
        <time>2016-04-29T23:23:22Z</time>
      </trkpt>
      <trkpt lat="48.00398" lon="-4.57544">
        <ele>7.007</ele>
        <time>2016-04-29T23:23:02Z</time>
      </trkpt>
      <trkpt lat="48.00433" lon="-4.57613">
        <ele>6.655</ele>
        <time>2016-04-29T23:22:42Z</time>
      </trkpt>
      <trkpt lat="48.00485" lon="-4.57647">
        <ele>9.492</ele>
        <time>2016-04-29T23:22:22Z</time>
      </trkpt>
      <trkpt lat="48.00499" lon="-4.57731">
        <ele>8.822</ele>
        <time>2016-04-29T23:22:02Z</time>
      </trkpt>
      <trkpt lat="48.00416" lon="-4.57969">
        <ele>5.838</ele>
        <time>2016-04-29T23:21:42Z</time>
      </trkpt>
      <trkpt lat="48.0041" lon="-4.58023">
        <ele>6.064</ele>
        <time>2016-04-29T23:21:22Z</time>
      </trkpt>
      <trkpt lat="48.00475" lon="-4.58115">
        <ele>7.432</ele>
        <time>2016-04-29T23:21:02Z</time>
      </trkpt>
      <trkpt lat="48.00505" lon="-4.58231">
        <ele>7.235</ele>
        <time>2016-04-29T23:20:42Z</time>
      </trkpt>
      <trkpt lat="48.00493" lon="-4.58282">
        <ele>4.733</ele>
        <time>2016-04-29T23:20:22Z</time>
      </trkpt>
      <trkpt lat="48.00512" lon="-4.58312">
        <ele>7.317</ele>
        <time>2016-04-29T23:20:02Z</time>
      </trkpt>
      <trkpt lat="48.00505" lon="-4.58353">
        <ele>4.908</ele>
        <time>2016-04-29T23:19:42Z</time>
      </trkpt>
      <trkpt lat="48.00542" lon="-4.58467">
        <ele>5.917</ele>
        <time>2016-04-29T23:19:22Z</time>
      </trkpt>
      <trkpt lat="48.00598" lon="-4.58563">
        <ele>8.798</ele>
        <time>2016-04-29T23:19:02Z</time>
      </trkpt>
      <trkpt lat="48.00637" lon="-4.58595">
        <ele>11.918</ele>
        <time>2016-04-29T23:18:42Z</time>
      </trkpt>
      <trkpt lat="48.00671" lon="-4.58649">
        <ele>12.447</ele>
        <time>2016-04-29T23:18:22Z</time>
      </trkpt>
      <trkpt lat="48.0069" lon="-4.58726">
        <ele>10.037</ele>
        <time>2016-04-29T23:18:02Z</time>
      </trkpt>
      <trkpt lat="48.00749" lon="-4.58789">
        <ele>9.123</ele>
        <time>2016-04-29T23:17:42Z</time>
      </trkpt>
      <trkpt lat="48.00747" lon="-4.58889">
        <ele>3.829</ele>
        <time>2016-04-29T23:17:22Z</time>
      </trkpt>
      <trkpt lat="48.00697" lon="-4.59128">
        <ele>4.987</ele>
        <time>2016-04-29T23:17:02Z</time>
      </trkpt>
      <trkpt lat="48.00699" lon="-4.59213">
        <ele>3.83</ele>
        <time>2016-04-29T23:16:42Z</time>
      </trkpt>
      <trkpt lat="48.00785" lon="-4.59224">
        <ele>4.618</ele>
        <time>2016-04-29T23:16:22Z</time>
      </trkpt>
      <trkpt lat="48.00907" lon="-4.59186">
        <ele>3.482</ele>
        <time>2016-04-29T23:16:02Z</time>
      </trkpt>
      <trkpt lat="48.00917" lon="-4.59162">
        <ele>4.308</ele>
        <time>2016-04-29T23:15:42Z</time>
      </trkpt>
      <trkpt lat="48.00971" lon="-4.59145">
        <ele>4.114</ele>
        <time>2016-04-29T23:15:22Z</time>
      </trkpt>
      <trkpt lat="48.01004" lon="-4.59085">
        <ele>6.168</ele>
        <time>2016-04-29T23:15:02Z</time>
      </trkpt>
      <trkpt lat="48.01141" lon="-4.59108">
        <ele>13.165</ele>
        <time>2016-04-29T23:14:42Z</time>
      </trkpt>
      <trkpt lat="48.012" lon="-4.59162">
        <ele>11.247</ele>
        <time>2016-04-29T23:14:22Z</time>
      </trkpt>
      <trkpt lat="48.01314" lon="-4.59213">
        <ele>12.577</ele>
        <time>2016-04-29T23:14:02Z</time>
      </trkpt>
      <trkpt lat="48.01316" lon="-4.59291">
        <ele>12.083</ele>
        <time>2016-04-29T23:13:42Z</time>
      </trkpt>
      <trkpt lat="48.01369" lon="-4.59439">
        <ele>9.689</ele>
        <time>2016-04-29T23:13:22Z</time>
      </trkpt>
      <trkpt lat="48.01408" lon="-4.59488">
        <ele>10.847</ele>
        <time>2016-04-29T23:13:02Z</time>
      </trkpt>
      <trkpt lat="48.01449" lon="-4.59615">
        <ele>5.22</ele>
        <time>2016-04-29T23:12:42Z</time>
      </trkpt>
      <trkpt lat="48.01553" lon="-4.59709">
        <ele>8.578</ele>
        <time>2016-04-29T23:12:22Z</time>
      </trkpt>
      <trkpt lat="48.01553" lon="-4.59783">
        <ele>6.132</ele>
        <time>2020-12-18T21:41:03Z</time>
      </trkpt>
      <trkpt lat="48.01564" lon="-4.59815">
        <ele>6.208</ele>
        <time>2020-12-18T21:40:43Z</time>
      </trkpt>
      <trkpt lat="48.01525" lon="-4.59861">
        <ele>4.818</ele>
        <time>2016-04-29T23:11:42Z</time>
      </trkpt>
      <trkpt lat="48.01551" lon="-4.59934">
        <ele>6.544</ele>
        <time>2016-04-29T23:11:22Z</time>
      </trkpt>
      <trkpt lat="48.01553" lon="-4.60093">
        <ele>6.363</ele>
        <time>2016-04-29T23:11:02Z</time>
      </trkpt>
      <trkpt lat="48.01541" lon="-4.60177">
        <ele>4.618</ele>
        <time>2016-04-29T23:10:42Z</time>
      </trkpt>
      <trkpt lat="48.01554" lon="-4.60252">
        <ele>8.718</ele>
        <time>2016-04-29T23:10:22Z</time>
      </trkpt>
      <trkpt lat="48.01545" lon="-4.60331">
        <ele>7.994</ele>
        <time>2016-04-29T23:10:02Z</time>
      </trkpt>
      <trkpt lat="48.01573" lon="-4.60417">
        <ele>9.71</ele>
        <time>2016-04-29T23:09:42Z</time>
      </trkpt>
      <trkpt lat="48.01634" lon="-4.60718">
        <ele>5.738</ele>
        <time>2016-04-29T23:09:22Z</time>
      </trkpt>
      <trkpt lat="48.01679" lon="-4.60833">
        <ele>9.351</ele>
        <time>2016-04-29T23:09:02Z</time>
      </trkpt>
      <trkpt lat="48.01726" lon="-4.60919">
        <ele>11.329</ele>
        <time>2016-04-29T23:08:42Z</time>
      </trkpt>
      <trkpt lat="48.01752" lon="-4.60928">
        <ele>13.433</ele>
        <time>2016-04-29T23:08:22Z</time>
      </trkpt>
      <trkpt lat="48.01808" lon="-4.61014">
        <ele>10.108</ele>
        <time>2016-04-29T23:08:02Z</time>
      </trkpt>
      <trkpt lat="48.01858" lon="-4.61022">
        <ele>12.125</ele>
        <time>2016-04-29T23:07:42Z</time>
      </trkpt>
      <trkpt lat="48.01854" lon="-4.61076">
        <ele>9.805</ele>
        <time>2016-04-29T23:07:22Z</time>
      </trkpt>
      <trkpt lat="48.01883" lon="-4.61188">
        <ele>17.979</ele>
        <time>2016-04-29T23:06:42Z</time>
      </trkpt>
      <trkpt lat="48.01828" lon="-4.61235">
        <ele>11.434</ele>
        <time>2016-04-29T23:06:22Z</time>
      </trkpt>
      <trkpt lat="48.01794" lon="-4.61316">
        <ele>13.894</ele>
        <time>2016-04-29T23:06:02Z</time>
      </trkpt>
      <trkpt lat="48.01768" lon="-4.61333">
        <ele>12.63</ele>
        <time>2016-04-29T23:05:42Z</time>
      </trkpt>
      <trkpt lat="48.01742" lon="-4.61359">
        <ele>10.446</ele>
        <time>2016-04-29T23:05:22Z</time>
      </trkpt>
      <trkpt lat="48.01716" lon="-4.61451">
        <ele>11.294</ele>
        <time>2016-04-29T23:05:02Z</time>
      </trkpt>
      <trkpt lat="48.01718" lon="-4.61589">
        <ele>15.977</ele>
        <time>2016-04-29T23:04:42Z</time>
      </trkpt>
      <trkpt lat="48.01729" lon="-4.61722">
        <ele>14.335</ele>
        <time>2020-12-18T21:33:23Z</time>
      </trkpt>
      <trkpt lat="48.01795" lon="-4.61831">
        <ele>12.419</ele>
        <time>2016-04-29T23:03:42Z</time>
      </trkpt>
      <trkpt lat="48.01852" lon="-4.61946">
        <ele>10.208</ele>
        <time>2020-12-18T21:32:43Z</time>
      </trkpt>
      <trkpt lat="48.01866" lon="-4.61994">
        <ele>11.817</ele>
        <time>2016-04-29T23:03:22Z</time>
      </trkpt>
      <trkpt lat="48.01821" lon="-4.62082">
        <ele>6.27</ele>
        <time>2016-04-29T23:03:02Z</time>
      </trkpt>
      <trkpt lat="48.018" lon="-4.62102">
        <ele>4.738</ele>
        <time>2016-04-29T23:02:42Z</time>
      </trkpt>
      <trkpt lat="48.01818" lon="-4.62268">
        <ele>5.789</ele>
        <time>2020-12-18T21:31:23Z</time>
      </trkpt>
      <trkpt lat="48.01836" lon="-4.62256">
        <ele>5.779</ele>
        <time>2020-12-18T21:31:03Z</time>
      </trkpt>
      <trkpt lat="48.01872" lon="-4.62203">
        <ele>9.315</ele>
        <time>2020-12-18T21:30:43Z</time>
      </trkpt>
      <trkpt lat="48.01884" lon="-4.62198">
        <ele>9.091</ele>
        <time>2020-12-18T21:30:23Z</time>
      </trkpt>
      <trkpt lat="48.01899" lon="-4.62205">
        <ele>7.129</ele>
        <time>2020-12-18T21:30:03Z</time>
      </trkpt>
      <trkpt lat="48.01935" lon="-4.6216">
        <ele>11.382</ele>
        <time>2020-12-18T21:29:43Z</time>
      </trkpt>
      <trkpt lat="48.01972" lon="-4.6218">
        <ele>9.69</ele>
        <time>2020-12-18T21:29:23Z</time>
      </trkpt>
      <trkpt lat="48.01992" lon="-4.62211">
        <ele>7.014</ele>
        <time>2020-12-18T21:29:03Z</time>
      </trkpt>
      <trkpt lat="48.02066" lon="-4.62237">
        <ele>9.608</ele>
        <time>2016-04-29T23:00:42Z</time>
      </trkpt>
      <trkpt lat="48.02115" lon="-4.6234">
        <ele>10.426</ele>
        <time>2016-04-29T23:00:22Z</time>
      </trkpt>
      <trkpt lat="48.02105" lon="-4.6237">
        <ele>8.624</ele>
        <time>2016-04-29T23:00:02Z</time>
      </trkpt>
      <trkpt lat="48.02117" lon="-4.62445">
        <ele>8.088</ele>
        <time>2016-04-29T22:59:42Z</time>
      </trkpt>
      <trkpt lat="48.02143" lon="-4.62499">
        <ele>9.667</ele>
        <time>2016-04-29T22:59:22Z</time>
      </trkpt>
      <trkpt lat="48.02188" lon="-4.62503">
        <ele>15.147</ele>
        <time>2016-04-29T22:59:02Z</time>
      </trkpt>
      <trkpt lat="48.02194" lon="-4.62537">
        <ele>13.653</ele>
        <time>2016-04-29T22:58:42Z</time>
      </trkpt>
      <trkpt lat="48.02178" lon="-4.62617">
        <ele>13.299</ele>
        <time>2016-04-29T22:58:22Z</time>
      </trkpt>
      <trkpt lat="48.02186" lon="-4.62685">
        <ele>13.937</ele>
        <time>2016-04-29T22:58:02Z</time>
      </trkpt>
      <trkpt lat="48.02229" lon="-4.62754">
        <ele>12.25</ele>
        <time>2016-04-29T22:57:42Z</time>
      </trkpt>
      <trkpt lat="48.023" lon="-4.62803">
        <ele>3.528</ele>
        <time>2016-04-29T22:57:22Z</time>
      </trkpt>
      <trkpt lat="48.02349" lon="-4.62763">
        <ele>6.942</ele>
        <time>2016-04-29T22:57:02Z</time>
      </trkpt>
      <trkpt lat="48.02376" lon="-4.62758">
        <ele>8.008</ele>
        <time>2016-04-29T22:56:42Z</time>
      </trkpt>
      <trkpt lat="48.02468" lon="-4.62853">
        <ele>4.724</ele>
        <time>2016-04-29T22:56:22Z</time>
      </trkpt>
      <trkpt lat="48.02544" lon="-4.62838">
        <ele>7.204</ele>
        <time>2016-04-29T22:56:02Z</time>
      </trkpt>
      <trkpt lat="48.02629" lon="-4.62926">
        <ele>6.069</ele>
        <time>2016-04-29T22:55:42Z</time>
      </trkpt>
      <trkpt lat="48.02645" lon="-4.62971">
        <ele>4.394</ele>
        <time>2016-04-29T22:55:22Z</time>
      </trkpt>
      <trkpt lat="48.02658" lon="-4.62973">
        <ele>4.644</ele>
        <time>2020-12-18T21:23:03Z</time>
      </trkpt>
      <trkpt lat="48.02667" lon="-4.63008">
        <ele>2.26</ele>
        <time>2020-12-18T21:22:43Z</time>
      </trkpt>
      <trkpt lat="48.02705" lon="-4.62985">
        <ele>4.366</ele>
        <time>2020-12-18T21:22:23Z</time>
      </trkpt>
      <trkpt lat="48.02744" lon="-4.63005">
        <ele>5.484</ele>
        <time>2016-04-29T22:55:02Z</time>
      </trkpt>
      <trkpt lat="48.02777" lon="-4.63078">
        <ele>3.437</ele>
        <time>2016-04-29T22:54:42Z</time>
      </trkpt>
      <trkpt lat="48.02857" lon="-4.63093">
        <ele>6.255</ele>
        <time>2016-04-29T22:54:22Z</time>
      </trkpt>
      <trkpt lat="48.02905" lon="-4.63144">
        <ele>4.719</ele>
        <time>2016-04-29T22:54:02Z</time>
      </trkpt>
      <trkpt lat="48.02964" lon="-4.63292">
        <ele>3.808</ele>
        <time>2020-12-18T21:20:43Z</time>
      </trkpt>
      <trkpt lat="48.02959" lon="-4.63492">
        <ele>10.711</ele>
        <time>2016-04-29T22:52:42Z</time>
      </trkpt>
      <trkpt lat="48.02909" lon="-4.63529">
        <ele>5.892</ele>
        <time>2016-04-29T22:52:22Z</time>
      </trkpt>
      <trkpt lat="48.02884" lon="-4.63617">
        <ele>5.832</ele>
        <time>2016-04-29T22:52:02Z</time>
      </trkpt>
      <trkpt lat="48.02878" lon="-4.63715">
        <ele>8.028</ele>
        <time>2020-12-18T21:19:23Z</time>
      </trkpt>
      <trkpt lat="48.02826" lon="-4.63788">
        <ele>12.468</ele>
        <time>2020-12-18T21:19:03Z</time>
      </trkpt>
      <trkpt lat="48.02737" lon="-4.63877">
        <ele>8.014</ele>
        <time>2020-12-18T21:18:43Z</time>
      </trkpt>
      <trkpt lat="48.02725" lon="-4.63983">
        <ele>8.11</ele>
        <time>2016-04-29T22:49:42Z</time>
      </trkpt>
      <trkpt lat="48.02698" lon="-4.63983">
        <ele>5.798</ele>
        <time>2016-04-29T22:49:22Z</time>
      </trkpt>
      <trkpt lat="48.02669" lon="-4.64069">
        <ele>5.821</ele>
        <time>2016-04-29T22:49:02Z</time>
      </trkpt>
      <trkpt lat="48.02635" lon="-4.64129">
        <ele>5.749</ele>
        <time>2016-04-29T22:48:42Z</time>
      </trkpt>
      <trkpt lat="48.02595" lon="-4.64121">
        <ele>5.043</ele>
        <time>2016-04-29T22:48:22Z</time>
      </trkpt>
      <trkpt lat="48.02509" lon="-4.6425">
        <ele>19.208</ele>
        <time>2016-04-29T22:48:02Z</time>
      </trkpt>
      <trkpt lat="48.02441" lon="-4.64316">
        <ele>25.014</ele>
        <time>2016-04-29T22:47:42Z</time>
      </trkpt>
      <trkpt lat="48.02382" lon="-4.64348">
        <ele>17.113</ele>
        <time>2016-04-29T22:47:22Z</time>
      </trkpt>
      <trkpt lat="48.02411" lon="-4.64406">
        <ele>30.372</ele>
        <time>2016-04-29T22:47:02Z</time>
      </trkpt>
      <trkpt lat="48.02401" lon="-4.64445">
        <ele>30.796</ele>
        <time>2016-04-29T22:46:42Z</time>
      </trkpt>
      <trkpt lat="48.02402" lon="-4.64848">
        <ele>16.896</ele>
        <time>2016-04-29T22:46:22Z</time>
      </trkpt>
      <trkpt lat="48.02371" lon="-4.65003">
        <ele>8.182</ele>
        <time>2016-04-29T22:46:02Z</time>
      </trkpt>
      <trkpt lat="48.02325" lon="-4.65067">
        <ele>15.678</ele>
        <time>2016-04-29T22:45:42Z</time>
      </trkpt>
      <trkpt lat="48.02227" lon="-4.65061">
        <ele>7.816</ele>
        <time>2016-04-29T22:45:22Z</time>
      </trkpt>
      <trkpt lat="48.02223" lon="-4.6523">
        <ele>8.279</ele>
        <time>2016-04-29T22:45:02Z</time>
      </trkpt>
      <trkpt lat="48.02252" lon="-4.65327">
        <ele>13.597</ele>
        <time>2016-04-29T22:44:42Z</time>
      </trkpt>
      <trkpt lat="48.02227" lon="-4.6546">
        <ele>11.581</ele>
        <time>2016-04-29T22:44:22Z</time>
      </trkpt>
      <trkpt lat="48.0224" lon="-4.65552">
        <ele>11.508</ele>
        <time>2016-04-29T22:44:02Z</time>
      </trkpt>
      <trkpt lat="48.02286" lon="-4.65627">
        <ele>14.911</ele>
        <time>2016-04-29T22:43:42Z</time>
      </trkpt>
      <trkpt lat="48.02356" lon="-4.65676">
        <ele>18.356</ele>
        <time>2016-04-29T22:43:22Z</time>
      </trkpt>
      <trkpt lat="48.02391" lon="-4.65775">
        <ele>15.154</ele>
        <time>2016-04-29T22:43:02Z</time>
      </trkpt>
      <trkpt lat="48.02422" lon="-4.65925">
        <ele>22.512</ele>
        <time>2016-04-29T22:42:42Z</time>
      </trkpt>
      <trkpt lat="48.02435" lon="-4.65996">
        <ele>23.262</ele>
        <time>2016-04-29T22:42:22Z</time>
      </trkpt>
      <trkpt lat="48.02481" lon="-4.66155">
        <ele>16.368</ele>
        <time>2016-04-29T22:42:02Z</time>
      </trkpt>
      <trkpt lat="48.02529" lon="-4.6626">
        <ele>12.214</ele>
        <time>2016-04-29T22:41:42Z</time>
      </trkpt>
      <trkpt lat="48.02616" lon="-4.66213">
        <ele>27.212</ele>
        <time>2016-04-29T22:41:22Z</time>
      </trkpt>
      <trkpt lat="48.02711" lon="-4.66382">
        <ele>19.145</ele>
        <time>2016-04-29T22:41:02Z</time>
      </trkpt>
      <trkpt lat="48.02681" lon="-4.66546">
        <ele>15.183</ele>
        <time>2016-04-29T22:40:42Z</time>
      </trkpt>
      <trkpt lat="48.02625" lon="-4.66644">
        <ele>8.187</ele>
        <time>2016-04-29T22:40:22Z</time>
      </trkpt>
      <trkpt lat="48.02619" lon="-4.66794">
        <ele>12.708</ele>
        <time>2016-04-29T22:40:02Z</time>
      </trkpt>
      <trkpt lat="48.02652" lon="-4.66906">
        <ele>16.503</ele>
        <time>2016-04-29T22:39:42Z</time>
      </trkpt>
      <trkpt lat="48.02643" lon="-4.66962">
        <ele>16.221</ele>
        <time>2016-04-29T22:39:22Z</time>
      </trkpt>
      <trkpt lat="48.02748" lon="-4.67357">
        <ele>33.411</ele>
        <time>2016-04-29T22:39:02Z</time>
      </trkpt>
      <trkpt lat="48.02784" lon="-4.67404">
        <ele>29.786</ele>
        <time>2016-04-29T22:38:42Z</time>
      </trkpt>
      <trkpt lat="48.02793" lon="-4.67463">
        <ele>25.716</ele>
        <time>2020-12-18T21:07:03Z</time>
      </trkpt>
      <trkpt lat="48.02818" lon="-4.67531">
        <ele>31.372</ele>
        <time>2020-12-18T21:06:43Z</time>
      </trkpt>
      <trkpt lat="48.02824" lon="-4.67586">
        <ele>40.738</ele>
        <time>2020-12-18T21:06:23Z</time>
      </trkpt>
      <trkpt lat="48.02775" lon="-4.67572">
        <ele>22.616</ele>
        <time>2020-12-18T21:06:03Z</time>
      </trkpt>
      <trkpt lat="48.02727" lon="-4.67685">
        <ele>21.899</ele>
        <time>2016-04-29T22:38:02Z</time>
      </trkpt>
      <trkpt lat="48.02738" lon="-4.67818">
        <ele>20.947</ele>
        <time>2016-04-29T22:37:42Z</time>
      </trkpt>
      <trkpt lat="48.02783" lon="-4.67945">
        <ele>42.681</ele>
        <time>2016-04-29T22:37:22Z</time>
      </trkpt>
      <trkpt lat="48.02771" lon="-4.68058">
        <ele>43.008</ele>
        <time>2016-04-29T22:37:02Z</time>
      </trkpt>
      <trkpt lat="48.02778" lon="-4.68196">
        <ele>42.014</ele>
        <time>2016-04-29T22:36:42Z</time>
      </trkpt>
      <trkpt lat="48.02745" lon="-4.68337">
        <ele>15.304</ele>
        <time>2016-04-29T22:36:22Z</time>
      </trkpt>
      <trkpt lat="48.02718" lon="-4.68399">
        <ele>8.553</ele>
        <time>2016-04-29T22:36:02Z</time>
      </trkpt>
      <trkpt lat="48.02715" lon="-4.68466">
        <ele>11.984</ele>
        <time>2016-04-29T22:35:42Z</time>
      </trkpt>
      <trkpt lat="48.02755" lon="-4.68635">
        <ele>26.934</ele>
        <time>2016-04-29T22:35:22Z</time>
      </trkpt>
      <trkpt lat="48.02731" lon="-4.68732">
        <ele>27.02</ele>
        <time>2016-04-29T22:35:02Z</time>
      </trkpt>
      <trkpt lat="48.02728" lon="-4.68865">
        <ele>32.836</ele>
        <time>2016-04-29T22:34:42Z</time>
      </trkpt>
      <trkpt lat="48.02715" lon="-4.68914">
        <ele>27.824</ele>
        <time>2016-04-29T22:34:22Z</time>
      </trkpt>
      <trkpt lat="48.02709" lon="-4.6897">
        <ele>25.887</ele>
        <time>2016-04-29T22:34:02Z</time>
      </trkpt>
      <trkpt lat="48.0275" lon="-4.69047">
        <ele>33.065</ele>
        <time>2016-04-29T22:33:42Z</time>
      </trkpt>
      <trkpt lat="48.02783" lon="-4.6914">
        <ele>32.219</ele>
        <time>2016-04-29T22:33:22Z</time>
      </trkpt>
      <trkpt lat="48.02807" lon="-4.69247">
        <ele>18.108</ele>
        <time>2016-04-29T22:33:02Z</time>
      </trkpt>
      <trkpt lat="48.02834" lon="-4.69299">
        <ele>19.718</ele>
        <time>2016-04-29T22:32:42Z</time>
      </trkpt>
      <trkpt lat="48.0288" lon="-4.69414">
        <ele>28.017</ele>
        <time>2016-04-29T22:32:22Z</time>
      </trkpt>
      <trkpt lat="48.02877" lon="-4.69537">
        <ele>15.136</ele>
        <time>2016-04-29T22:32:02Z</time>
      </trkpt>
      <trkpt lat="48.02892" lon="-4.69625">
        <ele>30.68</ele>
        <time>2016-04-29T22:31:42Z</time>
      </trkpt>
      <trkpt lat="48.02859" lon="-4.69631">
        <ele>28.48</ele>
        <time>2016-04-29T22:31:22Z</time>
      </trkpt>
      <trkpt lat="48.02806" lon="-4.69612">
        <ele>19.236</ele>
        <time>2016-04-29T22:31:02Z</time>
      </trkpt>
      <trkpt lat="48.02775" lon="-4.69614">
        <ele>19.672</ele>
        <time>2016-04-29T22:30:42Z</time>
      </trkpt>
      <trkpt lat="48.0274" lon="-4.69588">
        <ele>11.55</ele>
        <time>2016-04-29T22:30:22Z</time>
      </trkpt>
      <trkpt lat="48.02708" lon="-4.69588">
        <ele>7.693</ele>
        <time>2016-04-29T22:30:02Z</time>
      </trkpt>
      <trkpt lat="48.02702" lon="-4.69687">
        <ele>21.261</ele>
        <time>2016-04-29T22:29:42Z</time>
      </trkpt>
      <trkpt lat="48.02646" lon="-4.69673">
        <ele>10.445</ele>
        <time>2020-12-18T20:57:03Z</time>
      </trkpt>
      <trkpt lat="48.02635" lon="-4.69683">
        <ele>10.608</ele>
        <time>2016-04-29T22:29:22Z</time>
      </trkpt>
      <trkpt lat="48.02642" lon="-4.69745">
        <ele>14.726</ele>
        <time>2016-04-29T22:29:02Z</time>
      </trkpt>
      <trkpt lat="48.02705" lon="-4.69844">
        <ele>20.515</ele>
        <time>2016-04-29T22:28:42Z</time>
      </trkpt>
      <trkpt lat="48.02811" lon="-4.69908">
        <ele>34.998</ele>
        <time>2016-04-29T22:28:22Z</time>
      </trkpt>
      <trkpt lat="48.02867" lon="-4.69994">
        <ele>37.769</ele>
        <time>2016-04-29T22:28:02Z</time>
      </trkpt>
      <trkpt lat="48.02939" lon="-4.70144">
        <ele>32.879</ele>
        <time>2016-04-29T22:27:42Z</time>
      </trkpt>
      <trkpt lat="48.03037" lon="-4.70303">
        <ele>46.585</ele>
        <time>2016-04-29T22:27:22Z</time>
      </trkpt>
      <trkpt lat="48.03065" lon="-4.70406">
        <ele>37.131</ele>
        <time>2016-04-29T22:27:02Z</time>
      </trkpt>
      <trkpt lat="48.03075" lon="-4.70502">
        <ele>33.469</ele>
        <time>2016-04-29T22:26:42Z</time>
      </trkpt>
      <trkpt lat="48.03199" lon="-4.70689">
        <ele>36.492</ele>
        <time>2016-04-29T22:26:22Z</time>
      </trkpt>
      <trkpt lat="48.03213" lon="-4.70781">
        <ele>33.82</ele>
        <time>2016-04-29T22:26:02Z</time>
      </trkpt>
      <trkpt lat="48.03216" lon="-4.70897">
        <ele>19.184</ele>
        <time>2016-04-29T22:25:42Z</time>
      </trkpt>
      <trkpt lat="48.03265" lon="-4.70925">
        <ele>34.208</ele>
        <time>2016-04-29T22:25:22Z</time>
      </trkpt>
      <trkpt lat="48.03319" lon="-4.70987">
        <ele>26.217</ele>
        <time>2016-04-29T22:25:02Z</time>
      </trkpt>
      <trkpt lat="48.03345" lon="-4.71041">
        <ele>21.025</ele>
        <time>2016-04-29T22:24:42Z</time>
      </trkpt>
      <trkpt lat="48.03359" lon="-4.71095">
        <ele>13.783</ele>
        <time>2016-04-29T22:24:22Z</time>
      </trkpt>
      <trkpt lat="48.03427" lon="-4.71176">
        <ele>9.577</ele>
        <time>2016-04-29T22:24:02Z</time>
      </trkpt>
      <trkpt lat="48.03456" lon="-4.71247">
        <ele>13.067</ele>
        <time>2016-04-29T22:23:42Z</time>
      </trkpt>
      <trkpt lat="48.03444" lon="-4.71262">
        <ele>12.373</ele>
        <time>2016-04-29T22:23:22Z</time>
      </trkpt>
      <trkpt lat="48.03405" lon="-4.71266">
        <ele>11.579</ele>
        <time>2016-04-29T22:23:02Z</time>
      </trkpt>
      <trkpt lat="48.03384" lon="-4.71243">
        <ele>7.177</ele>
        <time>2016-04-29T22:22:42Z</time>
      </trkpt>
      <trkpt lat="48.03342" lon="-4.71279">
        <ele>9.09</ele>
        <time>2016-04-29T22:22:22Z</time>
      </trkpt>
      <trkpt lat="48.03369" lon="-4.71298">
        <ele>11.878</ele>
        <time>2016-04-29T22:22:02Z</time>
      </trkpt>
      <trkpt lat="48.03398" lon="-4.71367">
        <ele>19.322</ele>
        <time>2016-04-29T22:21:42Z</time>
      </trkpt>
      <trkpt lat="48.03417" lon="-4.71472">
        <ele>24.008</ele>
        <time>2016-04-29T22:21:22Z</time>
      </trkpt>
      <trkpt lat="48.03382" lon="-4.71504">
        <ele>18.016</ele>
        <time>2016-04-29T22:21:02Z</time>
      </trkpt>
      <trkpt lat="48.03354" lon="-4.7159">
        <ele>18.606</ele>
        <time>2016-04-29T22:20:42Z</time>
      </trkpt>
      <trkpt lat="48.03345" lon="-4.71648">
        <ele>21.264</ele>
        <time>2016-04-29T22:20:22Z</time>
      </trkpt>
      <trkpt lat="48.03382" lon="-4.71678">
        <ele>35.45</ele>
        <time>2016-04-29T22:20:02Z</time>
      </trkpt>
      <trkpt lat="48.03405" lon="-4.71736">
        <ele>40.34</ele>
        <time>2016-04-29T22:19:42Z</time>
      </trkpt>
      <trkpt lat="48.0339" lon="-4.71775">
        <ele>32.536</ele>
        <time>2016-04-29T22:19:22Z</time>
      </trkpt>
      <trkpt lat="48.03391" lon="-4.71816">
        <ele>28.412</ele>
        <time>2016-04-29T22:19:02Z</time>
      </trkpt>
      <trkpt lat="48.0342" lon="-4.7191">
        <ele>25.19</ele>
        <time>2016-04-29T22:18:42Z</time>
      </trkpt>
      <trkpt lat="48.03411" lon="-4.71955">
        <ele>20.583</ele>
        <time>2016-04-29T22:18:22Z</time>
      </trkpt>
      <trkpt lat="48.03391" lon="-4.71961">
        <ele>12.331</ele>
        <time>2016-04-29T22:18:02Z</time>
      </trkpt>
      <trkpt lat="48.03384" lon="-4.72">
        <ele>10.745</ele>
        <time>2016-04-29T22:17:42Z</time>
      </trkpt>
      <trkpt lat="48.03435" lon="-4.7206">
        <ele>31.908</ele>
        <time>2016-04-29T22:17:22Z</time>
      </trkpt>
      <trkpt lat="48.03423" lon="-4.72125">
        <ele>25.322</ele>
        <time>2016-04-29T22:17:02Z</time>
      </trkpt>
      <trkpt lat="48.03438" lon="-4.72221">
        <ele>30.757</ele>
        <time>2016-04-29T22:16:42Z</time>
      </trkpt>
      <trkpt lat="48.03388" lon="-4.7238">
        <ele>34.194</ele>
        <time>2016-04-29T22:16:22Z</time>
      </trkpt>
      <trkpt lat="48.03341" lon="-4.72427">
        <ele>23.973</ele>
        <time>2016-04-29T22:16:02Z</time>
      </trkpt>
      <trkpt lat="48.03336" lon="-4.72547">
        <ele>32.343</ele>
        <time>2016-04-29T22:15:42Z</time>
      </trkpt>
      <trkpt lat="48.03367" lon="-4.7265">
        <ele>29.019</ele>
        <time>2016-04-29T22:15:22Z</time>
      </trkpt>
      <trkpt lat="48.03489" lon="-4.72723">
        <ele>43.975</ele>
        <time>2016-04-29T22:15:02Z</time>
      </trkpt>
      <trkpt lat="48.03599" lon="-4.72815">
        <ele>53.863</ele>
        <time>2016-04-29T22:14:42Z</time>
      </trkpt>
      <trkpt lat="48.03674" lon="-4.72974">
        <ele>55.886</ele>
        <time>2016-04-29T22:14:22Z</time>
      </trkpt>
      <trkpt lat="48.03725" lon="-4.73036">
        <ele>58.054</ele>
        <time>2016-04-29T22:14:02Z</time>
      </trkpt>
      <trkpt lat="48.0377" lon="-4.73129">
        <ele>57.848</ele>
        <time>2016-04-29T22:13:42Z</time>
      </trkpt>
      <trkpt lat="48.03864" lon="-4.73313">
        <ele>60.008</ele>
        <time>2016-04-29T22:13:22Z</time>
      </trkpt>
      <trkpt lat="48.03899" lon="-4.73332">
        <ele>63.92</ele>
        <time>2020-12-18T20:40:23Z</time>
      </trkpt>
      <trkpt lat="48.0391" lon="-4.73472">
        <ele>47.8</ele>
        <time>2016-04-29T22:12:42Z</time>
      </trkpt>
      <trkpt lat="48.03953" lon="-4.73597">
        <ele>41.429</ele>
        <time>2016-04-29T22:12:22Z</time>
      </trkpt>
      <trkpt lat="48.03985" lon="-4.73566">
        <ele>45.234</ele>
        <time>2016-04-29T22:12:02Z</time>
      </trkpt>
      <trkpt lat="48.03952" lon="-4.73433">
        <ele>55.954</ele>
        <time>2016-04-29T22:11:42Z</time>
      </trkpt>
      <trkpt lat="48.03986" lon="-4.73358">
        <ele>61.12</ele>
        <time>2016-04-29T22:11:22Z</time>
      </trkpt>
      <trkpt lat="48.03986" lon="-4.73311">
        <ele>62.076</ele>
        <time>2016-04-29T22:11:02Z</time>
      </trkpt>
      <trkpt lat="48.04004" lon="-4.73257">
        <ele>59.674</ele>
        <time>2016-04-29T22:10:42Z</time>
      </trkpt>
      <trkpt lat="48.04004" lon="-4.73202">
        <ele>60.577</ele>
        <time>2016-04-29T22:10:22Z</time>
      </trkpt>
      <trkpt lat="48.03952" lon="-4.7309">
        <ele>65.565</ele>
        <time>2016-04-29T22:10:02Z</time>
      </trkpt>
      <trkpt lat="48.03986" lon="-4.73024">
        <ele>60.379</ele>
        <time>2016-04-29T22:09:42Z</time>
      </trkpt>
      <trkpt lat="48.04001" lon="-4.72974">
        <ele>57.808</ele>
        <time>2016-04-29T22:09:22Z</time>
      </trkpt>
      <trkpt lat="48.03988" lon="-4.7294">
        <ele>59.81</ele>
        <time>2016-04-29T22:09:02Z</time>
      </trkpt>
      <trkpt lat="48.04001" lon="-4.72706">
        <ele>57.555</ele>
        <time>2016-04-29T22:08:42Z</time>
      </trkpt>
      <trkpt lat="48.03998" lon="-4.72474">
        <ele>64.134</ele>
        <time>2020-12-18T20:35:43Z</time>
      </trkpt>
      <trkpt lat="48.04045" lon="-4.72346">
        <ele>50.772</ele>
        <time>2016-04-29T22:07:42Z</time>
      </trkpt>
      <trkpt lat="48.04054" lon="-4.72225">
        <ele>50.532</ele>
        <time>2016-04-29T22:07:22Z</time>
      </trkpt>
      <trkpt lat="48.04032" lon="-4.7218">
        <ele>56.248</ele>
        <time>2016-04-29T22:07:02Z</time>
      </trkpt>
      <trkpt lat="48.04017" lon="-4.72109">
        <ele>54.994</ele>
        <time>2016-04-29T22:06:42Z</time>
      </trkpt>
      <trkpt lat="48.04022" lon="-4.72028">
        <ele>50.072</ele>
        <time>2016-04-29T22:06:22Z</time>
      </trkpt>
      <trkpt lat="48.04045" lon="-4.72">
        <ele>46.665</ele>
        <time>2016-04-29T22:06:02Z</time>
      </trkpt>
      <trkpt lat="48.04091" lon="-4.71989">
        <ele>33.083</ele>
        <time>2016-04-29T22:05:42Z</time>
      </trkpt>
      <trkpt lat="48.04128" lon="-4.7197">
        <ele>26.667</ele>
        <time>2016-04-29T22:05:22Z</time>
      </trkpt>
      <trkpt lat="48.04173" lon="-4.71961">
        <ele>8.308</ele>
        <time>2016-04-29T22:05:02Z</time>
      </trkpt>
      <trkpt lat="48.04176" lon="-4.71846">
        <ele>22.413</ele>
        <time>2016-04-29T22:04:42Z</time>
      </trkpt>
      <trkpt lat="48.0412" lon="-4.71682">
        <ele>35.676</ele>
        <time>2016-04-29T22:04:22Z</time>
      </trkpt>
      <trkpt lat="48.04113" lon="-4.71573">
        <ele>33.516</ele>
        <time>2016-04-29T22:04:02Z</time>
      </trkpt>
      <trkpt lat="48.04127" lon="-4.71526">
        <ele>22.05</ele>
        <time>2016-04-29T22:03:42Z</time>
      </trkpt>
      <trkpt lat="48.04108" lon="-4.71457">
        <ele>29.92</ele>
        <time>2016-04-29T22:03:22Z</time>
      </trkpt>
      <trkpt lat="48.04127" lon="-4.71386">
        <ele>25.436</ele>
        <time>2016-04-29T22:03:02Z</time>
      </trkpt>
      <trkpt lat="48.04131" lon="-4.71294">
        <ele>39.532</ele>
        <time>2016-04-29T22:02:42Z</time>
      </trkpt>
      <trkpt lat="48.04169" lon="-4.71228">
        <ele>37.03</ele>
        <time>2016-04-29T22:02:22Z</time>
      </trkpt>
      <trkpt lat="48.04184" lon="-4.7117">
        <ele>46.163</ele>
        <time>2016-04-29T22:02:02Z</time>
      </trkpt>
      <trkpt lat="48.04225" lon="-4.71152">
        <ele>32.481</ele>
        <time>2016-04-29T22:01:42Z</time>
      </trkpt>
      <trkpt lat="48.04255" lon="-4.7112">
        <ele>27.215</ele>
        <time>2016-04-29T22:01:22Z</time>
      </trkpt>
      <trkpt lat="48.04269" lon="-4.71052">
        <ele>38.408</ele>
        <time>2016-04-29T22:01:02Z</time>
      </trkpt>
      <trkpt lat="48.04272" lon="-4.70981">
        <ele>51.826</ele>
        <time>2016-04-29T22:00:42Z</time>
      </trkpt>
      <trkpt lat="48.04308" lon="-4.70927">
        <ele>42.515</ele>
        <time>2016-04-29T22:00:22Z</time>
      </trkpt>
      <trkpt lat="48.04325" lon="-4.70865">
        <ele>42.398</ele>
        <time>2016-04-29T22:00:02Z</time>
      </trkpt>
      <trkpt lat="48.04367" lon="-4.70807">
        <ele>32.772</ele>
        <time>2016-04-29T21:59:42Z</time>
      </trkpt>
      <trkpt lat="48.04392" lon="-4.70723">
        <ele>35.162</ele>
        <time>2016-04-29T21:59:22Z</time>
      </trkpt>
      <trkpt lat="48.04457" lon="-4.70678">
        <ele>16.868</ele>
        <time>2016-04-29T21:59:02Z</time>
      </trkpt>
      <trkpt lat="48.0452" lon="-4.70586">
        <ele>5.724</ele>
        <time>2016-04-29T21:58:42Z</time>
      </trkpt>
      <trkpt lat="48.0457" lon="-4.70552">
        <ele>5.532</ele>
        <time>2016-04-29T21:58:22Z</time>
      </trkpt>
      <trkpt lat="48.04569" lon="-4.70485">
        <ele>6.545</ele>
        <time>2016-04-29T21:58:02Z</time>
      </trkpt>
      <trkpt lat="48.04721" lon="-4.70451">
        <ele>6.253</ele>
        <time>2016-04-29T21:57:42Z</time>
      </trkpt>
      <trkpt lat="48.0474" lon="-4.70485">
        <ele>7.657</ele>
        <time>2016-04-29T21:57:22Z</time>
      </trkpt>
      <trkpt lat="48.04833" lon="-4.70511">
        <ele>8.808</ele>
        <time>2016-04-29T21:57:02Z</time>
      </trkpt>
      <trkpt lat="48.04963" lon="-4.70481">
        <ele>19.513</ele>
        <time>2016-04-29T21:56:42Z</time>
      </trkpt>
      <trkpt lat="48.04969" lon="-4.70509">
        <ele>17.276</ele>
        <time>2016-04-29T21:56:22Z</time>
      </trkpt>
      <trkpt lat="48.04962" lon="-4.70552">
        <ele>13.416</ele>
        <time>2016-04-29T21:56:02Z</time>
      </trkpt>
      <trkpt lat="48.04971" lon="-4.70588">
        <ele>12.589</ele>
        <time>2016-04-29T21:55:42Z</time>
      </trkpt>
      <trkpt lat="48.05001" lon="-4.70622">
        <ele>20.059</ele>
        <time>2016-04-29T21:55:22Z</time>
      </trkpt>
      <trkpt lat="48.05037" lon="-4.70708">
        <ele>26.975</ele>
        <time>2016-04-29T21:55:02Z</time>
      </trkpt>
      <trkpt lat="48.05037" lon="-4.70776">
        <ele>21.351</ele>
        <time>2020-12-18T20:22:23Z</time>
      </trkpt>
      <trkpt lat="48.05086" lon="-4.70847">
        <ele>29.769</ele>
        <time>2020-12-18T20:22:03Z</time>
      </trkpt>
      <trkpt lat="48.05146" lon="-4.7101">
        <ele>15.092</ele>
        <time>2020-12-18T20:21:43Z</time>
      </trkpt>
      <trkpt lat="48.05154" lon="-4.70948">
        <ele>27.25</ele>
        <time>2020-12-18T20:21:23Z</time>
      </trkpt>
      <trkpt lat="48.05192" lon="-4.70911">
        <ele>36.514</ele>
        <time>2020-12-18T20:21:03Z</time>
      </trkpt>
      <trkpt lat="48.05219" lon="-4.70852">
        <ele>42.608</ele>
        <time>2020-12-18T20:20:43Z</time>
      </trkpt>
      <trkpt lat="48.05285" lon="-4.70876">
        <ele>36.326</ele>
        <time>2016-04-29T21:54:02Z</time>
      </trkpt>
      <trkpt lat="48.05338" lon="-4.70996">
        <ele>25.006</ele>
        <time>2016-04-29T21:53:42Z</time>
      </trkpt>
      <trkpt lat="48.05336" lon="-4.71208">
        <ele>15.389</ele>
        <time>2016-04-29T21:53:22Z</time>
      </trkpt>
      <trkpt lat="48.05355" lon="-4.71277">
        <ele>18.93</ele>
        <time>2016-04-29T21:53:02Z</time>
      </trkpt>
      <trkpt lat="48.05371" lon="-4.71301">
        <ele>18.28</ele>
        <time>2016-04-29T21:52:42Z</time>
      </trkpt>
      <trkpt lat="48.05488" lon="-4.71089">
        <ele>33.176</ele>
        <time>2020-12-18T20:18:43Z</time>
      </trkpt>
      <trkpt lat="48.05511" lon="-4.71027">
        <ele>33.242</ele>
        <time>2020-12-18T20:18:23Z</time>
      </trkpt>
      <trkpt lat="48.05528" lon="-4.7104">
        <ele>27.39</ele>
        <time>2020-12-18T20:18:03Z</time>
      </trkpt>
      <trkpt lat="48.0555" lon="-4.71016">
        <ele>30.253</ele>
        <time>2020-12-18T20:17:43Z</time>
      </trkpt>
      <trkpt lat="48.05538" lon="-4.70898">
        <ele>40.881</ele>
        <time>2020-12-18T20:17:23Z</time>
      </trkpt>
      <trkpt lat="48.05568" lon="-4.70764">
        <ele>49.495</ele>
        <time>2020-12-18T20:17:03Z</time>
      </trkpt>
      <trkpt lat="48.05592" lon="-4.70714">
        <ele>53.408</ele>
        <time>2020-12-18T20:16:43Z</time>
      </trkpt>
      <trkpt lat="48.05612" lon="-4.70635">
        <ele>57.32</ele>
        <time>2020-12-18T20:16:23Z</time>
      </trkpt>
      <trkpt lat="48.05612" lon="-4.70697">
        <ele>56.073</ele>
        <time>2020-12-18T20:16:03Z</time>
      </trkpt>
      <trkpt lat="48.05581" lon="-4.70794">
        <ele>49.792</ele>
        <time>2020-12-18T20:15:43Z</time>
      </trkpt>
      <trkpt lat="48.05636" lon="-4.70947">
        <ele>52.685</ele>
        <time>2020-12-18T20:15:23Z</time>
      </trkpt>
      <trkpt lat="48.05631" lon="-4.70992">
        <ele>50.765</ele>
        <time>2020-12-18T20:15:03Z</time>
      </trkpt>
      <trkpt lat="48.05749" lon="-4.71091">
        <ele>52.341</ele>
        <time>2020-12-18T20:14:43Z</time>
      </trkpt>
      <trkpt lat="48.05734" lon="-4.71176">
        <ele>47.047</ele>
        <time>2020-12-18T20:14:23Z</time>
      </trkpt>
      <trkpt lat="48.05757" lon="-4.71302">
        <ele>23.035</ele>
        <time>2020-12-18T20:14:03Z</time>
      </trkpt>
      <trkpt lat="48.05785" lon="-4.71337">
        <ele>15.478</ele>
        <time>2016-04-29T21:50:22Z</time>
      </trkpt>
      <trkpt lat="48.05823" lon="-4.71292">
        <ele>35.396</ele>
        <time>2016-04-29T21:50:02Z</time>
      </trkpt>
      <trkpt lat="48.05859" lon="-4.71276">
        <ele>42.49</ele>
        <time>2020-12-18T20:13:03Z</time>
      </trkpt>
      <trkpt lat="48.0589" lon="-4.7122">
        <ele>49.008</ele>
        <time>2020-12-18T20:12:43Z</time>
      </trkpt>
      <trkpt lat="48.05911" lon="-4.71165">
        <ele>51.116</ele>
        <time>2020-12-18T20:12:23Z</time>
      </trkpt>
      <trkpt lat="48.05977" lon="-4.71191">
        <ele>45.988</ele>
        <time>2016-04-29T21:49:02Z</time>
      </trkpt>
      <trkpt lat="48.0603" lon="-4.71204">
        <ele>44.246</ele>
        <time>2016-04-29T21:48:42Z</time>
      </trkpt>
      <trkpt lat="48.06088" lon="-4.71318">
        <ele>34.954</ele>
        <time>2016-04-29T21:48:22Z</time>
      </trkpt>
      <trkpt lat="48.06169" lon="-4.7143">
        <ele>38.654</ele>
        <time>2020-12-18T20:11:03Z</time>
      </trkpt>
      <trkpt lat="48.06232" lon="-4.71427">
        <ele>50.42</ele>
        <time>2020-12-18T20:10:43Z</time>
      </trkpt>
      <trkpt lat="48.06264" lon="-4.71408">
        <ele>53.336</ele>
        <time>2020-12-18T20:10:23Z</time>
      </trkpt>
      <trkpt lat="48.0632" lon="-4.71448">
        <ele>50.434</ele>
        <time>2020-12-18T20:10:03Z</time>
      </trkpt>
      <trkpt lat="48.06349" lon="-4.71378">
        <ele>52.447</ele>
        <time>2016-04-29T21:46:42Z</time>
      </trkpt>
      <trkpt lat="48.0639" lon="-4.71165">
        <ele>51.445</ele>
        <time>2016-04-29T21:46:22Z</time>
      </trkpt>
      <trkpt lat="48.06297" lon="-4.71045">
        <ele>54.389</ele>
        <time>2016-04-29T21:46:02Z</time>
      </trkpt>
      <trkpt lat="48.0628" lon="-4.71004">
        <ele>51.908</ele>
        <time>2016-04-29T21:45:42Z</time>
      </trkpt>
      <trkpt lat="48.06253" lon="-4.70962">
        <ele>54.417</ele>
        <time>2016-04-29T21:45:22Z</time>
      </trkpt>
      <trkpt lat="48.06253" lon="-4.70859">
        <ele>55.67</ele>
        <time>2016-04-29T21:45:02Z</time>
      </trkpt>
      <trkpt lat="48.06248" lon="-4.7071">
        <ele>58.638</ele>
        <time>2016-04-29T21:44:42Z</time>
      </trkpt>
      <trkpt lat="48.06228" lon="-4.7058">
        <ele>56.783</ele>
        <time>2016-04-29T21:44:22Z</time>
      </trkpt>
      <trkpt lat="48.06201" lon="-4.70481">
        <ele>57.493</ele>
        <time>2016-04-29T21:44:02Z</time>
      </trkpt>
      <trkpt lat="48.06161" lon="-4.70399">
        <ele>62.829</ele>
        <time>2016-04-29T21:43:42Z</time>
      </trkpt>
      <trkpt lat="48.06134" lon="-4.70294">
        <ele>65.285</ele>
        <time>2016-04-29T21:43:22Z</time>
      </trkpt>
      <trkpt lat="48.06127" lon="-4.70223">
        <ele>63.693</ele>
        <time>2016-04-29T21:43:02Z</time>
      </trkpt>
      <trkpt lat="48.06144" lon="-4.70165">
        <ele>57.316</ele>
        <time>2016-04-29T21:42:42Z</time>
      </trkpt>
      <trkpt lat="48.06134" lon="-4.70138">
        <ele>62.954</ele>
        <time>2016-04-29T21:42:22Z</time>
      </trkpt>
      <trkpt lat="48.06175" lon="-4.69996">
        <ele>47.768</ele>
        <time>2016-04-29T21:42:02Z</time>
      </trkpt>
      <trkpt lat="48.06161" lon="-4.69953">
        <ele>52.708</ele>
        <time>2016-04-29T21:41:42Z</time>
      </trkpt>
      <trkpt lat="48.06179" lon="-4.69903">
        <ele>37.408</ele>
        <time>2020-12-18T20:04:23Z</time>
      </trkpt>
      <trkpt lat="48.0616" lon="-4.69869">
        <ele>39.526</ele>
        <time>2016-04-29T21:41:02Z</time>
      </trkpt>
      <trkpt lat="48.06121" lon="-4.69871">
        <ele>50.325</ele>
        <time>2016-04-29T21:40:42Z</time>
      </trkpt>
      <trkpt lat="48.06114" lon="-4.6982">
        <ele>43.222</ele>
        <time>2016-04-29T21:40:22Z</time>
      </trkpt>
      <trkpt lat="48.06088" lon="-4.69792">
        <ele>46.582</ele>
        <time>2016-04-29T21:40:02Z</time>
      </trkpt>
      <trkpt lat="48.06079" lon="-4.6976">
        <ele>46.478</ele>
        <time>2016-04-29T21:39:42Z</time>
      </trkpt>
      <trkpt lat="48.06091" lon="-4.697">
        <ele>27.824</ele>
        <time>2016-04-29T21:39:22Z</time>
      </trkpt>
      <trkpt lat="48.06084" lon="-4.69655">
        <ele>21.872</ele>
        <time>2016-04-29T21:39:02Z</time>
      </trkpt>
      <trkpt lat="48.06039" lon="-4.69713">
        <ele>54.655</ele>
        <time>2016-04-29T21:38:42Z</time>
      </trkpt>
      <trkpt lat="48.06019" lon="-4.6967">
        <ele>57.873</ele>
        <time>2016-04-29T21:38:22Z</time>
      </trkpt>
      <trkpt lat="48.06013" lon="-4.69605">
        <ele>55.487</ele>
        <time>2016-04-29T21:38:02Z</time>
      </trkpt>
      <trkpt lat="48.05986" lon="-4.69537">
        <ele>62.008</ele>
        <time>2016-04-29T21:37:42Z</time>
      </trkpt>
      <trkpt lat="48.0599" lon="-4.69464">
        <ele>48.609</ele>
        <time>2016-04-29T21:37:22Z</time>
      </trkpt>
      <trkpt lat="48.05962" lon="-4.69438">
        <ele>55.854</ele>
        <time>2016-04-29T21:37:02Z</time>
      </trkpt>
      <trkpt lat="48.05927" lon="-4.69354">
        <ele>60.414</ele>
        <time>2016-04-29T21:36:42Z</time>
      </trkpt>
      <trkpt lat="48.05897" lon="-4.69324">
        <ele>64.782</ele>
        <time>2016-04-29T21:36:22Z</time>
      </trkpt>
      <trkpt lat="48.05926" lon="-4.69245">
        <ele>63.992</ele>
        <time>2016-04-29T21:36:02Z</time>
      </trkpt>
      <trkpt lat="48.05953" lon="-4.69251">
        <ele>58.718</ele>
        <time>2016-04-29T21:35:42Z</time>
      </trkpt>
      <trkpt lat="48.05976" lon="-4.69247">
        <ele>53.834</ele>
        <time>2016-04-29T21:35:22Z</time>
      </trkpt>
      <trkpt lat="48.06003" lon="-4.69266">
        <ele>44.562</ele>
        <time>2016-04-29T21:35:02Z</time>
      </trkpt>
      <trkpt lat="48.06033" lon="-4.69226">
        <ele>48.675</ele>
        <time>2016-04-29T21:34:42Z</time>
      </trkpt>
      <trkpt lat="48.06115" lon="-4.69204">
        <ele>20.073</ele>
        <time>2016-04-29T21:34:22Z</time>
      </trkpt>
      <trkpt lat="48.06081" lon="-4.69142">
        <ele>43.617</ele>
        <time>2016-04-29T21:34:02Z</time>
      </trkpt>
      <trkpt lat="48.06094" lon="-4.6912">
        <ele>39.908</ele>
        <time>2016-04-29T21:33:42Z</time>
      </trkpt>
      <trkpt lat="48.06091" lon="-4.69095">
        <ele>43.807</ele>
        <time>2016-04-29T21:33:22Z</time>
      </trkpt>
      <trkpt lat="48.06096" lon="-4.69047">
        <ele>46.443</ele>
        <time>2016-04-29T21:33:02Z</time>
      </trkpt>
      <trkpt lat="48.06073" lon="-4.68955">
        <ele>55.813</ele>
        <time>2016-04-29T21:32:42Z</time>
      </trkpt>
      <trkpt lat="48.06117" lon="-4.68927">
        <ele>52.155</ele>
        <time>2016-04-29T21:32:22Z</time>
      </trkpt>
      <trkpt lat="48.06112" lon="-4.6891">
        <ele>55.585</ele>
        <time>2016-04-29T21:32:02Z</time>
      </trkpt>
      <trkpt lat="48.06148" lon="-4.68846">
        <ele>54.431</ele>
        <time>2016-04-29T21:31:42Z</time>
      </trkpt>
      <trkpt lat="48.06139" lon="-4.68794">
        <ele>51.757</ele>
        <time>2016-04-29T21:31:22Z</time>
      </trkpt>
      <trkpt lat="48.06119" lon="-4.68773">
        <ele>54.195</ele>
        <time>2016-04-29T21:31:02Z</time>
      </trkpt>
      <trkpt lat="48.06112" lon="-4.68736">
        <ele>51.798</ele>
        <time>2016-04-29T21:30:42Z</time>
      </trkpt>
      <trkpt lat="48.06095" lon="-4.68719">
        <ele>56.846</ele>
        <time>2016-04-29T21:30:22Z</time>
      </trkpt>
      <trkpt lat="48.06084" lon="-4.68629">
        <ele>46.89</ele>
        <time>2016-04-29T21:30:02Z</time>
      </trkpt>
      <trkpt lat="48.06049" lon="-4.68605">
        <ele>55.808</ele>
        <time>2016-04-29T21:29:42Z</time>
      </trkpt>
      <trkpt lat="48.06016" lon="-4.68571">
        <ele>56.411</ele>
        <time>2016-04-29T21:29:22Z</time>
      </trkpt>
      <trkpt lat="48.05993" lon="-4.68509">
        <ele>57.647</ele>
        <time>2016-04-29T21:29:02Z</time>
      </trkpt>
      <trkpt lat="48.06065" lon="-4.68451">
        <ele>48.845</ele>
        <time>2016-04-29T21:28:42Z</time>
      </trkpt>
      <trkpt lat="48.06072" lon="-4.68342">
        <ele>53.946</ele>
        <time>2016-04-29T21:28:22Z</time>
      </trkpt>
      <trkpt lat="48.06124" lon="-4.68303">
        <ele>42.126</ele>
        <time>2016-04-29T21:28:02Z</time>
      </trkpt>
      <trkpt lat="48.06131" lon="-4.68254">
        <ele>48.632</ele>
        <time>2016-04-29T21:27:42Z</time>
      </trkpt>
      <trkpt lat="48.0617" lon="-4.68215">
        <ele>43.228</ele>
        <time>2016-04-29T21:27:22Z</time>
      </trkpt>
      <trkpt lat="48.06185" lon="-4.6811">
        <ele>36.736</ele>
        <time>2016-04-29T21:27:02Z</time>
      </trkpt>
      <trkpt lat="48.06142" lon="-4.68108">
        <ele>54.879</ele>
        <time>2016-04-29T21:26:42Z</time>
      </trkpt>
      <trkpt lat="48.06129" lon="-4.68052">
        <ele>53.287</ele>
        <time>2016-04-29T21:26:22Z</time>
      </trkpt>
      <trkpt lat="48.06091" lon="-4.67998">
        <ele>54.271</ele>
        <time>2016-04-29T21:26:02Z</time>
      </trkpt>
      <trkpt lat="48.06069" lon="-4.6794">
        <ele>49.108</ele>
        <time>2016-04-29T21:25:42Z</time>
      </trkpt>
      <trkpt lat="48.06042" lon="-4.67929">
        <ele>53.311</ele>
        <time>2020-12-18T19:48:23Z</time>
      </trkpt>
      <trkpt lat="48.06033" lon="-4.6791">
        <ele>54.356</ele>
        <time>2016-04-29T21:25:22Z</time>
      </trkpt>
      <trkpt lat="48.06055" lon="-4.67827">
        <ele>46.654</ele>
        <time>2016-04-29T21:25:02Z</time>
      </trkpt>
      <trkpt lat="48.0605" lon="-4.67768">
        <ele>49.868</ele>
        <time>2020-12-18T19:47:23Z</time>
      </trkpt>
      <trkpt lat="48.06061" lon="-4.67693">
        <ele>50.288</ele>
        <time>2016-04-29T21:24:42Z</time>
      </trkpt>
      <trkpt lat="48.06103" lon="-4.67539">
        <ele>42.694</ele>
        <time>2020-12-18T19:46:43Z</time>
      </trkpt>
      <trkpt lat="48.06142" lon="-4.67518">
        <ele>24.61</ele>
        <time>2016-04-29T21:24:02Z</time>
      </trkpt>
      <trkpt lat="48.06139" lon="-4.67481">
        <ele>27.078</ele>
        <time>2016-04-29T21:23:42Z</time>
      </trkpt>
      <trkpt lat="48.06114" lon="-4.67449">
        <ele>31.031</ele>
        <time>2016-04-29T21:23:22Z</time>
      </trkpt>
      <trkpt lat="48.06076" lon="-4.67348">
        <ele>23.099</ele>
        <time>2016-04-29T21:23:02Z</time>
      </trkpt>
      <trkpt lat="48.06059" lon="-4.67333">
        <ele>26.723</ele>
        <time>2016-04-29T21:22:42Z</time>
      </trkpt>
      <trkpt lat="48.06061" lon="-4.67301">
        <ele>22.808</ele>
        <time>2016-04-29T21:22:22Z</time>
      </trkpt>
      <trkpt lat="48.0602" lon="-4.67179">
        <ele>23.419</ele>
        <time>2016-04-29T21:22:02Z</time>
      </trkpt>
      <trkpt lat="48.06015" lon="-4.67125">
        <ele>21.49</ele>
        <time>2016-04-29T21:21:42Z</time>
      </trkpt>
      <trkpt lat="48.06036" lon="-4.67093">
        <ele>23.076</ele>
        <time>2016-04-29T21:21:22Z</time>
      </trkpt>
      <trkpt lat="48.06119" lon="-4.67138">
        <ele>18.162</ele>
        <time>2016-04-29T21:21:02Z</time>
      </trkpt>
      <trkpt lat="48.06154" lon="-4.67125">
        <ele>15.692</ele>
        <time>2016-04-29T21:20:42Z</time>
      </trkpt>
      <trkpt lat="48.062" lon="-4.66996">
        <ele>28.128</ele>
        <time>2016-04-29T21:20:22Z</time>
      </trkpt>
      <trkpt lat="48.0623" lon="-4.67007">
        <ele>25.514</ele>
        <time>2016-04-29T21:20:02Z</time>
      </trkpt>
      <trkpt lat="48.06246" lon="-4.67067">
        <ele>18.992</ele>
        <time>2016-04-29T21:19:42Z</time>
      </trkpt>
      <trkpt lat="48.06258" lon="-4.6705">
        <ele>25.575</ele>
        <time>2016-04-29T21:19:22Z</time>
      </trkpt>
      <trkpt lat="48.0628" lon="-4.67088">
        <ele>23.663</ele>
        <time>2016-04-29T21:19:02Z</time>
      </trkpt>
      <trkpt lat="48.06326" lon="-4.67076">
        <ele>39.117</ele>
        <time>2016-04-29T21:18:42Z</time>
      </trkpt>
      <trkpt lat="48.06365" lon="-4.67125">
        <ele>30.808</ele>
        <time>2016-04-29T21:18:22Z</time>
      </trkpt>
      <trkpt lat="48.06379" lon="-4.67127">
        <ele>29.205</ele>
        <time>2016-04-29T21:18:02Z</time>
      </trkpt>
      <trkpt lat="48.06395" lon="-4.6708">
        <ele>37.732</ele>
        <time>2016-04-29T21:17:42Z</time>
      </trkpt>
      <trkpt lat="48.06478" lon="-4.67003">
        <ele>45.312</ele>
        <time>2016-04-29T21:17:22Z</time>
      </trkpt>
      <trkpt lat="48.06551" lon="-4.66912">
        <ele>46.428</ele>
        <time>2016-04-29T21:17:02Z</time>
      </trkpt>
      <trkpt lat="48.06552" lon="-4.66839">
        <ele>60.738</ele>
        <time>2016-04-29T21:16:42Z</time>
      </trkpt>
      <trkpt lat="48.06574" lon="-4.66803">
        <ele>59.564</ele>
        <time>2016-04-29T21:16:22Z</time>
      </trkpt>
      <trkpt lat="48.06608" lon="-4.66805">
        <ele>53.55</ele>
        <time>2016-04-29T21:16:02Z</time>
      </trkpt>
      <trkpt lat="48.06633" lon="-4.66773">
        <ele>53.978</ele>
        <time>2016-04-29T21:15:42Z</time>
      </trkpt>
      <trkpt lat="48.06631" lon="-4.66732">
        <ele>58.331</ele>
        <time>2016-04-29T21:15:22Z</time>
      </trkpt>
      <trkpt lat="48.06671" lon="-4.66674">
        <ele>60.549</ele>
        <time>2016-04-29T21:15:02Z</time>
      </trkpt>
      <trkpt lat="48.06743" lon="-4.66704">
        <ele>57.723</ele>
        <time>2016-04-29T21:14:42Z</time>
      </trkpt>
      <trkpt lat="48.06782" lon="-4.66739">
        <ele>48.308</ele>
        <time>2016-04-29T21:14:22Z</time>
      </trkpt>
      <trkpt lat="48.06822" lon="-4.66709">
        <ele>62.714</ele>
        <time>2016-04-29T21:14:02Z</time>
      </trkpt>
      <trkpt lat="48.06852" lon="-4.66732">
        <ele>57.013</ele>
        <time>2016-04-29T21:13:42Z</time>
      </trkpt>
      <trkpt lat="48.06868" lon="-4.66779">
        <ele>40.472</ele>
        <time>2016-04-29T21:13:22Z</time>
      </trkpt>
      <trkpt lat="48.06935" lon="-4.66694">
        <ele>56.857</ele>
        <time>2016-04-29T21:13:02Z</time>
      </trkpt>
      <trkpt lat="48.0704" lon="-4.66679">
        <ele>47.287</ele>
        <time>2016-04-29T21:12:42Z</time>
      </trkpt>
      <trkpt lat="48.07053" lon="-4.66582">
        <ele>57.583</ele>
        <time>2020-12-18T19:34:43Z</time>
      </trkpt>
      <trkpt lat="48.071" lon="-4.66498">
        <ele>55.439</ele>
        <time>2016-04-29T21:12:02Z</time>
      </trkpt>
      <trkpt lat="48.07145" lon="-4.66466">
        <ele>47.157</ele>
        <time>2016-04-29T21:11:42Z</time>
      </trkpt>
      <trkpt lat="48.07146" lon="-4.66419">
        <ele>42.33</ele>
        <time>2016-04-29T21:11:22Z</time>
      </trkpt>
      <trkpt lat="48.07096" lon="-4.66412">
        <ele>50.878</ele>
        <time>2016-04-29T21:11:02Z</time>
      </trkpt>
      <trkpt lat="48.06976" lon="-4.66458">
        <ele>58.932</ele>
        <time>2020-12-18T19:33:03Z</time>
      </trkpt>
      <trkpt lat="48.06953" lon="-4.66406">
        <ele>52.608</ele>
        <time>2016-04-29T21:10:22Z</time>
      </trkpt>
      <trkpt lat="48.06895" lon="-4.66427">
        <ele>62.614</ele>
        <time>2016-04-29T21:10:02Z</time>
      </trkpt>
      <trkpt lat="48.06904" lon="-4.66385">
        <ele>53.968</ele>
        <time>2016-04-29T21:09:42Z</time>
      </trkpt>
      <trkpt lat="48.06877" lon="-4.66355">
        <ele>51.565</ele>
        <time>2016-04-29T21:09:22Z</time>
      </trkpt>
      <trkpt lat="48.06854" lon="-4.66346">
        <ele>52.178</ele>
        <time>2016-04-29T21:09:02Z</time>
      </trkpt>
      <trkpt lat="48.06785" lon="-4.66297">
        <ele>58.188</ele>
        <time>2016-04-29T21:08:42Z</time>
      </trkpt>
      <trkpt lat="48.06808" lon="-4.66052">
        <ele>55.794</ele>
        <time>2016-04-29T21:08:22Z</time>
      </trkpt>
      <trkpt lat="48.06858" lon="-4.6599">
        <ele>48.15</ele>
        <time>2016-04-29T21:08:02Z</time>
      </trkpt>
      <trkpt lat="48.06848" lon="-4.65962">
        <ele>52.338</ele>
        <time>2016-04-29T21:07:42Z</time>
      </trkpt>
      <trkpt lat="48.06848" lon="-4.65928">
        <ele>50.111</ele>
        <time>2016-04-29T21:07:22Z</time>
      </trkpt>
      <trkpt lat="48.06816" lon="-4.65902">
        <ele>55.669</ele>
        <time>2016-04-29T21:07:02Z</time>
      </trkpt>
      <trkpt lat="48.06816" lon="-4.65857">
        <ele>48.273</ele>
        <time>2016-04-29T21:06:42Z</time>
      </trkpt>
      <trkpt lat="48.06782" lon="-4.65818">
        <ele>54.208</ele>
        <time>2016-04-29T21:06:22Z</time>
      </trkpt>
      <trkpt lat="48.06758" lon="-4.65679">
        <ele>50.019</ele>
        <time>2016-04-29T21:06:02Z</time>
      </trkpt>
      <trkpt lat="48.06747" lon="-4.65659">
        <ele>50.69</ele>
        <time>2016-04-29T21:05:42Z</time>
      </trkpt>
      <trkpt lat="48.06756" lon="-4.65631">
        <ele>44.276</ele>
        <time>2016-04-29T21:05:22Z</time>
      </trkpt>
      <trkpt lat="48.06725" lon="-4.65599">
        <ele>48.626</ele>
        <time>2016-04-29T21:05:02Z</time>
      </trkpt>
      <trkpt lat="48.06716" lon="-4.65569">
        <ele>50.446</ele>
        <time>2016-04-29T21:04:42Z</time>
      </trkpt>
      <trkpt lat="48.06743" lon="-4.6555">
        <ele>46.742</ele>
        <time>2016-04-29T21:04:22Z</time>
      </trkpt>
      <trkpt lat="48.06752" lon="-4.65511">
        <ele>53.788</ele>
        <time>2016-04-29T21:04:02Z</time>
      </trkpt>
      <trkpt lat="48.06775" lon="-4.6547">
        <ele>57.196</ele>
        <time>2016-04-29T21:03:42Z</time>
      </trkpt>
      <trkpt lat="48.06834" lon="-4.65432">
        <ele>44.279</ele>
        <time>2016-04-29T21:03:22Z</time>
      </trkpt>
      <trkpt lat="48.06826" lon="-4.65348">
        <ele>55.747</ele>
        <time>2016-04-29T21:03:02Z</time>
      </trkpt>
      <trkpt lat="48.06823" lon="-4.65269">
        <ele>59.031</ele>
        <time>2016-04-29T21:02:42Z</time>
      </trkpt>
      <trkpt lat="48.06783" lon="-4.6511">
        <ele>70.508</ele>
        <time>2016-04-29T21:02:22Z</time>
      </trkpt>
      <trkpt lat="48.06795" lon="-4.65063">
        <ele>72.914</ele>
        <time>2016-04-29T21:02:02Z</time>
      </trkpt>
      <trkpt lat="48.06882" lon="-4.65061">
        <ele>60.259</ele>
        <time>2016-04-29T21:01:42Z</time>
      </trkpt>
      <trkpt lat="48.06889" lon="-4.65033">
        <ele>61.356</ele>
        <time>2016-04-29T21:01:22Z</time>
      </trkpt>
      <trkpt lat="48.06874" lon="-4.65018">
        <ele>66.166</ele>
        <time>2016-04-29T21:01:02Z</time>
      </trkpt>
      <trkpt lat="48.06855" lon="-4.64983">
        <ele>70.946</ele>
        <time>2016-04-29T21:00:42Z</time>
      </trkpt>
      <trkpt lat="48.06844" lon="-4.64895">
        <ele>68.132</ele>
        <time>2016-04-29T21:00:22Z</time>
      </trkpt>
      <trkpt lat="48.06846" lon="-4.64853">
        <ele>60.618</ele>
        <time>2016-04-29T21:00:02Z</time>
      </trkpt>
      <trkpt lat="48.06813" lon="-4.64807">
        <ele>66.266</ele>
        <time>2016-04-29T20:59:42Z</time>
      </trkpt>
      <trkpt lat="48.06809" lon="-4.64717">
        <ele>58.329</ele>
        <time>2016-04-29T20:59:22Z</time>
      </trkpt>
      <trkpt lat="48.06779" lon="-4.64625">
        <ele>49.937</ele>
        <time>2016-04-29T20:59:02Z</time>
      </trkpt>
      <trkpt lat="48.06737" lon="-4.64582">
        <ele>57.461</ele>
        <time>2016-04-29T20:58:42Z</time>
      </trkpt>
      <trkpt lat="48.06706" lon="-4.64503">
        <ele>53.608</ele>
        <time>2016-04-29T20:58:22Z</time>
      </trkpt>
      <trkpt lat="48.06683" lon="-4.64518">
        <ele>60.708</ele>
        <time>2016-04-29T20:58:02Z</time>
      </trkpt>
      <trkpt lat="48.0669" lon="-4.64486">
        <ele>57.253</ele>
        <time>2016-04-29T20:57:42Z</time>
      </trkpt>
      <trkpt lat="48.06673" lon="-4.64406">
        <ele>54.352</ele>
        <time>2016-04-29T20:57:22Z</time>
      </trkpt>
      <trkpt lat="48.06641" lon="-4.64335">
        <ele>59.183</ele>
        <time>2016-04-29T20:57:02Z</time>
      </trkpt>
      <trkpt lat="48.06634" lon="-4.64282">
        <ele>63.893</ele>
        <time>2016-04-29T20:56:42Z</time>
      </trkpt>
      <trkpt lat="48.06656" lon="-4.64241">
        <ele>57.839</ele>
        <time>2016-04-29T20:56:22Z</time>
      </trkpt>
      <trkpt lat="48.06646" lon="-4.64065">
        <ele>64.015</ele>
        <time>2016-04-29T20:56:02Z</time>
      </trkpt>
      <trkpt lat="48.06664" lon="-4.64007">
        <ele>66.333</ele>
        <time>2016-04-29T20:55:42Z</time>
      </trkpt>
      <trkpt lat="48.06696" lon="-4.63983">
        <ele>63.996</ele>
        <time>2016-04-29T20:55:22Z</time>
      </trkpt>
      <trkpt lat="48.06752" lon="-4.63898">
        <ele>57.424</ele>
        <time>2016-04-29T20:55:02Z</time>
      </trkpt>
      <trkpt lat="48.06749" lon="-4.63831">
        <ele>71.328</ele>
        <time>2016-04-29T20:54:42Z</time>
      </trkpt>
      <trkpt lat="48.06763" lon="-4.63689">
        <ele>66.908</ele>
        <time>2016-04-29T20:54:22Z</time>
      </trkpt>
      <trkpt lat="48.0673" lon="-4.63644">
        <ele>72.908</ele>
        <time>2016-04-29T20:54:02Z</time>
      </trkpt>
      <trkpt lat="48.06727" lon="-4.6352">
        <ele>68.126</ele>
        <time>2016-04-29T20:53:42Z</time>
      </trkpt>
      <trkpt lat="48.06706" lon="-4.63428">
        <ele>64.525</ele>
        <time>2016-04-29T20:53:22Z</time>
      </trkpt>
      <trkpt lat="48.06651" lon="-4.63353">
        <ele>68.642</ele>
        <time>2016-04-29T20:53:02Z</time>
      </trkpt>
      <trkpt lat="48.0665" lon="-4.6332">
        <ele>67.762</ele>
        <time>2016-04-29T20:52:42Z</time>
      </trkpt>
      <trkpt lat="48.0663" lon="-4.63261">
        <ele>70.298</ele>
        <time>2020-12-18T19:14:43Z</time>
      </trkpt>
      <trkpt lat="48.06615" lon="-4.63279">
        <ele>72.674</ele>
        <time>2020-12-18T19:14:23Z</time>
      </trkpt>
      <trkpt lat="48.06507" lon="-4.63205">
        <ele>75.882</ele>
        <time>2020-12-18T19:14:03Z</time>
      </trkpt>
      <trkpt lat="48.06474" lon="-4.63094">
        <ele>75.525</ele>
        <time>2020-12-18T19:13:43Z</time>
      </trkpt>
      <trkpt lat="48.06493" lon="-4.63029">
        <ele>76.283</ele>
        <time>2020-12-18T19:13:23Z</time>
      </trkpt>
      <trkpt lat="48.06528" lon="-4.63032">
        <ele>73.747</ele>
        <time>2020-12-18T19:13:03Z</time>
      </trkpt>
      <trkpt lat="48.06563" lon="-4.63005">
        <ele>68.208</ele>
        <time>2020-12-18T19:12:43Z</time>
      </trkpt>
      <trkpt lat="48.06568" lon="-4.62958">
        <ele>66.509</ele>
        <time>2016-04-29T20:50:42Z</time>
      </trkpt>
      <trkpt lat="48.06561" lon="-4.62898">
        <ele>68.254</ele>
        <time>2016-04-29T20:50:22Z</time>
      </trkpt>
      <trkpt lat="48.06595" lon="-4.62833">
        <ele>67.114</ele>
        <time>2016-04-29T20:50:02Z</time>
      </trkpt>
      <trkpt lat="48.06723" lon="-4.62851">
        <ele>60.387</ele>
        <time>2016-04-29T20:49:42Z</time>
      </trkpt>
      <trkpt lat="48.06789" lon="-4.6276">
        <ele>63.467</ele>
        <time>2016-04-29T20:49:22Z</time>
      </trkpt>
      <trkpt lat="48.06832" lon="-4.6276">
        <ele>63.613</ele>
        <time>2016-04-29T20:49:02Z</time>
      </trkpt>
      <trkpt lat="48.06845" lon="-4.62745">
        <ele>64.689</ele>
        <time>2016-04-29T20:48:42Z</time>
      </trkpt>
      <trkpt lat="48.07011" lon="-4.62754">
        <ele>67.387</ele>
        <time>2016-04-29T20:48:22Z</time>
      </trkpt>
      <trkpt lat="48.07029" lon="-4.62786">
        <ele>65.31</ele>
        <time>2016-04-29T20:48:02Z</time>
      </trkpt>
      <trkpt lat="48.07072" lon="-4.62808">
        <ele>61.298</ele>
        <time>2016-04-29T20:47:42Z</time>
      </trkpt>
      <trkpt lat="48.07079" lon="-4.62795">
        <ele>57.542</ele>
        <time>2016-04-29T20:47:22Z</time>
      </trkpt>
      <trkpt lat="48.07014" lon="-4.62651">
        <ele>59.908</ele>
        <time>2016-04-29T20:47:02Z</time>
      </trkpt>
      <trkpt lat="48.07016" lon="-4.62582">
        <ele>51.716</ele>
        <time>2016-04-29T20:46:42Z</time>
      </trkpt>
      <trkpt lat="48.06986" lon="-4.62494">
        <ele>53.006</ele>
        <time>2016-04-29T20:46:22Z</time>
      </trkpt>
      <trkpt lat="48.06975" lon="-4.62387">
        <ele>41.964</ele>
        <time>2016-04-29T20:46:02Z</time>
      </trkpt>
      <trkpt lat="48.06852" lon="-4.62222">
        <ele>20.297</ele>
        <time>2016-04-29T20:45:42Z</time>
      </trkpt>
      <trkpt lat="48.06683" lon="-4.62207">
        <ele>51.337</ele>
        <time>2016-04-29T20:45:22Z</time>
      </trkpt>
      <trkpt lat="48.06716" lon="-4.6217">
        <ele>47.883</ele>
        <time>2016-04-29T20:45:02Z</time>
      </trkpt>
      <trkpt lat="48.06719" lon="-4.62145">
        <ele>51.439</ele>
        <time>2016-04-29T20:44:42Z</time>
      </trkpt>
      <trkpt lat="48.06709" lon="-4.62104">
        <ele>56.917</ele>
        <time>2016-04-29T20:44:22Z</time>
      </trkpt>
      <trkpt lat="48.0672" lon="-4.61951">
        <ele>52.36</ele>
        <time>2016-04-29T20:44:02Z</time>
      </trkpt>
      <trkpt lat="48.06739" lon="-4.61934">
        <ele>52.248</ele>
        <time>2016-04-29T20:43:42Z</time>
      </trkpt>
      <trkpt lat="48.06829" lon="-4.6202">
        <ele>41.142</ele>
        <time>2016-04-29T20:43:22Z</time>
      </trkpt>
      <trkpt lat="48.06854" lon="-4.61973">
        <ele>52.208</ele>
        <time>2016-04-29T20:43:02Z</time>
      </trkpt>
      <trkpt lat="48.06852" lon="-4.61934">
        <ele>58.026</ele>
        <time>2016-04-29T20:42:42Z</time>
      </trkpt>
      <trkpt lat="48.06872" lon="-4.61885">
        <ele>58.742</ele>
        <time>2016-04-29T20:42:22Z</time>
      </trkpt>
      <trkpt lat="48.06918" lon="-4.61816">
        <ele>59.868</ele>
        <time>2016-04-29T20:42:02Z</time>
      </trkpt>
      <trkpt lat="48.06951" lon="-4.61788">
        <ele>54.729</ele>
        <time>2016-04-29T20:41:42Z</time>
      </trkpt>
      <trkpt lat="48.06955" lon="-4.61756">
        <ele>54.419</ele>
        <time>2016-04-29T20:41:22Z</time>
      </trkpt>
      <trkpt lat="48.06942" lon="-4.61703">
        <ele>61.615</ele>
        <time>2016-04-29T20:41:02Z</time>
      </trkpt>
      <trkpt lat="48.06951" lon="-4.61675">
        <ele>59.381</ele>
        <time>2016-04-29T20:40:42Z</time>
      </trkpt>
      <trkpt lat="48.06948" lon="-4.61632">
        <ele>63.249</ele>
        <time>2016-04-29T20:40:22Z</time>
      </trkpt>
      <trkpt lat="48.06958" lon="-4.61591">
        <ele>62.152</ele>
        <time>2016-04-29T20:40:02Z</time>
      </trkpt>
      <trkpt lat="48.06872" lon="-4.61548">
        <ele>65.17</ele>
        <time>2016-04-29T20:39:42Z</time>
      </trkpt>
      <trkpt lat="48.06988" lon="-4.61155">
        <ele>69.494</ele>
        <time>2016-04-29T20:39:22Z</time>
      </trkpt>
      <trkpt lat="48.07041" lon="-4.61012">
        <ele>67.908</ele>
        <time>2016-04-29T20:39:02Z</time>
      </trkpt>
      <trkpt lat="48.07122" lon="-4.60864">
        <ele>46.726</ele>
        <time>2016-04-29T20:38:42Z</time>
      </trkpt>
      <trkpt lat="48.07176" lon="-4.60876">
        <ele>40.642</ele>
        <time>2016-04-29T20:38:22Z</time>
      </trkpt>
      <trkpt lat="48.07166" lon="-4.60842">
        <ele>37.387</ele>
        <time>2016-04-29T20:38:02Z</time>
      </trkpt>
      <trkpt lat="48.07176" lon="-4.60823">
        <ele>34.075</ele>
        <time>2016-04-29T20:37:42Z</time>
      </trkpt>
      <trkpt lat="48.07216" lon="-4.60818">
        <ele>28.495</ele>
        <time>2016-04-29T20:37:22Z</time>
      </trkpt>
      <trkpt lat="48.07197" lon="-4.60771">
        <ele>34.661</ele>
        <time>2020-12-18T18:58:43Z</time>
      </trkpt>
      <trkpt lat="48.07231" lon="-4.60761">
        <ele>37.217</ele>
        <time>2016-04-29T20:37:02Z</time>
      </trkpt>
      <trkpt lat="48.07272" lon="-4.60741">
        <ele>39.465</ele>
        <time>2016-04-29T20:36:42Z</time>
      </trkpt>
      <trkpt lat="48.07341" lon="-4.60677">
        <ele>39.818</ele>
        <time>2016-04-29T20:36:22Z</time>
      </trkpt>
      <trkpt lat="48.07353" lon="-4.60625">
        <ele>46.676</ele>
        <time>2016-04-29T20:36:02Z</time>
      </trkpt>
      <trkpt lat="48.07384" lon="-4.6058">
        <ele>44.75</ele>
        <time>2016-04-29T20:35:42Z</time>
      </trkpt>
      <trkpt lat="48.07358" lon="-4.60469">
        <ele>63.808</ele>
        <time>2016-04-29T20:35:22Z</time>
      </trkpt>
      <trkpt lat="48.07386" lon="-4.60402">
        <ele>63.515</ele>
        <time>2016-04-29T20:35:02Z</time>
      </trkpt>
      <trkpt lat="48.07456" lon="-4.60346">
        <ele>69.005</ele>
        <time>2016-04-29T20:34:42Z</time>
      </trkpt>
      <trkpt lat="48.07438" lon="-4.60284">
        <ele>76.244</ele>
        <time>2020-12-18T18:55:43Z</time>
      </trkpt>
      <trkpt lat="48.07427" lon="-4.60168">
        <ele>74.354</ele>
        <time>2016-04-29T20:34:22Z</time>
      </trkpt>
      <trkpt lat="48.07469" lon="-4.60028">
        <ele>55.624</ele>
        <time>2020-12-18T18:55:03Z</time>
      </trkpt>
      <trkpt lat="48.07408" lon="-4.59968">
        <ele>60.31</ele>
        <time>2020-12-18T18:54:43Z</time>
      </trkpt>
      <trkpt lat="48.07373" lon="-4.59866">
        <ele>63.386</ele>
        <time>2020-12-18T18:54:23Z</time>
      </trkpt>
      <trkpt lat="48.07379" lon="-4.59829">
        <ele>64.554</ele>
        <time>2020-12-18T18:54:03Z</time>
      </trkpt>
      <trkpt lat="48.07372" lon="-4.59797">
        <ele>67.637</ele>
        <time>2020-12-18T18:53:43Z</time>
      </trkpt>
      <trkpt lat="48.07393" lon="-4.59692">
        <ele>70.915</ele>
        <time>2020-12-18T18:53:23Z</time>
      </trkpt>
      <trkpt lat="48.07361" lon="-4.59651">
        <ele>72.099</ele>
        <time>2016-04-29T20:32:42Z</time>
      </trkpt>
      <trkpt lat="48.07384" lon="-4.59537">
        <ele>69.908</ele>
        <time>2016-04-29T20:32:22Z</time>
      </trkpt>
      <trkpt lat="48.0734" lon="-4.59497">
        <ele>70.707</ele>
        <time>2016-04-29T20:32:02Z</time>
      </trkpt>
      <trkpt lat="48.07335" lon="-4.59331">
        <ele>61.561</ele>
        <time>2016-04-29T20:31:42Z</time>
      </trkpt>
      <trkpt lat="48.0735" lon="-4.59224">
        <ele>49.131</ele>
        <time>2016-04-29T20:31:22Z</time>
      </trkpt>
      <trkpt lat="48.0732" lon="-4.59203">
        <ele>54.617</ele>
        <time>2016-04-29T20:31:02Z</time>
      </trkpt>
      <trkpt lat="48.07321" lon="-4.59173">
        <ele>51.767</ele>
        <time>2016-04-29T20:30:42Z</time>
      </trkpt>
      <trkpt lat="48.07251" lon="-4.5902">
        <ele>59.773</ele>
        <time>2016-04-29T20:30:22Z</time>
      </trkpt>
      <trkpt lat="48.07264" lon="-4.59005">
        <ele>58.639</ele>
        <time>2016-04-29T20:30:02Z</time>
      </trkpt>
      <trkpt lat="48.07288" lon="-4.59016">
        <ele>57.747</ele>
        <time>2016-04-29T20:29:42Z</time>
      </trkpt>
      <trkpt lat="48.07291" lon="-4.59001">
        <ele>58.45</ele>
        <time>2016-04-29T20:29:22Z</time>
      </trkpt>
      <trkpt lat="48.07267" lon="-4.58945">
        <ele>61.558</ele>
        <time>2016-04-29T20:29:02Z</time>
      </trkpt>
      <trkpt lat="48.07394" lon="-4.58945">
        <ele>63.812</ele>
        <time>2016-04-29T20:28:42Z</time>
      </trkpt>
      <trkpt lat="48.07521" lon="-4.58912">
        <ele>66.208</ele>
        <time>2020-12-18T18:48:43Z</time>
      </trkpt>
      <trkpt lat="48.07585" lon="-4.5884">
        <ele>67.724</ele>
        <time>2016-04-29T20:28:02Z</time>
      </trkpt>
      <trkpt lat="48.07667" lon="-4.5869">
        <ele>63.204</ele>
        <time>2016-04-29T20:27:42Z</time>
      </trkpt>
      <trkpt lat="48.07768" lon="-4.58467">
        <ele>62.169</ele>
        <time>2016-04-29T20:27:22Z</time>
      </trkpt>
      <trkpt lat="48.07847" lon="-4.58411">
        <ele>56.487</ele>
        <time>2016-04-29T20:27:02Z</time>
      </trkpt>
      <trkpt lat="48.07892" lon="-4.58344">
        <ele>46.927</ele>
        <time>2016-04-29T20:26:42Z</time>
      </trkpt>
      <trkpt lat="48.0794" lon="-4.58344">
        <ele>35.083</ele>
        <time>2020-12-18T18:46:43Z</time>
      </trkpt>
      <trkpt lat="48.07938" lon="-4.58321">
        <ele>32.949</ele>
        <time>2020-12-18T18:46:23Z</time>
      </trkpt>
      <trkpt lat="48.07965" lon="-4.58312">
        <ele>26.247</ele>
        <time>2020-12-18T18:46:03Z</time>
      </trkpt>
      <trkpt lat="48.0793" lon="-4.58265">
        <ele>36.98</ele>
        <time>2020-12-18T18:45:43Z</time>
      </trkpt>
      <trkpt lat="48.07996" lon="-4.58203">
        <ele>34.858</ele>
        <time>2016-04-29T20:25:22Z</time>
      </trkpt>
      <trkpt lat="48.08003" lon="-4.58164">
        <ele>41.652</ele>
        <time>2016-04-29T20:25:02Z</time>
      </trkpt>
      <trkpt lat="48.08041" lon="-4.58149">
        <ele>37.408</ele>
        <time>2016-04-29T20:24:42Z</time>
      </trkpt>
      <trkpt lat="48.08108" lon="-4.5816">
        <ele>26.213</ele>
        <time>2016-04-29T20:24:22Z</time>
      </trkpt>
      <trkpt lat="48.08157" lon="-4.58196">
        <ele>3.821</ele>
        <time>2016-04-29T20:24:02Z</time>
      </trkpt>
      <trkpt lat="48.08173" lon="-4.58031">
        <ele>0.061</ele>
        <time>2016-04-29T20:23:42Z</time>
      </trkpt>
      <trkpt lat="48.08145" lon="-4.57952">
        <ele>0.022</ele>
        <time>2016-04-29T20:23:22Z</time>
      </trkpt>
      <trkpt lat="48.08108" lon="-4.57926">
        <ele>41.852</ele>
        <time>2016-04-29T20:23:02Z</time>
      </trkpt>
      <trkpt lat="48.08062" lon="-4.57793">
        <ele>54.228</ele>
        <time>2016-04-29T20:22:42Z</time>
      </trkpt>
      <trkpt lat="48.08107" lon="-4.57716">
        <ele>44.354</ele>
        <time>2016-04-29T20:22:22Z</time>
      </trkpt>
      <trkpt lat="48.08097" lon="-4.57626">
        <ele>50.062</ele>
        <time>2016-04-29T20:22:02Z</time>
      </trkpt>
      <trkpt lat="48.08072" lon="-4.57555">
        <ele>51.425</ele>
        <time>2016-04-29T20:21:42Z</time>
      </trkpt>
      <trkpt lat="48.08144" lon="-4.57544">
        <ele>30.263</ele>
        <time>2016-04-29T20:21:22Z</time>
      </trkpt>
      <trkpt lat="48.08157" lon="-4.5743">
        <ele>27.517</ele>
        <time>2016-04-29T20:21:02Z</time>
      </trkpt>
      <trkpt lat="48.08161" lon="-4.57377">
        <ele>21.208</ele>
        <time>2016-04-29T20:20:42Z</time>
      </trkpt>
      <trkpt lat="48.08177" lon="-4.57338">
        <ele>9.607</ele>
        <time>2016-04-29T20:20:22Z</time>
      </trkpt>
      <trkpt lat="48.08151" lon="-4.57317">
        <ele>14.843</ele>
        <time>2016-04-29T20:20:02Z</time>
      </trkpt>
      <trkpt lat="48.08135" lon="-4.57334">
        <ele>24.113</ele>
        <time>2016-04-29T20:19:42Z</time>
      </trkpt>
      <trkpt lat="48.08112" lon="-4.57325">
        <ele>28.983</ele>
        <time>2016-04-29T20:19:22Z</time>
      </trkpt>
      <trkpt lat="48.08082" lon="-4.5728">
        <ele>32.013</ele>
        <time>2016-04-29T20:19:02Z</time>
      </trkpt>
      <trkpt lat="48.08039" lon="-4.57267">
        <ele>48.219</ele>
        <time>2016-04-29T20:18:42Z</time>
      </trkpt>
      <trkpt lat="48.08006" lon="-4.57214">
        <ele>52.995</ele>
        <time>2016-04-29T20:18:22Z</time>
      </trkpt>
      <trkpt lat="48.08062" lon="-4.57164">
        <ele>45.353</ele>
        <time>2016-04-29T20:18:02Z</time>
      </trkpt>
      <trkpt lat="48.08044" lon="-4.57126">
        <ele>56.516</ele>
        <time>2020-12-18T18:37:43Z</time>
      </trkpt>
      <trkpt lat="48.08092" lon="-4.57005">
        <ele>56.784</ele>
        <time>2016-04-29T20:17:22Z</time>
      </trkpt>
      <trkpt lat="48.08084" lon="-4.56958">
        <ele>61.978</ele>
        <time>2016-04-29T20:17:02Z</time>
      </trkpt>
      <trkpt lat="48.08089" lon="-4.56922">
        <ele>64.108</ele>
        <time>2016-04-29T20:16:42Z</time>
      </trkpt>
      <trkpt lat="48.0813" lon="-4.569">
        <ele>52.314</ele>
        <time>2016-04-29T20:16:22Z</time>
      </trkpt>
      <trkpt lat="48.08161" lon="-4.56827">
        <ele>43.004</ele>
        <time>2016-04-29T20:16:02Z</time>
      </trkpt>
      <trkpt lat="48.08163" lon="-4.56772">
        <ele>38.224</ele>
        <time>2016-04-29T20:15:42Z</time>
      </trkpt>
      <trkpt lat="48.08137" lon="-4.56749">
        <ele>44.269</ele>
        <time>2020-12-18T18:35:23Z</time>
      </trkpt>
      <trkpt lat="48.08148" lon="-4.56719">
        <ele>30.919</ele>
        <time>2020-12-18T18:35:03Z</time>
      </trkpt>
      <trkpt lat="48.08088" lon="-4.56735">
        <ele>55.255</ele>
        <time>2016-04-29T20:15:02Z</time>
      </trkpt>
      <trkpt lat="48.08045" lon="-4.56677">
        <ele>54.331</ele>
        <time>2016-04-29T20:14:42Z</time>
      </trkpt>
      <trkpt lat="48.08002" lon="-4.56639">
        <ele>59.179</ele>
        <time>2016-04-29T20:14:22Z</time>
      </trkpt>
      <trkpt lat="48.0797" lon="-4.56593">
        <ele>61.742</ele>
        <time>2016-04-29T20:14:02Z</time>
      </trkpt>
      <trkpt lat="48.07946" lon="-4.56518">
        <ele>63.01</ele>
        <time>2016-04-29T20:13:42Z</time>
      </trkpt>
      <trkpt lat="48.07956" lon="-4.56381">
        <ele>55.044</ele>
        <time>2016-04-29T20:13:22Z</time>
      </trkpt>
      <trkpt lat="48.07937" lon="-4.56364">
        <ele>64.308</ele>
        <time>2016-04-29T20:13:02Z</time>
      </trkpt>
      <trkpt lat="48.0791" lon="-4.56287">
        <ele>66.026</ele>
        <time>2016-04-29T20:12:42Z</time>
      </trkpt>
      <trkpt lat="48.07884" lon="-4.56261">
        <ele>65.906</ele>
        <time>2016-04-29T20:12:22Z</time>
      </trkpt>
      <trkpt lat="48.07872" lon="-4.56231">
        <ele>60.889</ele>
        <time>2016-04-29T20:12:02Z</time>
      </trkpt>
      <trkpt lat="48.07829" lon="-4.56218">
        <ele>63.662</ele>
        <time>2016-04-29T20:11:42Z</time>
      </trkpt>
      <trkpt lat="48.07797" lon="-4.56115">
        <ele>51.242</ele>
        <time>2016-04-29T20:11:22Z</time>
      </trkpt>
      <trkpt lat="48.07753" lon="-4.56014">
        <ele>42.038</ele>
        <time>2016-04-29T20:11:02Z</time>
      </trkpt>
      <trkpt lat="48.07712" lon="-4.55995">
        <ele>49.264</ele>
        <time>2016-04-29T20:10:42Z</time>
      </trkpt>
      <trkpt lat="48.07747" lon="-4.55935">
        <ele>37.842</ele>
        <time>2016-04-29T20:10:22Z</time>
      </trkpt>
      <trkpt lat="48.07743" lon="-4.55911">
        <ele>38.925</ele>
        <time>2016-04-29T20:10:02Z</time>
      </trkpt>
      <trkpt lat="48.07753" lon="-4.55862">
        <ele>34.543</ele>
        <time>2016-04-29T20:09:42Z</time>
      </trkpt>
      <trkpt lat="48.07745" lon="-4.55795">
        <ele>35.597</ele>
        <time>2016-04-29T20:09:22Z</time>
      </trkpt>
      <trkpt lat="48.07725" lon="-4.55763">
        <ele>41.208</ele>
        <time>2016-04-29T20:09:02Z</time>
      </trkpt>
      <trkpt lat="48.0776" lon="-4.55716">
        <ele>36.413</ele>
        <time>2016-04-29T20:08:42Z</time>
      </trkpt>
      <trkpt lat="48.07804" lon="-4.55701">
        <ele>23.876</ele>
        <time>2016-04-29T20:08:22Z</time>
      </trkpt>
      <trkpt lat="48.07833" lon="-4.55731">
        <ele>7.516</ele>
        <time>2016-04-29T20:08:02Z</time>
      </trkpt>
      <trkpt lat="48.07846" lon="-4.55727">
        <ele>6.07</ele>
        <time>2016-04-29T20:07:42Z</time>
      </trkpt>
      <trkpt lat="48.07827" lon="-4.55662">
        <ele>16.36</ele>
        <time>2016-04-29T20:07:22Z</time>
      </trkpt>
      <trkpt lat="48.07834" lon="-4.55594">
        <ele>11.546</ele>
        <time>2016-04-29T20:07:02Z</time>
      </trkpt>
      <trkpt lat="48.07765" lon="-4.55463">
        <ele>9.672</ele>
        <time>2016-04-29T20:06:42Z</time>
      </trkpt>
      <trkpt lat="48.07743" lon="-4.55499">
        <ele>22.01</ele>
        <time>2016-04-29T20:06:22Z</time>
      </trkpt>
      <trkpt lat="48.07697" lon="-4.55413">
        <ele>24.423</ele>
        <time>2016-04-29T20:06:02Z</time>
      </trkpt>
      <trkpt lat="48.07697" lon="-4.55373">
        <ele>16.181</ele>
        <time>2016-04-29T20:05:42Z</time>
      </trkpt>
      <trkpt lat="48.07668" lon="-4.55302">
        <ele>10.285</ele>
        <time>2016-04-29T20:05:22Z</time>
      </trkpt>
      <trkpt lat="48.07629" lon="-4.55276">
        <ele>14.708</ele>
        <time>2016-04-29T20:05:02Z</time>
      </trkpt>
      <trkpt lat="48.07595" lon="-4.55224">
        <ele>9.624</ele>
        <time>2016-04-29T20:04:42Z</time>
      </trkpt>
      <trkpt lat="48.0757" lon="-4.55207">
        <ele>12.931</ele>
        <time>2016-04-29T20:04:22Z</time>
      </trkpt>
      <trkpt lat="48.07573" lon="-4.55186">
        <ele>13.996</ele>
        <time>2016-04-29T20:04:02Z</time>
      </trkpt>
      <trkpt lat="48.07598" lon="-4.55173">
        <ele>13.463</ele>
        <time>2016-04-29T20:03:42Z</time>
      </trkpt>
      <trkpt lat="48.07621" lon="-4.55111">
        <ele>27.753</ele>
        <time>2016-04-29T20:03:22Z</time>
      </trkpt>
      <trkpt lat="48.07652" lon="-4.55111">
        <ele>22.239</ele>
        <time>2016-04-29T20:03:02Z</time>
      </trkpt>
      <trkpt lat="48.07712" lon="-4.54999">
        <ele>32.075</ele>
        <time>2016-04-29T20:02:42Z</time>
      </trkpt>
      <trkpt lat="48.07698" lon="-4.54948">
        <ele>40.743</ele>
        <time>2016-04-29T20:02:22Z</time>
      </trkpt>
      <trkpt lat="48.07704" lon="-4.54873">
        <ele>31.126</ele>
        <time>2016-04-29T20:02:02Z</time>
      </trkpt>
      <trkpt lat="48.0775" lon="-4.54834">
        <ele>18.114</ele>
        <time>2016-04-29T20:01:42Z</time>
      </trkpt>
      <trkpt lat="48.07717" lon="-4.54626">
        <ele>46.338</ele>
        <time>2016-04-29T20:01:22Z</time>
      </trkpt>
      <trkpt lat="48.0774" lon="-4.54553">
        <ele>48.908</ele>
        <time>2016-04-29T20:01:02Z</time>
      </trkpt>
      <trkpt lat="48.07763" lon="-4.54546">
        <ele>43.614</ele>
        <time>2016-04-29T20:00:42Z</time>
      </trkpt>
      <trkpt lat="48.07783" lon="-4.54561">
        <ele>34.068</ele>
        <time>2016-04-29T20:00:22Z</time>
      </trkpt>
      <trkpt lat="48.07833" lon="-4.5457">
        <ele>18.527</ele>
        <time>2016-04-29T20:00:02Z</time>
      </trkpt>
      <trkpt lat="48.07826" lon="-4.54518">
        <ele>31.514</ele>
        <time>2016-04-29T19:59:42Z</time>
      </trkpt>
      <trkpt lat="48.07834" lon="-4.54471">
        <ele>37.834</ele>
        <time>2016-04-29T19:59:22Z</time>
      </trkpt>
      <trkpt lat="48.07876" lon="-4.54443">
        <ele>33.79</ele>
        <time>2016-04-29T19:59:02Z</time>
      </trkpt>
      <trkpt lat="48.07946" lon="-4.54531">
        <ele>21.656</ele>
        <time>2016-04-29T19:58:42Z</time>
      </trkpt>
      <trkpt lat="48.08016" lon="-4.54559">
        <ele>23.144</ele>
        <time>2016-04-29T19:58:22Z</time>
      </trkpt>
      <trkpt lat="48.08067" lon="-4.54424">
        <ele>44.397</ele>
        <time>2016-04-29T19:58:02Z</time>
      </trkpt>
      <trkpt lat="48.08102" lon="-4.54435">
        <ele>26.575</ele>
        <time>2016-04-29T19:57:42Z</time>
      </trkpt>
      <trkpt lat="48.08102" lon="-4.54282">
        <ele>33.389</ele>
        <time>2016-04-29T19:57:22Z</time>
      </trkpt>
      <trkpt lat="48.08084" lon="-4.54229">
        <ele>38.308</ele>
        <time>2016-04-29T19:57:02Z</time>
      </trkpt>
      <trkpt lat="48.0811" lon="-4.54113">
        <ele>24.618</ele>
        <time>2016-04-29T19:56:42Z</time>
      </trkpt>
      <trkpt lat="48.08091" lon="-4.54031">
        <ele>26.817</ele>
        <time>2016-04-29T19:56:22Z</time>
      </trkpt>
      <trkpt lat="48.08098" lon="-4.54004">
        <ele>28.136</ele>
        <time>2016-04-29T19:56:02Z</time>
      </trkpt>
      <trkpt lat="48.08158" lon="-4.54061">
        <ele>19.259</ele>
        <time>2016-04-29T19:55:42Z</time>
      </trkpt>
      <trkpt lat="48.08173" lon="-4.54085">
        <ele>16.669</ele>
        <time>2016-04-29T19:55:22Z</time>
      </trkpt>
      <trkpt lat="48.08256" lon="-4.54107">
        <ele>23.435</ele>
        <time>2016-04-29T19:55:02Z</time>
      </trkpt>
      <trkpt lat="48.0829" lon="-4.54094">
        <ele>30.871</ele>
        <time>2016-04-29T19:54:42Z</time>
      </trkpt>
      <trkpt lat="48.08329" lon="-4.54104">
        <ele>23.499</ele>
        <time>2016-04-29T19:54:22Z</time>
      </trkpt>
      <trkpt lat="48.08333" lon="-4.54025">
        <ele>42.142</ele>
        <time>2016-04-29T19:54:02Z</time>
      </trkpt>
      <trkpt lat="48.08353" lon="-4.53971">
        <ele>42.39</ele>
        <time>2016-04-29T19:53:42Z</time>
      </trkpt>
      <trkpt lat="48.08432" lon="-4.53935">
        <ele>37.984</ele>
        <time>2016-04-29T19:53:22Z</time>
      </trkpt>
      <trkpt lat="48.08482" lon="-4.53946">
        <ele>35.208</ele>
        <time>2016-04-29T19:53:02Z</time>
      </trkpt>
      <trkpt lat="48.08508" lon="-4.53969">
        <ele>24.617</ele>
        <time>2016-04-29T19:52:42Z</time>
      </trkpt>
      <trkpt lat="48.0852" lon="-4.53946">
        <ele>27.925</ele>
        <time>2016-04-29T19:52:22Z</time>
      </trkpt>
      <trkpt lat="48.08515" lon="-4.53873">
        <ele>41.783</ele>
        <time>2016-04-29T19:52:02Z</time>
      </trkpt>
      <trkpt lat="48.08531" lon="-4.53843">
        <ele>42.887</ele>
        <time>2016-04-29T19:51:42Z</time>
      </trkpt>
      <trkpt lat="48.08561" lon="-4.53853">
        <ele>42.067</ele>
        <time>2016-04-29T19:51:22Z</time>
      </trkpt>
      <trkpt lat="48.086" lon="-4.53943">
        <ele>18.593</ele>
        <time>2016-04-29T19:51:02Z</time>
      </trkpt>
      <trkpt lat="48.08643" lon="-4.53946">
        <ele>18.989</ele>
        <time>2016-04-29T19:50:42Z</time>
      </trkpt>
      <trkpt lat="48.08676" lon="-4.53913">
        <ele>31.127</ele>
        <time>2016-04-29T19:50:22Z</time>
      </trkpt>
      <trkpt lat="48.08737" lon="-4.53911">
        <ele>22.02</ele>
        <time>2016-04-29T19:50:02Z</time>
      </trkpt>
      <trkpt lat="48.08759" lon="-4.53804">
        <ele>41.068</ele>
        <time>2016-04-29T19:49:42Z</time>
      </trkpt>
      <trkpt lat="48.08799" lon="-4.53725">
        <ele>35.952</ele>
        <time>2016-04-29T19:49:22Z</time>
      </trkpt>
      <trkpt lat="48.088" lon="-4.53626">
        <ele>47.208</ele>
        <time>2016-04-29T19:49:02Z</time>
      </trkpt>
      <trkpt lat="48.08846" lon="-4.53523">
        <ele>35.218</ele>
        <time>2016-04-29T19:48:42Z</time>
      </trkpt>
      <trkpt lat="48.08815" lon="-4.5333">
        <ele>25.044</ele>
        <time>2016-04-29T19:48:22Z</time>
      </trkpt>
      <trkpt lat="48.08785" lon="-4.53306">
        <ele>24.263</ele>
        <time>2016-04-29T19:48:02Z</time>
      </trkpt>
      <trkpt lat="48.08699" lon="-4.53336">
        <ele>44.633</ele>
        <time>2016-04-29T19:47:42Z</time>
      </trkpt>
      <trkpt lat="48.08659" lon="-4.53304">
        <ele>43.663</ele>
        <time>2016-04-29T19:47:22Z</time>
      </trkpt>
      <trkpt lat="48.0862" lon="-4.53109">
        <ele>21.929</ele>
        <time>2016-04-29T19:47:02Z</time>
      </trkpt>
      <trkpt lat="48.08631" lon="-4.53031">
        <ele>23.645</ele>
        <time>2016-04-29T19:46:42Z</time>
      </trkpt>
      <trkpt lat="48.08694" lon="-4.52995">
        <ele>12.083</ele>
        <time>2016-04-29T19:46:22Z</time>
      </trkpt>
      <trkpt lat="48.08644" lon="-4.52875">
        <ele>16.716</ele>
        <time>2016-04-29T19:46:02Z</time>
      </trkpt>
      <trkpt lat="48.08577" lon="-4.5284">
        <ele>24.184</ele>
        <time>2016-04-29T19:45:42Z</time>
      </trkpt>
      <trkpt lat="48.08547" lon="-4.52802">
        <ele>23.798</ele>
        <time>2016-04-29T19:45:22Z</time>
      </trkpt>
      <trkpt lat="48.08507" lon="-4.52802">
        <ele>34.508</ele>
        <time>2016-04-29T19:45:02Z</time>
      </trkpt>
      <trkpt lat="48.08501" lon="-4.52778">
        <ele>33.914</ele>
        <time>2016-04-29T19:44:42Z</time>
      </trkpt>
      <trkpt lat="48.08548" lon="-4.52744">
        <ele>19.468</ele>
        <time>2016-04-29T19:44:22Z</time>
      </trkpt>
      <trkpt lat="48.08497" lon="-4.52637">
        <ele>38.427</ele>
        <time>2016-04-29T19:44:02Z</time>
      </trkpt>
      <trkpt lat="48.08491" lon="-4.52577">
        <ele>37.463</ele>
        <time>2016-04-29T19:43:42Z</time>
      </trkpt>
      <trkpt lat="48.08573" lon="-4.52435">
        <ele>39.443</ele>
        <time>2016-04-29T19:43:22Z</time>
      </trkpt>
      <trkpt lat="48.08597" lon="-4.52437">
        <ele>33.019</ele>
        <time>2016-04-29T19:43:02Z</time>
      </trkpt>
      <trkpt lat="48.08611" lon="-4.52411">
        <ele>28.435</ele>
        <time>2016-04-29T19:42:42Z</time>
      </trkpt>
      <trkpt lat="48.08563" lon="-4.52403">
        <ele>42.973</ele>
        <time>2016-04-29T19:42:22Z</time>
      </trkpt>
      <trkpt lat="48.08512" lon="-4.52328">
        <ele>45.946</ele>
        <time>2016-04-29T19:42:02Z</time>
      </trkpt>
      <trkpt lat="48.08517" lon="-4.52274">
        <ele>48.874</ele>
        <time>2016-04-29T19:41:42Z</time>
      </trkpt>
      <trkpt lat="48.08571" lon="-4.52235">
        <ele>31.418</ele>
        <time>2016-04-29T19:41:22Z</time>
      </trkpt>
      <trkpt lat="48.08611" lon="-4.52186">
        <ele>25.108</ele>
        <time>2016-04-29T19:41:02Z</time>
      </trkpt>
      <trkpt lat="48.08621" lon="-4.52126">
        <ele>37.214</ele>
        <time>2016-04-29T19:40:42Z</time>
      </trkpt>
      <trkpt lat="48.08684" lon="-4.52019">
        <ele>43.268</ele>
        <time>2016-04-29T19:40:22Z</time>
      </trkpt>
      <trkpt lat="48.08714" lon="-4.52019">
        <ele>38.027</ele>
        <time>2016-04-29T19:40:02Z</time>
      </trkpt>
      <trkpt lat="48.0874" lon="-4.5204">
        <ele>30.164</ele>
        <time>2016-04-29T19:39:42Z</time>
      </trkpt>
      <trkpt lat="48.08796" lon="-4.52038">
        <ele>23.474</ele>
        <time>2016-04-29T19:39:22Z</time>
      </trkpt>
      <trkpt lat="48.08819" lon="-4.52008">
        <ele>24.95</ele>
        <time>2016-04-29T19:39:02Z</time>
      </trkpt>
      <trkpt lat="48.08782" lon="-4.51984">
        <ele>28.826</ele>
        <time>2016-04-29T19:38:42Z</time>
      </trkpt>
      <trkpt lat="48.08767" lon="-4.51954">
        <ele>32.744</ele>
        <time>2016-04-29T19:38:22Z</time>
      </trkpt>
      <trkpt lat="48.08785" lon="-4.51832">
        <ele>25.657</ele>
        <time>2016-04-29T19:38:02Z</time>
      </trkpt>
      <trkpt lat="48.08772" lon="-4.51757">
        <ele>30.295</ele>
        <time>2016-04-29T19:37:42Z</time>
      </trkpt>
      <trkpt lat="48.0879" lon="-4.51693">
        <ele>23.759</ele>
        <time>2016-04-29T19:37:22Z</time>
      </trkpt>
      <trkpt lat="48.08765" lon="-4.51583">
        <ele>31.408</ele>
        <time>2016-04-29T19:37:02Z</time>
      </trkpt>
      <trkpt lat="48.08767" lon="-4.51562">
        <ele>33.411</ele>
        <time>2016-04-29T19:36:42Z</time>
      </trkpt>
      <trkpt lat="48.08856" lon="-4.51613">
        <ele>12.592</ele>
        <time>2016-04-29T19:36:22Z</time>
      </trkpt>
      <trkpt lat="48.08846" lon="-4.51562">
        <ele>23.032</ele>
        <time>2016-04-29T19:36:02Z</time>
      </trkpt>
      <trkpt lat="48.08869" lon="-4.51519">
        <ele>19.42</ele>
        <time>2016-04-29T19:35:42Z</time>
      </trkpt>
      <trkpt lat="48.08829" lon="-4.51461">
        <ele>39.25</ele>
        <time>2016-04-29T19:35:22Z</time>
      </trkpt>
      <trkpt lat="48.08833" lon="-4.51338">
        <ele>42.616</ele>
        <time>2016-04-29T19:35:02Z</time>
      </trkpt>
      <trkpt lat="48.08874" lon="-4.51278">
        <ele>34.082</ele>
        <time>2016-04-29T19:34:42Z</time>
      </trkpt>
      <trkpt lat="48.08901" lon="-4.5127">
        <ele>22.85</ele>
        <time>2016-04-29T19:34:22Z</time>
      </trkpt>
      <trkpt lat="48.08895" lon="-4.51156">
        <ele>35.763</ele>
        <time>2016-04-29T19:34:02Z</time>
      </trkpt>
      <trkpt lat="48.08915" lon="-4.51143">
        <ele>26.361</ele>
        <time>2016-04-29T19:33:42Z</time>
      </trkpt>
      <trkpt lat="48.08922" lon="-4.51051">
        <ele>18.915</ele>
        <time>2016-04-29T19:33:22Z</time>
      </trkpt>
      <trkpt lat="48.08836" lon="-4.50957">
        <ele>23.208</ele>
        <time>2016-04-29T19:33:02Z</time>
      </trkpt>
      <trkpt lat="48.08859" lon="-4.50886">
        <ele>22.826</ele>
        <time>2016-04-29T19:32:42Z</time>
      </trkpt>
      <trkpt lat="48.08902" lon="-4.50838">
        <ele>17.115</ele>
        <time>2016-04-29T19:32:22Z</time>
      </trkpt>
      <trkpt lat="48.08925" lon="-4.50755">
        <ele>17.698</ele>
        <time>2016-04-29T19:32:02Z</time>
      </trkpt>
      <trkpt lat="48.08856" lon="-4.50688">
        <ele>28.314</ele>
        <time>2016-04-29T19:31:42Z</time>
      </trkpt>
      <trkpt lat="48.08845" lon="-4.50617">
        <ele>23.074</ele>
        <time>2016-04-29T19:31:22Z</time>
      </trkpt>
      <trkpt lat="48.0879" lon="-4.50579">
        <ele>38.67</ele>
        <time>2016-04-29T19:31:02Z</time>
      </trkpt>
      <trkpt lat="48.08776" lon="-4.50547">
        <ele>43.236</ele>
        <time>2016-04-29T19:30:42Z</time>
      </trkpt>
      <trkpt lat="48.0878" lon="-4.50476">
        <ele>38.524</ele>
        <time>2016-04-29T19:30:22Z</time>
      </trkpt>
      <trkpt lat="48.08773" lon="-4.50399">
        <ele>37.927</ele>
        <time>2016-04-29T19:30:02Z</time>
      </trkpt>
      <trkpt lat="48.0878" lon="-4.50343">
        <ele>34.925</ele>
        <time>2016-04-29T19:29:42Z</time>
      </trkpt>
      <trkpt lat="48.08775" lon="-4.50276">
        <ele>37.659</ele>
        <time>2016-04-29T19:29:22Z</time>
      </trkpt>
      <trkpt lat="48.08825" lon="-4.50246">
        <ele>29.908</ele>
        <time>2016-04-29T19:29:02Z</time>
      </trkpt>
      <trkpt lat="48.08865" lon="-4.50244">
        <ele>28.11</ele>
        <time>2016-04-29T19:28:42Z</time>
      </trkpt>
      <trkpt lat="48.08908" lon="-4.50283">
        <ele>18.755</ele>
        <time>2016-04-29T19:28:22Z</time>
      </trkpt>
      <trkpt lat="48.08939" lon="-4.50293">
        <ele>14.934</ele>
        <time>2016-04-29T19:28:02Z</time>
      </trkpt>
      <trkpt lat="48.08947" lon="-4.50227">
        <ele>26.036</ele>
        <time>2016-04-29T19:27:42Z</time>
      </trkpt>
      <trkpt lat="48.09" lon="-4.50182">
        <ele>17.966</ele>
        <time>2016-04-29T19:27:22Z</time>
      </trkpt>
      <trkpt lat="48.09027" lon="-4.50118">
        <ele>18.962</ele>
        <time>2016-04-29T19:27:02Z</time>
      </trkpt>
      <trkpt lat="48.09024" lon="-4.50079">
        <ele>15.938</ele>
        <time>2016-04-29T19:26:42Z</time>
      </trkpt>
      <trkpt lat="48.0896" lon="-4.50057">
        <ele>19.326</ele>
        <time>2016-04-29T19:26:22Z</time>
      </trkpt>
      <trkpt lat="48.08948" lon="-4.50027">
        <ele>14.289</ele>
        <time>2016-04-29T19:26:02Z</time>
      </trkpt>
      <trkpt lat="48.08882" lon="-4.50019">
        <ele>27.917</ele>
        <time>2016-04-29T19:25:42Z</time>
      </trkpt>
      <trkpt lat="48.08813" lon="-4.49894">
        <ele>29.231</ele>
        <time>2016-04-29T19:25:22Z</time>
      </trkpt>
      <trkpt lat="48.08808" lon="-4.49845">
        <ele>24.208</ele>
        <time>2016-04-29T19:25:02Z</time>
      </trkpt>
      <trkpt lat="48.08792" lon="-4.49821">
        <ele>23.323</ele>
        <time>2016-04-29T19:24:42Z</time>
      </trkpt>
      <trkpt lat="48.08785" lon="-4.4977">
        <ele>16.203</ele>
        <time>2016-04-29T19:24:22Z</time>
      </trkpt>
      <trkpt lat="48.08767" lon="-4.49759">
        <ele>18.859</ele>
        <time>2016-04-29T19:24:02Z</time>
      </trkpt>
      <trkpt lat="48.0876" lon="-4.49721">
        <ele>20.232</ele>
        <time>2016-04-29T19:23:42Z</time>
      </trkpt>
      <trkpt lat="48.08769" lon="-4.4968">
        <ele>18.092</ele>
        <time>2016-04-29T19:23:22Z</time>
      </trkpt>
      <trkpt lat="48.08763" lon="-4.49628">
        <ele>17.958</ele>
        <time>2016-04-29T19:23:02Z</time>
      </trkpt>
      <trkpt lat="48.08749" lon="-4.49585">
        <ele>19.744</ele>
        <time>2016-04-29T19:22:42Z</time>
      </trkpt>
      <trkpt lat="48.08752" lon="-4.49545">
        <ele>14.122</ele>
        <time>2016-04-29T19:22:22Z</time>
      </trkpt>
      <trkpt lat="48.08739" lon="-4.49512">
        <ele>16.475</ele>
        <time>2016-04-29T19:22:02Z</time>
      </trkpt>
      <trkpt lat="48.0874" lon="-4.49485">
        <ele>14.513</ele>
        <time>2016-04-29T19:21:42Z</time>
      </trkpt>
      <trkpt lat="48.08726" lon="-4.49452">
        <ele>20.277</ele>
        <time>2016-04-29T19:21:22Z</time>
      </trkpt>
      <trkpt lat="48.08735" lon="-4.49416">
        <ele>16.708</ele>
        <time>2016-04-29T19:21:02Z</time>
      </trkpt>
      <trkpt lat="48.08722" lon="-4.49403">
        <ele>22.113</ele>
        <time>2016-04-29T19:20:42Z</time>
      </trkpt>
      <trkpt lat="48.08722" lon="-4.49354">
        <ele>20.376</ele>
        <time>2016-04-29T19:20:22Z</time>
      </trkpt>
      <trkpt lat="48.08737" lon="-4.49315">
        <ele>11.216</ele>
        <time>2016-04-29T19:20:02Z</time>
      </trkpt>
      <trkpt lat="48.08733" lon="-4.49283">
        <ele>8.257</ele>
        <time>2016-04-29T19:19:42Z</time>
      </trkpt>
      <trkpt lat="48.08676" lon="-4.49302">
        <ele>19.717</ele>
        <time>2016-04-29T19:19:22Z</time>
      </trkpt>
      <trkpt lat="48.08643" lon="-4.49255">
        <ele>14.683</ele>
        <time>2016-04-29T19:19:02Z</time>
      </trkpt>
      <trkpt lat="48.08624" lon="-4.49184">
        <ele>11.539</ele>
        <time>2016-04-29T19:18:42Z</time>
      </trkpt>
      <trkpt lat="48.08594" lon="-4.49186">
        <ele>16.067</ele>
        <time>2016-04-29T19:18:22Z</time>
      </trkpt>
      <trkpt lat="48.0866" lon="-4.49079">
        <ele>13.12</ele>
        <time>2016-04-29T19:18:02Z</time>
      </trkpt>
      <trkpt lat="48.08624" lon="-4.48995">
        <ele>19.958</ele>
        <time>2016-04-29T19:17:42Z</time>
      </trkpt>
      <trkpt lat="48.08621" lon="-4.48959">
        <ele>17.832</ele>
        <time>2016-04-29T19:17:22Z</time>
      </trkpt>
      <trkpt lat="48.08594" lon="-4.48933">
        <ele>28.208</ele>
        <time>2016-04-29T19:17:02Z</time>
      </trkpt>
      <trkpt lat="48.08578" lon="-4.48894">
        <ele>31.124</ele>
        <time>2016-04-29T19:16:42Z</time>
      </trkpt>
      <trkpt lat="48.08614" lon="-4.48821">
        <ele>24.004</ele>
        <time>2016-04-29T19:16:22Z</time>
      </trkpt>
      <trkpt lat="48.08646" lon="-4.48791">
        <ele>17.769</ele>
        <time>2016-04-29T19:16:02Z</time>
      </trkpt>
      <trkpt lat="48.0862" lon="-4.48673">
        <ele>16.683</ele>
        <time>2016-04-29T19:15:42Z</time>
      </trkpt>
      <trkpt lat="48.08578" lon="-4.48611">
        <ele>19.193</ele>
        <time>2016-04-29T19:15:22Z</time>
      </trkpt>
      <trkpt lat="48.08585" lon="-4.4857">
        <ele>18.349</ele>
        <time>2016-04-29T19:15:02Z</time>
      </trkpt>
      <trkpt lat="48.08647" lon="-4.48609">
        <ele>11.195</ele>
        <time>2016-04-29T19:14:42Z</time>
      </trkpt>
      <trkpt lat="48.08654" lon="-4.48551">
        <ele>13.473</ele>
        <time>2016-04-29T19:14:22Z</time>
      </trkpt>
      <trkpt lat="48.08693" lon="-4.48558">
        <ele>16.646</ele>
        <time>2016-04-29T19:14:02Z</time>
      </trkpt>
      <trkpt lat="48.08717" lon="-4.48581">
        <ele>16.024</ele>
        <time>2016-04-29T19:13:42Z</time>
      </trkpt>
      <trkpt lat="48.08745" lon="-4.48585">
        <ele>13.278</ele>
        <time>2016-04-29T19:13:22Z</time>
      </trkpt>
      <trkpt lat="48.08757" lon="-4.48575">
        <ele>13.608</ele>
        <time>2016-04-29T19:13:02Z</time>
      </trkpt>
      <trkpt lat="48.0874" lon="-4.48532">
        <ele>23.308</ele>
        <time>2016-04-29T19:12:42Z</time>
      </trkpt>
      <trkpt lat="48.0875" lon="-4.48478">
        <ele>26.526</ele>
        <time>2016-04-29T19:12:22Z</time>
      </trkpt>
      <trkpt lat="48.08772" lon="-4.48425">
        <ele>25.825</ele>
        <time>2016-04-29T19:12:02Z</time>
      </trkpt>
      <trkpt lat="48.08796" lon="-4.48427">
        <ele>19.432</ele>
        <time>2016-04-29T19:11:42Z</time>
      </trkpt>
      <trkpt lat="48.08845" lon="-4.48377">
        <ele>21.222</ele>
        <time>2016-04-29T19:11:22Z</time>
      </trkpt>
      <trkpt lat="48.08865" lon="-4.48334">
        <ele>22.248</ele>
        <time>2016-04-29T19:11:02Z</time>
      </trkpt>
      <trkpt lat="48.08862" lon="-4.48257">
        <ele>29.764</ele>
        <time>2016-04-29T19:10:42Z</time>
      </trkpt>
      <trkpt lat="48.08881" lon="-4.48225">
        <ele>29.442</ele>
        <time>2016-04-29T19:10:22Z</time>
      </trkpt>
      <trkpt lat="48.08929" lon="-4.48274">
        <ele>12.445</ele>
        <time>2016-04-29T19:10:02Z</time>
      </trkpt>
      <trkpt lat="48.08951" lon="-4.48276">
        <ele>9.643</ele>
        <time>2016-04-29T19:09:42Z</time>
      </trkpt>
      <trkpt lat="48.08987" lon="-4.48186">
        <ele>25.177</ele>
        <time>2016-04-29T19:09:22Z</time>
      </trkpt>
      <trkpt lat="48.09031" lon="-4.48193">
        <ele>14.108</ele>
        <time>2016-04-29T19:09:02Z</time>
      </trkpt>
      <trkpt lat="48.09071" lon="-4.48171">
        <ele>15.617</ele>
        <time>2016-04-29T19:08:42Z</time>
      </trkpt>
      <trkpt lat="48.0912" lon="-4.48085">
        <ele>20.898</ele>
        <time>2016-04-29T19:08:22Z</time>
      </trkpt>
      <trkpt lat="48.09142" lon="-4.47998">
        <ele>29.918</ele>
        <time>2016-04-29T19:08:02Z</time>
      </trkpt>
      <trkpt lat="48.09147" lon="-4.47948">
        <ele>33.263</ele>
        <time>2016-04-29T19:07:42Z</time>
      </trkpt>
      <trkpt lat="48.09175" lon="-4.47897">
        <ele>31.113</ele>
        <time>2016-04-29T19:07:22Z</time>
      </trkpt>
      <trkpt lat="48.09193" lon="-4.47822">
        <ele>37.159</ele>
        <time>2016-04-29T19:07:02Z</time>
      </trkpt>
      <trkpt lat="48.09215" lon="-4.47792">
        <ele>32.015</ele>
        <time>2016-04-29T19:06:42Z</time>
      </trkpt>
      <trkpt lat="48.09232" lon="-4.47731">
        <ele>30.543</ele>
        <time>2016-04-29T19:06:22Z</time>
      </trkpt>
      <trkpt lat="48.09226" lon="-4.4768">
        <ele>38.636</ele>
        <time>2016-04-29T19:06:02Z</time>
      </trkpt>
      <trkpt lat="48.09233" lon="-4.47637">
        <ele>40.154</ele>
        <time>2016-04-29T19:05:42Z</time>
      </trkpt>
      <trkpt lat="48.09269" lon="-4.47613">
        <ele>38.898</ele>
        <time>2016-04-29T19:05:22Z</time>
      </trkpt>
      <trkpt lat="48.09291" lon="-4.4765">
        <ele>29.308</ele>
        <time>2016-04-29T19:05:02Z</time>
      </trkpt>
      <trkpt lat="48.09312" lon="-4.47665">
        <ele>26.02</ele>
        <time>2016-04-29T19:04:42Z</time>
      </trkpt>
      <trkpt lat="48.09344" lon="-4.47652">
        <ele>32</ele>
        <time>2016-04-29T19:04:22Z</time>
      </trkpt>
      <trkpt lat="48.09357" lon="-4.47669">
        <ele>27.029</ele>
        <time>2016-04-29T19:04:02Z</time>
      </trkpt>
      <trkpt lat="48.09392" lon="-4.47686">
        <ele>24.059</ele>
        <time>2016-04-29T19:03:42Z</time>
      </trkpt>
      <trkpt lat="48.09428" lon="-4.47669">
        <ele>33.639</ele>
        <time>2016-04-29T19:03:22Z</time>
      </trkpt>
      <trkpt lat="48.09476" lon="-4.47676">
        <ele>27.085</ele>
        <time>2016-04-29T19:03:02Z</time>
      </trkpt>
      <trkpt lat="48.09517" lon="-4.47641">
        <ele>24.781</ele>
        <time>2016-04-29T19:02:42Z</time>
      </trkpt>
      <trkpt lat="48.09539" lon="-4.47555">
        <ele>19.639</ele>
        <time>2016-04-29T19:02:22Z</time>
      </trkpt>
      <trkpt lat="48.095" lon="-4.47491">
        <ele>27.232</ele>
        <time>2016-04-29T19:02:02Z</time>
      </trkpt>
      <trkpt lat="48.09478" lon="-4.47442">
        <ele>30.09</ele>
        <time>2016-04-29T19:01:42Z</time>
      </trkpt>
      <trkpt lat="48.09487" lon="-4.47373">
        <ele>29.814</ele>
        <time>2016-04-29T19:01:22Z</time>
      </trkpt>
      <trkpt lat="48.09541" lon="-4.47315">
        <ele>14.308</ele>
        <time>2016-04-29T19:01:02Z</time>
      </trkpt>
      <trkpt lat="48.09549" lon="-4.47212">
        <ele>12.326</ele>
        <time>2016-04-29T19:00:42Z</time>
      </trkpt>
      <trkpt lat="48.09533" lon="-4.47169">
        <ele>20.424</ele>
        <time>2016-04-29T19:00:22Z</time>
      </trkpt>
      <trkpt lat="48.09544" lon="-4.47096">
        <ele>16.988</ele>
        <time>2016-04-29T19:00:02Z</time>
      </trkpt>
      <trkpt lat="48.09566" lon="-4.47064">
        <ele>10.734</ele>
        <time>2016-04-29T18:59:42Z</time>
      </trkpt>
      <trkpt lat="48.09556" lon="-4.47002">
        <ele>18.894</ele>
        <time>2016-04-29T18:59:22Z</time>
      </trkpt>
      <trkpt lat="48.09553" lon="-4.46953">
        <ele>18.96</ele>
        <time>2016-04-29T18:59:02Z</time>
      </trkpt>
      <trkpt lat="48.09527" lon="-4.46892">
        <ele>20.236</ele>
        <time>2016-04-29T18:58:42Z</time>
      </trkpt>
      <trkpt lat="48.09536" lon="-4.46738">
        <ele>18.444</ele>
        <time>2016-04-29T18:58:22Z</time>
      </trkpt>
      <trkpt lat="48.09566" lon="-4.46678">
        <ele>10.947</ele>
        <time>2016-04-29T18:58:02Z</time>
      </trkpt>
      <trkpt lat="48.09561" lon="-4.46622">
        <ele>19.215</ele>
        <time>2016-04-29T18:57:42Z</time>
      </trkpt>
      <trkpt lat="48.09587" lon="-4.46577">
        <ele>18.749</ele>
        <time>2016-04-29T18:57:22Z</time>
      </trkpt>
      <trkpt lat="48.09623" lon="-4.46547">
        <ele>20.208</ele>
        <time>2016-04-29T18:57:02Z</time>
      </trkpt>
      <trkpt lat="48.09665" lon="-4.46564">
        <ele>16.61</ele>
        <time>2016-04-29T18:56:42Z</time>
      </trkpt>
      <trkpt lat="48.09675" lon="-4.46609">
        <ele>11.755</ele>
        <time>2016-04-29T18:56:22Z</time>
      </trkpt>
      <trkpt lat="48.09748" lon="-4.46618">
        <ele>18.634</ele>
        <time>2016-04-29T18:56:02Z</time>
      </trkpt>
      <trkpt lat="48.09802" lon="-4.46588">
        <ele>20.496</ele>
        <time>2016-04-29T18:55:42Z</time>
      </trkpt>
      <trkpt lat="48.09824" lon="-4.4647">
        <ele>32.446</ele>
        <time>2016-04-29T18:55:22Z</time>
      </trkpt>
      <trkpt lat="48.09877" lon="-4.46472">
        <ele>21.382</ele>
        <time>2016-04-29T18:55:02Z</time>
      </trkpt>
      <trkpt lat="48.09883" lon="-4.46438">
        <ele>18.578</ele>
        <time>2016-04-29T18:54:42Z</time>
      </trkpt>
      <trkpt lat="48.09857" lon="-4.46365">
        <ele>21.736</ele>
        <time>2016-04-29T18:54:22Z</time>
      </trkpt>
      <trkpt lat="48.0986" lon="-4.46307">
        <ele>12.049</ele>
        <time>2016-04-29T18:54:02Z</time>
      </trkpt>
      <trkpt lat="48.09819" lon="-4.46257">
        <ele>15.787</ele>
        <time>2016-04-29T18:53:42Z</time>
      </trkpt>
      <trkpt lat="48.09781" lon="-4.46242">
        <ele>21.551</ele>
        <time>2016-04-29T18:53:22Z</time>
      </trkpt>
      <trkpt lat="48.09752" lon="-4.46255">
        <ele>21.908</ele>
        <time>2016-04-29T18:53:02Z</time>
      </trkpt>
      <trkpt lat="48.09709" lon="-4.46242">
        <ele>12.811</ele>
        <time>2016-04-29T18:52:42Z</time>
      </trkpt>
      <trkpt lat="48.09685" lon="-4.46195">
        <ele>9.156</ele>
        <time>2016-04-29T18:52:22Z</time>
      </trkpt>
      <trkpt lat="48.09711" lon="-4.46148">
        <ele>6.354</ele>
        <time>2016-04-29T18:52:02Z</time>
      </trkpt>
      <trkpt lat="48.09698" lon="-4.4606">
        <ele>7.936</ele>
        <time>2016-04-29T18:51:42Z</time>
      </trkpt>
      <trkpt lat="48.09647" lon="-4.45968">
        <ele>15.196</ele>
        <time>2016-04-29T18:51:22Z</time>
      </trkpt>
      <trkpt lat="48.09666" lon="-4.45925">
        <ele>6.922</ele>
        <time>2016-04-29T18:51:02Z</time>
      </trkpt>
      <trkpt lat="48.09659" lon="-4.4589">
        <ele>11.378</ele>
        <time>2016-04-29T18:50:42Z</time>
      </trkpt>
      <trkpt lat="48.0967" lon="-4.4586">
        <ele>9.896</ele>
        <time>2016-04-29T18:50:22Z</time>
      </trkpt>
      <trkpt lat="48.09663" lon="-4.45828">
        <ele>13.269</ele>
        <time>2016-04-29T18:50:02Z</time>
      </trkpt>
      <trkpt lat="48.09683" lon="-4.45792">
        <ele>7.317</ele>
        <time>2016-04-29T18:49:42Z</time>
      </trkpt>
      <trkpt lat="48.09642" lon="-4.45753">
        <ele>15.241</ele>
        <time>2016-04-29T18:49:22Z</time>
      </trkpt>
      <trkpt lat="48.09615" lon="-4.45693">
        <ele>24.208</ele>
        <time>2016-04-29T18:49:02Z</time>
      </trkpt>
      <trkpt lat="48.09615" lon="-4.45626">
        <ele>29.914</ele>
        <time>2016-04-29T18:48:42Z</time>
      </trkpt>
      <trkpt lat="48.09649" lon="-4.45622">
        <ele>12.859</ele>
        <time>2016-04-29T18:48:22Z</time>
      </trkpt>
      <trkpt lat="48.09672" lon="-4.45609">
        <ele>5.456</ele>
        <time>2016-04-29T18:48:02Z</time>
      </trkpt>
      <trkpt lat="48.09663" lon="-4.45517">
        <ele>22.425</ele>
        <time>2016-04-29T18:47:42Z</time>
      </trkpt>
      <trkpt lat="48.09692" lon="-4.45508">
        <ele>10.315</ele>
        <time>2016-04-29T18:47:22Z</time>
      </trkpt>
      <trkpt lat="48.09708" lon="-4.45463">
        <ele>10.491</ele>
        <time>2016-04-29T18:47:02Z</time>
      </trkpt>
      <trkpt lat="48.09703" lon="-4.45412">
        <ele>22.457</ele>
        <time>2016-04-29T18:46:42Z</time>
      </trkpt>
      <trkpt lat="48.09726" lon="-4.45373">
        <ele>14.725</ele>
        <time>2016-04-29T18:46:22Z</time>
      </trkpt>
      <trkpt lat="48.09712" lon="-4.45326">
        <ele>26.768</ele>
        <time>2016-04-29T18:46:02Z</time>
      </trkpt>
      <trkpt lat="48.09765" lon="-4.45272">
        <ele>9.296</ele>
        <time>2016-04-29T18:45:42Z</time>
      </trkpt>
      <trkpt lat="48.09754" lon="-4.45212">
        <ele>29.16</ele>
        <time>2016-04-29T18:45:22Z</time>
      </trkpt>
      <trkpt lat="48.09754" lon="-4.45152">
        <ele>37.208</ele>
        <time>2016-04-29T18:45:02Z</time>
      </trkpt>
      <trkpt lat="48.09815" lon="-4.45114">
        <ele>11.01</ele>
        <time>2016-04-29T18:44:42Z</time>
      </trkpt>
      <trkpt lat="48.09821" lon="-4.45058">
        <ele>15.564</ele>
        <time>2016-04-29T18:44:22Z</time>
      </trkpt>
      <trkpt lat="48.09825" lon="-4.45017">
        <ele>16.343</ele>
        <time>2016-04-29T18:44:02Z</time>
      </trkpt>
      <trkpt lat="48.09814" lon="-4.44974">
        <ele>24.795</ele>
        <time>2016-04-29T18:43:42Z</time>
      </trkpt>
      <trkpt lat="48.09807" lon="-4.4494">
        <ele>27.845</ele>
        <time>2016-04-29T18:43:22Z</time>
      </trkpt>
      <trkpt lat="48.09821" lon="-4.44927">
        <ele>12.861</ele>
        <time>2016-04-29T18:43:02Z</time>
      </trkpt>
      <trkpt lat="48.09814" lon="-4.4486">
        <ele>14.077</ele>
        <time>2016-04-29T18:42:42Z</time>
      </trkpt>
      <trkpt lat="48.09776" lon="-4.44757">
        <ele>12.255</ele>
        <time>2016-04-29T18:42:22Z</time>
      </trkpt>
      <trkpt lat="48.09755" lon="-4.44727">
        <ele>15.368</ele>
        <time>2016-04-29T18:42:02Z</time>
      </trkpt>
      <trkpt lat="48.09764" lon="-4.44695">
        <ele>7.756</ele>
        <time>2016-04-29T18:41:42Z</time>
      </trkpt>
      <trkpt lat="48.09735" lon="-4.44667">
        <ele>15.51</ele>
        <time>2016-04-29T18:41:22Z</time>
      </trkpt>
      <trkpt lat="48.09723" lon="-4.44605">
        <ele>14.908</ele>
        <time>2016-04-29T18:41:02Z</time>
      </trkpt>
      <trkpt lat="48.09738" lon="-4.44588">
        <ele>7.415</ele>
        <time>2016-04-29T18:40:42Z</time>
      </trkpt>
      <trkpt lat="48.09718" lon="-4.44549">
        <ele>11.405</ele>
        <time>2016-04-29T18:40:22Z</time>
      </trkpt>
      <trkpt lat="48.09702" lon="-4.44539">
        <ele>19.044</ele>
        <time>2016-04-29T18:40:02Z</time>
      </trkpt>
      <trkpt lat="48.09723" lon="-4.44455">
        <ele>16.729</ele>
        <time>2016-04-29T18:39:42Z</time>
      </trkpt>
      <trkpt lat="48.09764" lon="-4.44418">
        <ele>5.059</ele>
        <time>2016-04-29T18:39:22Z</time>
      </trkpt>
      <trkpt lat="48.09749" lon="-4.44386">
        <ele>11.175</ele>
        <time>2016-04-29T18:39:02Z</time>
      </trkpt>
      <trkpt lat="48.09718" lon="-4.44363">
        <ele>18.191</ele>
        <time>2016-04-29T18:38:42Z</time>
      </trkpt>
      <trkpt lat="48.09685" lon="-4.44311">
        <ele>19.649</ele>
        <time>2016-04-29T18:38:22Z</time>
      </trkpt>
      <trkpt lat="48.09688" lon="-4.44255">
        <ele>6.672</ele>
        <time>2016-04-29T18:38:02Z</time>
      </trkpt>
      <trkpt lat="48.09676" lon="-4.44247">
        <ele>8.88</ele>
        <time>2016-04-29T18:37:42Z</time>
      </trkpt>
      <trkpt lat="48.09649" lon="-4.44266">
        <ele>21.664</ele>
        <time>2016-04-29T18:37:22Z</time>
      </trkpt>
      <trkpt lat="48.09635" lon="-4.44257">
        <ele>24.508</ele>
        <time>2016-04-29T18:37:02Z</time>
      </trkpt>
      <trkpt lat="48.09607" lon="-4.44277">
        <ele>37.326</ele>
        <time>2016-04-29T18:36:42Z</time>
      </trkpt>
      <trkpt lat="48.09602" lon="-4.4423">
        <ele>35.06</ele>
        <time>2016-04-29T18:36:22Z</time>
      </trkpt>
      <trkpt lat="48.09616" lon="-4.44191">
        <ele>24.486</ele>
        <time>2016-04-29T18:36:02Z</time>
      </trkpt>
      <trkpt lat="48.0962" lon="-4.44148">
        <ele>23.424</ele>
        <time>2016-04-29T18:35:42Z</time>
      </trkpt>
      <trkpt lat="48.09662" lon="-4.44105">
        <ele>5.144</ele>
        <time>2016-04-29T18:35:22Z</time>
      </trkpt>
      <trkpt lat="48.0965" lon="-4.44079">
        <ele>14.38</ele>
        <time>2016-04-29T18:35:02Z</time>
      </trkpt>
      <trkpt lat="48.09655" lon="-4.43993">
        <ele>14.066</ele>
        <time>2016-04-29T18:34:42Z</time>
      </trkpt>
      <trkpt lat="48.09645" lon="-4.43968">
        <ele>23.214</ele>
        <time>2016-04-29T18:34:22Z</time>
      </trkpt>
      <trkpt lat="48.09647" lon="-4.43897">
        <ele>25.847</ele>
        <time>2016-04-29T18:34:02Z</time>
      </trkpt>
      <trkpt lat="48.09662" lon="-4.43867">
        <ele>24.665</ele>
        <time>2016-04-29T18:33:42Z</time>
      </trkpt>
      <trkpt lat="48.09659" lon="-4.4383">
        <ele>29.079</ele>
        <time>2016-04-29T18:33:22Z</time>
      </trkpt>
      <trkpt lat="48.09666" lon="-4.43796">
        <ele>29.508</ele>
        <time>2016-04-29T18:33:02Z</time>
      </trkpt>
      <trkpt lat="48.09663" lon="-4.43747">
        <ele>32.107</ele>
        <time>2016-04-29T18:32:42Z</time>
      </trkpt>
      <trkpt lat="48.09699" lon="-4.43691">
        <ele>25.661</ele>
        <time>2016-04-29T18:32:22Z</time>
      </trkpt>
      <trkpt lat="48.09742" lon="-4.43676">
        <ele>5.831</ele>
        <time>2016-04-29T18:32:02Z</time>
      </trkpt>
      <trkpt lat="48.09745" lon="-4.43624">
        <ele>9.888</ele>
        <time>2016-04-29T18:31:42Z</time>
      </trkpt>
      <trkpt lat="48.09716" lon="-4.43566">
        <ele>26.258</ele>
        <time>2016-04-29T18:31:22Z</time>
      </trkpt>
      <trkpt lat="48.09702" lon="-4.43461">
        <ele>22.134</ele>
        <time>2016-04-29T18:31:02Z</time>
      </trkpt>
      <trkpt lat="48.09703" lon="-4.43418">
        <ele>12.58</ele>
        <time>2016-04-29T18:30:42Z</time>
      </trkpt>
      <trkpt lat="48.09659" lon="-4.43378">
        <ele>19.228</ele>
        <time>2016-04-29T18:30:22Z</time>
      </trkpt>
      <trkpt lat="48.09627" lon="-4.43363">
        <ele>24.991</ele>
        <time>2016-04-29T18:30:02Z</time>
      </trkpt>
      <trkpt lat="48.09637" lon="-4.43326">
        <ele>24.499</ele>
        <time>2016-04-29T18:29:42Z</time>
      </trkpt>
      <trkpt lat="48.09702" lon="-4.43273">
        <ele>18.463</ele>
        <time>2016-04-29T18:29:22Z</time>
      </trkpt>
      <trkpt lat="48.09718" lon="-4.43249">
        <ele>19.108</ele>
        <time>2016-04-29T18:29:02Z</time>
      </trkpt>
      <trkpt lat="48.09725" lon="-4.43189">
        <ele>33.413</ele>
        <time>2016-04-29T18:28:42Z</time>
      </trkpt>
      <trkpt lat="48.09739" lon="-4.43165">
        <ele>34.685</ele>
        <time>2016-04-29T18:28:22Z</time>
      </trkpt>
      <trkpt lat="48.09755" lon="-4.43116">
        <ele>42.673</ele>
        <time>2016-04-29T18:28:02Z</time>
      </trkpt>
      <trkpt lat="48.09791" lon="-4.43099">
        <ele>37.15</ele>
        <time>2016-04-29T18:27:42Z</time>
      </trkpt>
      <trkpt lat="48.09818" lon="-4.43103">
        <ele>26.02</ele>
        <time>2016-04-29T18:27:22Z</time>
      </trkpt>
      <trkpt lat="48.09855" lon="-4.43067">
        <ele>27.676</ele>
        <time>2016-04-29T18:27:02Z</time>
      </trkpt>
      <trkpt lat="48.09865" lon="-4.43011">
        <ele>39.922</ele>
        <time>2016-04-29T18:26:42Z</time>
      </trkpt>
      <trkpt lat="48.09943" lon="-4.42946">
        <ele>18.88</ele>
        <time>2016-04-29T18:26:22Z</time>
      </trkpt>
      <trkpt lat="48.09953" lon="-4.42891">
        <ele>29.533</ele>
        <time>2016-04-29T18:26:02Z</time>
      </trkpt>
      <trkpt lat="48.0998" lon="-4.42888">
        <ele>16.531</ele>
        <time>2016-04-29T18:25:42Z</time>
      </trkpt>
      <trkpt lat="48.09997" lon="-4.42865">
        <ele>11.755</ele>
        <time>2016-04-29T18:25:22Z</time>
      </trkpt>
      <trkpt lat="48.09989" lon="-4.42813">
        <ele>18.908</ele>
        <time>2016-04-29T18:25:02Z</time>
      </trkpt>
      <trkpt lat="48.1" lon="-4.42775">
        <ele>11.025</ele>
        <time>2016-04-29T18:24:42Z</time>
      </trkpt>
      <trkpt lat="48.09997" lon="-4.4273">
        <ele>10.423</ele>
        <time>2016-04-29T18:24:22Z</time>
      </trkpt>
      <trkpt lat="48.09968" lon="-4.42702">
        <ele>20.297</ele>
        <time>2016-04-29T18:24:02Z</time>
      </trkpt>
      <trkpt lat="48.09973" lon="-4.42648">
        <ele>11.23</ele>
        <time>2016-04-29T18:23:42Z</time>
      </trkpt>
      <trkpt lat="48.09943" lon="-4.42599">
        <ele>22.96</ele>
        <time>2016-04-29T18:23:22Z</time>
      </trkpt>
      <trkpt lat="48.09986" lon="-4.42554">
        <ele>7.216</ele>
        <time>2016-04-29T18:23:02Z</time>
      </trkpt>
      <trkpt lat="48.09971" lon="-4.42504">
        <ele>15.142</ele>
        <time>2016-04-29T18:22:42Z</time>
      </trkpt>
      <trkpt lat="48.0995" lon="-4.42491">
        <ele>26.57</ele>
        <time>2016-04-29T18:22:22Z</time>
      </trkpt>
      <trkpt lat="48.09974" lon="-4.42479">
        <ele>17.283</ele>
        <time>2016-04-29T18:22:02Z</time>
      </trkpt>
      <trkpt lat="48.09981" lon="-4.42444">
        <ele>18.151</ele>
        <time>2016-04-29T18:21:42Z</time>
      </trkpt>
      <trkpt lat="48.09997" lon="-4.42431">
        <ele>12.265</ele>
        <time>2016-04-29T18:21:22Z</time>
      </trkpt>
      <trkpt lat="48.0999" lon="-4.42395">
        <ele>17.608</ele>
        <time>2016-04-29T18:21:02Z</time>
      </trkpt>
      <trkpt lat="48.09996" lon="-4.42358">
        <ele>14.52</ele>
        <time>2016-04-29T18:20:42Z</time>
      </trkpt>
      <trkpt lat="48.09986" lon="-4.42294">
        <ele>15.373</ele>
        <time>2016-04-29T18:20:22Z</time>
      </trkpt>
      <trkpt lat="48.10044" lon="-4.42281">
        <ele>12.992</ele>
        <time>2016-04-29T18:20:02Z</time>
      </trkpt>
      <trkpt lat="48.10083" lon="-4.42303">
        <ele>9.784</ele>
        <time>2016-04-29T18:19:42Z</time>
      </trkpt>
      <trkpt lat="48.10149" lon="-4.42311">
        <ele>10.714</ele>
        <time>2016-04-29T18:19:22Z</time>
      </trkpt>
      <trkpt lat="48.10169" lon="-4.42255">
        <ele>24.77</ele>
        <time>2016-04-29T18:19:02Z</time>
      </trkpt>
      <trkpt lat="48.10202" lon="-4.42262">
        <ele>25.756</ele>
        <time>2016-04-29T18:18:42Z</time>
      </trkpt>
      <trkpt lat="48.10226" lon="-4.42298">
        <ele>17.634</ele>
        <time>2016-04-29T18:18:22Z</time>
      </trkpt>
      <trkpt lat="48.10275" lon="-4.42313">
        <ele>8.887</ele>
        <time>2016-04-29T18:18:02Z</time>
      </trkpt>
      <trkpt lat="48.10291" lon="-4.42273">
        <ele>17.265</ele>
        <time>2016-04-29T18:17:42Z</time>
      </trkpt>
      <trkpt lat="48.10315" lon="-4.42262">
        <ele>15.669</ele>
        <time>2016-04-29T18:17:22Z</time>
      </trkpt>
      <trkpt lat="48.10375" lon="-4.42114">
        <ele>32.508</ele>
        <time>2016-04-29T18:17:02Z</time>
      </trkpt>
      <trkpt lat="48.10414" lon="-4.4211">
        <ele>18.507</ele>
        <time>2016-04-29T18:16:42Z</time>
      </trkpt>
      <trkpt lat="48.10433" lon="-4.4206">
        <ele>29.361</ele>
        <time>2016-04-29T18:16:22Z</time>
      </trkpt>
      <trkpt lat="48.1049" lon="-4.42047">
        <ele>12.231</ele>
        <time>2016-04-29T18:16:02Z</time>
      </trkpt>
      <trkpt lat="48.10506" lon="-4.42034">
        <ele>9.189</ele>
        <time>2016-04-29T18:15:42Z</time>
      </trkpt>
      <trkpt lat="48.10507" lon="-4.41996">
        <ele>11.729</ele>
        <time>2016-04-29T18:15:22Z</time>
      </trkpt>
      <trkpt lat="48.1046" lon="-4.41929">
        <ele>36.635</ele>
        <time>2016-04-29T18:15:02Z</time>
      </trkpt>
      <trkpt lat="48.10533" lon="-4.41841">
        <ele>31.461</ele>
        <time>2016-04-29T18:14:42Z</time>
      </trkpt>
      <trkpt lat="48.10559" lon="-4.41828">
        <ele>23.319</ele>
        <time>2016-04-29T18:14:22Z</time>
      </trkpt>
      <trkpt lat="48.10537" lon="-4.41721">
        <ele>45.392</ele>
        <time>2016-04-29T18:14:02Z</time>
      </trkpt>
      <trkpt lat="48.10552" lon="-4.41683">
        <ele>42.42</ele>
        <time>2016-04-29T18:13:42Z</time>
      </trkpt>
      <trkpt lat="48.10602" lon="-4.41661">
        <ele>28.364</ele>
        <time>2016-04-29T18:13:22Z</time>
      </trkpt>
      <trkpt lat="48.10608" lon="-4.4162">
        <ele>33.308</ele>
        <time>2016-04-29T18:13:02Z</time>
      </trkpt>
      <trkpt lat="48.10632" lon="-4.41502">
        <ele>19.026</ele>
        <time>2016-04-29T18:12:42Z</time>
      </trkpt>
      <trkpt lat="48.10645" lon="-4.41498">
        <ele>12.66</ele>
        <time>2016-04-29T18:12:22Z</time>
      </trkpt>
      <trkpt lat="48.10655" lon="-4.41479">
        <ele>8.386</ele>
        <time>2016-04-29T18:12:02Z</time>
      </trkpt>
      <trkpt lat="48.10628" lon="-4.41401">
        <ele>20.742</ele>
        <time>2016-04-29T18:11:42Z</time>
      </trkpt>
      <trkpt lat="48.10641" lon="-4.41384">
        <ele>15.632</ele>
        <time>2016-04-29T18:11:22Z</time>
      </trkpt>
      <trkpt lat="48.10668" lon="-4.41286">
        <ele>12.038</ele>
        <time>2016-04-29T18:11:02Z</time>
      </trkpt>
      <trkpt lat="48.10653" lon="-4.41245">
        <ele>18.774</ele>
        <time>2016-04-29T18:10:42Z</time>
      </trkpt>
      <trkpt lat="48.1062" lon="-4.41097">
        <ele>13.882</ele>
        <time>2016-04-29T18:10:22Z</time>
      </trkpt>
      <trkpt lat="48.10609" lon="-4.4105">
        <ele>12.275</ele>
        <time>2016-04-29T18:10:02Z</time>
      </trkpt>
      <trkpt lat="48.10573" lon="-4.40998">
        <ele>18.073</ele>
        <time>2016-04-29T18:09:42Z</time>
      </trkpt>
      <trkpt lat="48.10559" lon="-4.4094">
        <ele>10.957</ele>
        <time>2016-04-29T18:09:22Z</time>
      </trkpt>
      <trkpt lat="48.10512" lon="-4.40899">
        <ele>14.208</ele>
        <time>2016-04-29T18:09:02Z</time>
      </trkpt>
      <trkpt lat="48.10461" lon="-4.40824">
        <ele>15.609</ele>
        <time>2016-04-29T18:08:42Z</time>
      </trkpt>
      <trkpt lat="48.10454" lon="-4.40788">
        <ele>10.354</ele>
        <time>2016-04-29T18:08:22Z</time>
      </trkpt>
      <trkpt lat="48.10434" lon="-4.40758">
        <ele>13.314</ele>
        <time>2016-04-29T18:08:02Z</time>
      </trkpt>
      <trkpt lat="48.10437" lon="-4.40738">
        <ele>8.827</ele>
        <time>2016-04-29T18:07:42Z</time>
      </trkpt>
      <trkpt lat="48.10427" lon="-4.40713">
        <ele>8.477</ele>
        <time>2016-04-29T18:07:22Z</time>
      </trkpt>
      <trkpt lat="48.1038" lon="-4.407">
        <ele>14.693</ele>
        <time>2016-04-29T18:07:02Z</time>
      </trkpt>
      <trkpt lat="48.1033" lon="-4.40713">
        <ele>24.329</ele>
        <time>2016-04-29T18:06:42Z</time>
      </trkpt>
      <trkpt lat="48.10327" lon="-4.40676">
        <ele>26.797</ele>
        <time>2016-04-29T18:06:22Z</time>
      </trkpt>
      <trkpt lat="48.10367" lon="-4.40504">
        <ele>19.95</ele>
        <time>2016-04-29T18:06:02Z</time>
      </trkpt>
      <trkpt lat="48.10365" lon="-4.40432">
        <ele>17.428</ele>
        <time>2016-04-29T18:05:42Z</time>
      </trkpt>
      <trkpt lat="48.10411" lon="-4.40417">
        <ele>13.292</ele>
        <time>2016-04-29T18:05:22Z</time>
      </trkpt>
      <trkpt lat="48.10453" lon="-4.40425">
        <ele>10.808</ele>
        <time>2016-04-29T18:05:02Z</time>
      </trkpt>
      <trkpt lat="48.10481" lon="-4.40395">
        <ele>19.516</ele>
        <time>2016-04-29T18:04:42Z</time>
      </trkpt>
      <trkpt lat="48.1052" lon="-4.40399">
        <ele>9.706</ele>
        <time>2016-04-29T18:04:22Z</time>
      </trkpt>
      <trkpt lat="48.10535" lon="-4.40369">
        <ele>8.764</ele>
        <time>2016-04-29T18:04:02Z</time>
      </trkpt>
      <trkpt lat="48.1052" lon="-4.40215">
        <ele>24.357</ele>
        <time>2016-04-29T18:03:42Z</time>
      </trkpt>
      <trkpt lat="48.10503" lon="-4.40161">
        <ele>35.597</ele>
        <time>2016-04-29T18:03:22Z</time>
      </trkpt>
      <trkpt lat="48.10526" lon="-4.40007">
        <ele>9.853</ele>
        <time>2016-04-29T18:03:02Z</time>
      </trkpt>
      <trkpt lat="48.10471" lon="-4.39893">
        <ele>24.049</ele>
        <time>2016-04-29T18:02:42Z</time>
      </trkpt>
      <trkpt lat="48.10457" lon="-4.39839">
        <ele>27.557</ele>
        <time>2016-04-29T18:02:22Z</time>
      </trkpt>
      <trkpt lat="48.1047" lon="-4.39768">
        <ele>13.47</ele>
        <time>2016-04-29T18:02:02Z</time>
      </trkpt>
      <trkpt lat="48.10443" lon="-4.39706">
        <ele>27.968</ele>
        <time>2016-04-29T18:01:42Z</time>
      </trkpt>
      <trkpt lat="48.10423" lon="-4.39655">
        <ele>37.752</ele>
        <time>2016-04-29T18:01:22Z</time>
      </trkpt>
      <trkpt lat="48.10426" lon="-4.39595">
        <ele>29.308</ele>
        <time>2016-04-29T18:01:02Z</time>
      </trkpt>
      <trkpt lat="48.1041" lon="-4.39524">
        <ele>38.711</ele>
        <time>2016-04-29T18:00:42Z</time>
      </trkpt>
      <trkpt lat="48.1039" lon="-4.39447">
        <ele>43.583</ele>
        <time>2016-04-29T18:00:22Z</time>
      </trkpt>
      <trkpt lat="48.10428" lon="-4.39264">
        <ele>39.962</ele>
        <time>2016-04-29T18:00:02Z</time>
      </trkpt>
      <trkpt lat="48.10436" lon="-4.39161">
        <ele>40.246</ele>
        <time>2016-04-29T17:59:42Z</time>
      </trkpt>
      <trkpt lat="48.10461" lon="-4.39093">
        <ele>19.446</ele>
        <time>2016-04-29T17:59:22Z</time>
      </trkpt>
      <trkpt lat="48.10439" lon="-4.39022">
        <ele>21.872</ele>
        <time>2016-04-29T17:59:02Z</time>
      </trkpt>
      <trkpt lat="48.10476" lon="-4.38863">
        <ele>13.618</ele>
        <time>2016-04-29T17:58:42Z</time>
      </trkpt>
      <trkpt lat="48.10483" lon="-4.38717">
        <ele>31.066</ele>
        <time>2016-04-29T17:58:22Z</time>
      </trkpt>
      <trkpt lat="48.10513" lon="-4.38687">
        <ele>22.269</ele>
        <time>2016-04-29T17:58:02Z</time>
      </trkpt>
      <trkpt lat="48.10519" lon="-4.38659">
        <ele>23.467</ele>
        <time>2016-04-29T17:57:42Z</time>
      </trkpt>
      <trkpt lat="48.10499" lon="-4.3862">
        <ele>37.351</ele>
        <time>2016-04-29T17:57:22Z</time>
      </trkpt>
      <trkpt lat="48.10547" lon="-4.38447">
        <ele>34.308</ele>
        <time>2016-04-29T17:57:02Z</time>
      </trkpt>
      <trkpt lat="48.10552" lon="-4.38389">
        <ele>39.114</ele>
        <time>2016-04-29T17:56:42Z</time>
      </trkpt>
      <trkpt lat="48.10565" lon="-4.38352">
        <ele>34.504</ele>
        <time>2016-04-29T17:56:22Z</time>
      </trkpt>
      <trkpt lat="48.10565" lon="-4.38296">
        <ele>35.953</ele>
        <time>2016-04-29T17:56:02Z</time>
      </trkpt>
      <trkpt lat="48.10599" lon="-4.38258">
        <ele>24.61</ele>
        <time>2016-04-29T17:55:42Z</time>
      </trkpt>
      <trkpt lat="48.10641" lon="-4.38168">
        <ele>25.97</ele>
        <time>2016-04-29T17:55:22Z</time>
      </trkpt>
      <trkpt lat="48.10709" lon="-4.38078">
        <ele>18.396</ele>
        <time>2016-04-29T17:55:02Z</time>
      </trkpt>
      <trkpt lat="48.10716" lon="-4.38026">
        <ele>28.242</ele>
        <time>2016-04-29T17:54:42Z</time>
      </trkpt>
      <trkpt lat="48.10757" lon="-4.3797">
        <ele>19.89</ele>
        <time>2016-04-29T17:54:22Z</time>
      </trkpt>
      <trkpt lat="48.10748" lon="-4.37902">
        <ele>34.763</ele>
        <time>2016-04-29T17:54:02Z</time>
      </trkpt>
      <trkpt lat="48.10719" lon="-4.37863">
        <ele>42.351</ele>
        <time>2016-04-29T17:53:42Z</time>
      </trkpt>
      <trkpt lat="48.10751" lon="-4.37816">
        <ele>43.865</ele>
        <time>2016-04-29T17:53:22Z</time>
      </trkpt>
      <trkpt lat="48.10772" lon="-4.3779">
        <ele>40.608</ele>
        <time>2016-04-29T17:53:02Z</time>
      </trkpt>
      <trkpt lat="48.10778" lon="-4.37751">
        <ele>41.819</ele>
        <time>2016-04-29T17:52:42Z</time>
      </trkpt>
      <trkpt lat="48.10797" lon="-4.37687">
        <ele>36.581</ele>
        <time>2016-04-29T17:52:22Z</time>
      </trkpt>
      <trkpt lat="48.10814" lon="-4.37565">
        <ele>36.591</ele>
        <time>2016-04-29T17:52:02Z</time>
      </trkpt>
      <trkpt lat="48.10833" lon="-4.37524">
        <ele>33.987</ele>
        <time>2016-04-29T17:51:42Z</time>
      </trkpt>
      <trkpt lat="48.10898" lon="-4.37481">
        <ele>23.767</ele>
        <time>2016-04-29T17:51:22Z</time>
      </trkpt>
      <trkpt lat="48.10957" lon="-4.3747">
        <ele>22.333</ele>
        <time>2016-04-29T17:51:02Z</time>
      </trkpt>
      <trkpt lat="48.10979" lon="-4.37417">
        <ele>22.939</ele>
        <time>2016-04-29T17:50:42Z</time>
      </trkpt>
      <trkpt lat="48.10972" lon="-4.3737">
        <ele>31.057</ele>
        <time>2016-04-29T17:50:22Z</time>
      </trkpt>
      <trkpt lat="48.10986" lon="-4.37348">
        <ele>21.05</ele>
        <time>2016-04-29T17:50:02Z</time>
      </trkpt>
      <trkpt lat="48.10996" lon="-4.37271">
        <ele>13.838</ele>
        <time>2016-04-29T17:49:42Z</time>
      </trkpt>
      <trkpt lat="48.10979" lon="-4.37144">
        <ele>22.642</ele>
        <time>2016-04-29T17:49:22Z</time>
      </trkpt>
      <trkpt lat="48.10982" lon="-4.37095">
        <ele>16.108</ele>
        <time>2016-04-29T17:49:02Z</time>
      </trkpt>
      <trkpt lat="48.10931" lon="-4.36981">
        <ele>32.126</ele>
        <time>2016-04-29T17:48:42Z</time>
      </trkpt>
      <trkpt lat="48.10939" lon="-4.36925">
        <ele>34.042</ele>
        <time>2016-04-29T17:48:22Z</time>
      </trkpt>
      <trkpt lat="48.10961" lon="-4.36921">
        <ele>18.568</ele>
        <time>2016-04-29T17:48:02Z</time>
      </trkpt>
      <trkpt lat="48.10966" lon="-4.36846">
        <ele>12.978</ele>
        <time>2016-04-29T17:47:42Z</time>
      </trkpt>
      <trkpt lat="48.10939" lon="-4.36794">
        <ele>13.788</ele>
        <time>2016-04-29T17:47:22Z</time>
      </trkpt>
      <trkpt lat="48.10941" lon="-4.36739">
        <ele>1.974</ele>
        <time>2016-04-29T17:47:02Z</time>
      </trkpt>
      <trkpt lat="48.10876" lon="-4.36543">
        <ele>25.74</ele>
        <time>2016-04-29T17:46:42Z</time>
      </trkpt>
      <trkpt lat="48.10881" lon="-4.36494">
        <ele>23.778</ele>
        <time>2016-04-29T17:46:22Z</time>
      </trkpt>
      <trkpt lat="48.10873" lon="-4.3641">
        <ele>30.441</ele>
        <time>2016-04-29T17:46:02Z</time>
      </trkpt>
      <trkpt lat="48.10898" lon="-4.36357">
        <ele>11.539</ele>
        <time>2016-04-29T17:45:42Z</time>
      </trkpt>
      <trkpt lat="48.109" lon="-4.36316">
        <ele>8.373</ele>
        <time>2016-04-29T17:45:22Z</time>
      </trkpt>
      <trkpt lat="48.10914" lon="-4.36273">
        <ele>3.508</ele>
        <time>2016-04-29T17:45:02Z</time>
      </trkpt>
      <trkpt lat="48.10894" lon="-4.36207">
        <ele>6.021</ele>
        <time>2016-04-29T17:44:42Z</time>
      </trkpt>
      <trkpt lat="48.10861" lon="-4.36202">
        <ele>9.056</ele>
        <time>2016-04-29T17:44:22Z</time>
      </trkpt>
      <trkpt lat="48.10801" lon="-4.36146">
        <ele>11.674</ele>
        <time>2016-04-29T17:44:02Z</time>
      </trkpt>
      <trkpt lat="48.10735" lon="-4.3614">
        <ele>17.31</ele>
        <time>2016-04-29T17:43:42Z</time>
      </trkpt>
      <trkpt lat="48.10712" lon="-4.36114">
        <ele>15.18</ele>
        <time>2016-04-29T17:43:22Z</time>
      </trkpt>
      <trkpt lat="48.10669" lon="-4.36106">
        <ele>23.556</ele>
        <time>2016-04-29T17:43:02Z</time>
      </trkpt>
      <trkpt lat="48.10628" lon="-4.35951">
        <ele>15.612</ele>
        <time>2016-04-29T17:42:42Z</time>
      </trkpt>
      <trkpt lat="48.10555" lon="-4.35994">
        <ele>30.01</ele>
        <time>2016-04-29T17:42:22Z</time>
      </trkpt>
      <trkpt lat="48.10486" lon="-4.35833">
        <ele>25.043</ele>
        <time>2016-04-29T17:42:02Z</time>
      </trkpt>
      <trkpt lat="48.10483" lon="-4.35747">
        <ele>17.871</ele>
        <time>2016-04-29T17:41:42Z</time>
      </trkpt>
      <trkpt lat="48.10384" lon="-4.35599">
        <ele>19.935</ele>
        <time>2016-04-29T17:41:22Z</time>
      </trkpt>
      <trkpt lat="48.10414" lon="-4.35539">
        <ele>8.408</ele>
        <time>2016-04-29T17:41:02Z</time>
      </trkpt>
      <trkpt lat="48.10354" lon="-4.35473">
        <ele>14.02</ele>
        <time>2016-04-29T17:40:42Z</time>
      </trkpt>
      <trkpt lat="48.10291" lon="-4.3543">
        <ele>7.773</ele>
        <time>2016-04-29T17:40:22Z</time>
      </trkpt>
      <trkpt lat="48.10267" lon="-4.35329">
        <ele>4.792</ele>
        <time>2016-04-29T17:40:02Z</time>
      </trkpt>
      <trkpt lat="48.10246" lon="-4.35325">
        <ele>6.91</ele>
        <time>2016-04-29T17:39:42Z</time>
      </trkpt>
      <trkpt lat="48.10198" lon="-4.35284">
        <ele>5.51</ele>
        <time>2016-04-29T17:39:22Z</time>
      </trkpt>
      <trkpt lat="48.10168" lon="-4.35189">
        <ele>5.156</ele>
        <time>2016-04-29T17:39:02Z</time>
      </trkpt>
      <trkpt lat="48.10216" lon="-4.35155">
        <ele>2.882</ele>
        <time>2016-04-29T17:38:42Z</time>
      </trkpt>
      <trkpt lat="48.10205" lon="-4.34998">
        <ele>7.58</ele>
        <time>2016-04-29T17:38:22Z</time>
      </trkpt>
      <trkpt lat="48.10216" lon="-4.34895">
        <ele>5.143</ele>
        <time>2016-04-29T17:38:02Z</time>
      </trkpt>
      <trkpt lat="48.10229" lon="-4.34906">
        <ele>3.281</ele>
        <time>2016-04-29T17:37:42Z</time>
      </trkpt>
      <trkpt lat="48.10235" lon="-4.34885">
        <ele>3.355</ele>
        <time>2016-04-29T17:37:22Z</time>
      </trkpt>
      <trkpt lat="48.10214" lon="-4.34846">
        <ele>6.308</ele>
        <time>2016-04-29T17:37:02Z</time>
      </trkpt>
      <trkpt lat="48.10206" lon="-4.34786">
        <ele>6.919</ele>
        <time>2016-04-29T17:36:42Z</time>
      </trkpt>
      <trkpt lat="48.10176" lon="-4.34765">
        <ele>10.081</ele>
        <time>2016-04-29T17:36:22Z</time>
      </trkpt>
      <trkpt lat="48.10155" lon="-4.34735">
        <ele>11.291</ele>
        <time>2016-04-29T17:36:02Z</time>
      </trkpt>
      <trkpt lat="48.10123" lon="-4.34726">
        <ele>13.927</ele>
        <time>2016-04-29T17:35:42Z</time>
      </trkpt>
      <trkpt lat="48.10073" lon="-4.34664">
        <ele>13.417</ele>
        <time>2016-04-29T17:35:22Z</time>
      </trkpt>
      <trkpt lat="48.10059" lon="-4.34505">
        <ele>14.033</ele>
        <time>2016-04-29T17:35:02Z</time>
      </trkpt>
      <trkpt lat="48.101" lon="-4.34404">
        <ele>7.199</ele>
        <time>2016-04-29T17:34:42Z</time>
      </trkpt>
      <trkpt lat="48.10087" lon="-4.34327">
        <ele>3.797</ele>
        <time>2016-04-29T17:34:22Z</time>
      </trkpt>
      <trkpt lat="48.10024" lon="-4.34295">
        <ele>10.37</ele>
        <time>2016-04-29T17:34:02Z</time>
      </trkpt>
      <trkpt lat="48.10014" lon="-4.34269">
        <ele>12.738</ele>
        <time>2016-04-29T17:33:42Z</time>
      </trkpt>
      <trkpt lat="48.10034" lon="-4.34183">
        <ele>14.442</ele>
        <time>2016-04-29T17:33:22Z</time>
      </trkpt>
      <trkpt lat="48.10042" lon="-4.34127">
        <ele>5.608</ele>
        <time>2016-04-29T17:33:02Z</time>
      </trkpt>
      <trkpt lat="48.09852" lon="-4.33949">
        <ele>0.818</ele>
        <time>2016-04-29T17:32:42Z</time>
      </trkpt>
      <trkpt lat="48.09802" lon="-4.33969">
        <ele>1.644</ele>
        <time>2020-12-18T15:52:03Z</time>
      </trkpt>
      <trkpt lat="48.0978" lon="-4.34036">
        <ele>2.663</ele>
        <time>2020-12-18T15:51:43Z</time>
      </trkpt>
      <trkpt lat="48.09784" lon="-4.34075">
        <ele>5.444</ele>
        <time>2020-12-18T15:51:23Z</time>
      </trkpt>
      <trkpt lat="48.09708" lon="-4.34277">
        <ele>9.424</ele>
        <time>2016-04-29T17:29:42Z</time>
      </trkpt>
      <trkpt lat="48.09586" lon="-4.34166">
        <ele>3.73</ele>
        <time>2016-04-29T17:29:22Z</time>
      </trkpt>
      <trkpt lat="48.09615" lon="-4.34089">
        <ele>4.976</ele>
        <time>2016-04-29T17:29:02Z</time>
      </trkpt>
      <trkpt lat="48.09669" lon="-4.34048">
        <ele>4.124</ele>
        <time>2016-04-29T17:28:42Z</time>
      </trkpt>
      <trkpt lat="48.0967" lon="-4.33908">
        <ele>3.137</ele>
        <time>2016-04-29T17:28:22Z</time>
      </trkpt>
      <trkpt lat="48.09679" lon="-4.33865">
        <ele>2.035</ele>
        <time>2016-04-29T17:28:02Z</time>
      </trkpt>
      <trkpt lat="48.09679" lon="-4.33865">
        <ele>2.049</ele>
        <time>2016-04-29T17:27:42Z</time>
      </trkpt>
      <trkpt lat="48.09672" lon="-4.33833">
        <ele>1.008</ele>
        <time>2020-12-18T15:48:43Z</time>
      </trkpt>
      <trkpt lat="48.09657" lon="-4.33858">
        <ele>4.907</ele>
        <time>2020-12-18T15:48:23Z</time>
      </trkpt>
      <trkpt lat="48.09593" lon="-4.33853">
        <ele>10.261</ele>
        <time>2016-04-29T17:27:22Z</time>
      </trkpt>
      <trkpt lat="48.09589" lon="-4.33825">
        <ele>7.731</ele>
        <time>2016-04-29T17:27:02Z</time>
      </trkpt>
      <trkpt lat="48.09553" lon="-4.33799">
        <ele>7.864</ele>
        <time>2016-04-29T17:26:42Z</time>
      </trkpt>
      <trkpt lat="48.09526" lon="-4.33762">
        <ele>12.554</ele>
        <time>2016-04-29T17:26:22Z</time>
      </trkpt>
      <trkpt lat="48.09496" lon="-4.33752">
        <ele>20.32</ele>
        <time>2016-04-29T17:26:02Z</time>
      </trkpt>
      <trkpt lat="48.09468" lon="-4.33711">
        <ele>18.816</ele>
        <time>2016-04-29T17:25:42Z</time>
      </trkpt>
      <trkpt lat="48.09458" lon="-4.33707">
        <ele>20.674</ele>
        <time>2016-04-29T17:25:22Z</time>
      </trkpt>
      <trkpt lat="48.09437" lon="-4.33654">
        <ele>11.897</ele>
        <time>2020-12-18T15:45:43Z</time>
      </trkpt>
      <trkpt lat="48.09351" lon="-4.33569">
        <ele>12.585</ele>
        <time>2020-12-18T15:45:23Z</time>
      </trkpt>
      <trkpt lat="48.09245" lon="-4.33483">
        <ele>10.239</ele>
        <time>2020-12-18T15:45:03Z</time>
      </trkpt>
      <trkpt lat="48.09152" lon="-4.33483">
        <ele>13.308</ele>
        <time>2020-12-18T15:44:43Z</time>
      </trkpt>
      <trkpt lat="48.09127" lon="-4.33538">
        <ele>20.607</ele>
        <time>2020-12-18T15:44:23Z</time>
      </trkpt>
      <trkpt lat="48.08961" lon="-4.33447">
        <ele>14.861</ele>
        <time>2020-12-18T15:44:03Z</time>
      </trkpt>
      <trkpt lat="48.09021" lon="-4.33172">
        <ele>18.731</ele>
        <time>2020-12-18T15:43:43Z</time>
      </trkpt>
      <trkpt lat="48.0904" lon="-4.33193">
        <ele>15.396</ele>
        <time>2020-12-18T15:43:23Z</time>
      </trkpt>
      <trkpt lat="48.09035" lon="-4.33235">
        <ele>4.816</ele>
        <time>2020-12-18T15:43:03Z</time>
      </trkpt>
      <trkpt lat="48.09217" lon="-4.33326">
        <ele>8.862</ele>
        <time>2020-12-18T15:42:43Z</time>
      </trkpt>
      <trkpt lat="48.09471" lon="-4.33494">
        <ele>0.828</ele>
        <time>2016-04-29T17:24:42Z</time>
      </trkpt>
      <trkpt lat="48.09663" lon="-4.33539">
        <ele>1.786</ele>
        <time>2020-03-28T21:39:36Z</time>
      </trkpt>
      <trkpt lat="48.09704" lon="-4.33526">
        <ele>3.659</ele>
        <time>2020-03-28T21:39:16Z</time>
      </trkpt>
      <trkpt lat="48.09768" lon="-4.3344">
        <ele>2.987</ele>
        <time>2020-03-28T21:38:56Z</time>
      </trkpt>
      <trkpt lat="48.09774" lon="-4.33382">
        <ele>3.521</ele>
        <time>2020-03-28T21:38:36Z</time>
      </trkpt>
      <trkpt lat="48.09761" lon="-4.33344">
        <ele>4.208</ele>
        <time>2020-03-28T21:38:16Z</time>
      </trkpt>
      <trkpt lat="48.09704" lon="-4.33326">
        <ele>14.317</ele>
        <time>2020-03-28T21:37:56Z</time>
      </trkpt>
      <trkpt lat="48.09685" lon="-4.33262">
        <ele>13.707</ele>
        <time>2020-03-28T21:37:36Z</time>
      </trkpt>
      <trkpt lat="48.09704" lon="-4.33148">
        <ele>7.955</ele>
        <time>2020-03-28T21:37:16Z</time>
      </trkpt>
      <trkpt lat="48.09656" lon="-4.331">
        <ele>17.377</ele>
        <time>2020-03-28T21:36:56Z</time>
      </trkpt>
      <trkpt lat="48.09646" lon="-4.33062">
        <ele>13.637</ele>
        <time>2019-04-04T21:46:39Z</time>
      </trkpt>
      <trkpt lat="48.09651" lon="-4.33023">
        <ele>10.623</ele>
        <time>2019-04-04T21:46:19Z</time>
      </trkpt>
      <trkpt lat="48.09688" lon="-4.32963">
        <ele>11.689</ele>
        <time>2019-04-04T21:45:59Z</time>
      </trkpt>
      <trkpt lat="48.09775" lon="-4.32896">
        <ele>3.027</ele>
        <time>2019-04-04T21:45:39Z</time>
      </trkpt>
      <trkpt lat="48.09749" lon="-4.32595">
        <ele>4.85</ele>
        <time>2019-04-04T21:45:19Z</time>
      </trkpt>
      <trkpt lat="48.09729" lon="-4.32526">
        <ele>8.968</ele>
        <time>2019-04-04T21:44:59Z</time>
      </trkpt>
      <trkpt lat="48.09703" lon="-4.32485">
        <ele>10.892</ele>
        <time>2019-04-04T21:44:39Z</time>
      </trkpt>
      <trkpt lat="48.09656" lon="-4.32452">
        <ele>11.408</ele>
        <time>2019-04-04T21:44:19Z</time>
      </trkpt>
      <trkpt lat="48.09528" lon="-4.32462">
        <ele>12.911</ele>
        <time>2019-04-04T21:43:59Z</time>
      </trkpt>
      <trkpt lat="48.09499" lon="-4.32473">
        <ele>11.083</ele>
        <time>2019-04-04T21:43:39Z</time>
      </trkpt>
      <trkpt lat="48.09365" lon="-4.32425">
        <ele>3.562</ele>
        <time>2019-04-04T21:43:19Z</time>
      </trkpt>
      <trkpt lat="48.09365" lon="-4.32425">
        <ele>3.562</ele>
        <time>2019-04-04T21:43:19Z</time>
      </trkpt>
    </trkseg>
  </trk>
</gpx>